<?xml version='1.0' encoding='UTF-8'?><gpx version="1.1" creator="JPX - https://github.com/jenetics/jpx" xmlns="http://www.topografix.com/GPX/1/1"><trk><trkseg><trkpt lat="9.9915859" lon="-84.1705194"><ele>990.0</ele><time>2026-04-08T21:31:30.869Z</time></trkpt><trkpt lat="9.9915221" lon="-84.1704916"><ele>990.0</ele><time>2026-04-08T21:31:35.528Z</time></trkpt><trkpt lat="9.9914598" lon="-84.1704735"><ele>990.0</ele><time>2026-04-08T21:31:41.311Z</time></trkpt><trkpt lat="9.9913991" lon="-84.1704497"><ele>990.0</ele><time>2026-04-08T21:31:46.448Z</time></trkpt><trkpt lat="9.9913355" lon="-84.1704211"><ele>990.0</ele><time>2026-04-08T21:31:52.266Z</time></trkpt><trkpt lat="9.9912718" lon="-84.1703986"><ele>990.0</ele><time>2026-04-08T21:31:57.99Z</time></trkpt><trkpt lat="9.9908807" lon="-84.1701797"><ele>990.0</ele><time>2026-04-08T21:34:41.59Z</time></trkpt><trkpt lat="9.9909046" lon="-84.1701152"><ele>990.0</ele><time>2026-04-08T21:34:44.591Z</time></trkpt><trkpt lat="9.9908968" lon="-84.170035"><ele>990.0</ele><time>2026-04-08T21:35:33.591Z</time></trkpt><trkpt lat="9.9908573" lon="-84.1699537"><ele>990.0</ele><time>2026-04-08T21:35:36.591Z</time></trkpt><trkpt lat="9.990781" lon="-84.1699153"><ele>990.0</ele><time>2026-04-08T21:35:39.592Z</time></trkpt><trkpt lat="9.9907242" lon="-84.1698796"><ele>990.0</ele><time>2026-04-08T21:35:43.59Z</time></trkpt><trkpt lat="9.9906714" lon="-84.1698297"><ele>989.2</ele><time>2026-04-08T21:35:46.59Z</time></trkpt><trkpt lat="9.9906673" lon="-84.1697107"><ele>988.4</ele><time>2026-04-08T21:35:48.592Z</time></trkpt><trkpt lat="9.9906833" lon="-84.1696339"><ele>987.5999999999999</ele><time>2026-04-08T21:35:49.589Z</time></trkpt><trkpt lat="9.9907045" lon="-84.1695597"><ele>986.8</ele><time>2026-04-08T21:35:50.591Z</time></trkpt><trkpt lat="9.9907345" lon="-84.169473"><ele>986.0</ele><time>2026-04-08T21:35:51.591Z</time></trkpt><trkpt lat="9.9907622" lon="-84.1693869"><ele>986.0</ele><time>2026-04-08T21:35:52.591Z</time></trkpt><trkpt lat="9.9907925" lon="-84.1692916"><ele>985.9999999999999</ele><time>2026-04-08T21:35:53.592Z</time></trkpt><trkpt lat="9.9908227" lon="-84.1691974"><ele>985.9999999999999</ele><time>2026-04-08T21:35:54.591Z</time></trkpt><trkpt lat="9.9908614" lon="-84.1690997"><ele>986.0</ele><time>2026-04-08T21:35:55.592Z</time></trkpt><trkpt lat="9.9908979" lon="-84.1689971"><ele>986.0</ele><time>2026-04-08T21:35:56.589Z</time></trkpt><trkpt lat="9.9909318" lon="-84.1688962"><ele>987.25</ele><time>2026-04-08T21:35:57.59Z</time></trkpt><trkpt lat="9.9909673" lon="-84.1687943"><ele>988.5</ele><time>2026-04-08T21:35:58.59Z</time></trkpt><trkpt lat="9.991005" lon="-84.1686868"><ele>989.75</ele><time>2026-04-08T21:35:59.591Z</time></trkpt><trkpt lat="9.9910404" lon="-84.1685757"><ele>991.0</ele><time>2026-04-08T21:36:00.592Z</time></trkpt><trkpt lat="9.9910761" lon="-84.1684592"><ele>991.0</ele><time>2026-04-08T21:36:01.592Z</time></trkpt><trkpt lat="9.9911144" lon="-84.1683411"><ele>991.0</ele><time>2026-04-08T21:36:02.592Z</time></trkpt><trkpt lat="9.9911548" lon="-84.1682149"><ele>991.0</ele><time>2026-04-08T21:36:03.591Z</time></trkpt><trkpt lat="9.9911967" lon="-84.1680902"><ele>991.0</ele><time>2026-04-08T21:36:04.592Z</time></trkpt><trkpt lat="9.9912411" lon="-84.167958"><ele>991.0</ele><time>2026-04-08T21:36:05.589Z</time></trkpt><trkpt lat="9.9912816" lon="-84.1678376"><ele>991.0</ele><time>2026-04-08T21:36:06.589Z</time></trkpt><trkpt lat="9.9913201" lon="-84.1677257"><ele>991.0</ele><time>2026-04-08T21:36:07.589Z</time></trkpt><trkpt lat="9.991357" lon="-84.1676198"><ele>991.0</ele><time>2026-04-08T21:36:08.59Z</time></trkpt><trkpt lat="9.991387" lon="-84.1675251"><ele>990.9999999999999</ele><time>2026-04-08T21:36:09.591Z</time></trkpt><trkpt lat="9.9914152" lon="-84.1674356"><ele>991.0</ele><time>2026-04-08T21:36:10.589Z</time></trkpt><trkpt lat="9.9914412" lon="-84.1673566"><ele>991.0</ele><time>2026-04-08T21:36:11.592Z</time></trkpt><trkpt lat="9.9914682" lon="-84.1672834"><ele>991.0</ele><time>2026-04-08T21:36:12.591Z</time></trkpt><trkpt lat="9.9914886" lon="-84.1672196"><ele>990.9999999999999</ele><time>2026-04-08T21:36:13.592Z</time></trkpt><trkpt lat="9.9915237" lon="-84.1671058"><ele>991.0</ele><time>2026-04-08T21:36:15.591Z</time></trkpt><trkpt lat="9.991551" lon="-84.1670151"><ele>991.0000000000001</ele><time>2026-04-08T21:36:17.591Z</time></trkpt><trkpt lat="9.9915785" lon="-84.1669425"><ele>991.0</ele><time>2026-04-08T21:36:19.591Z</time></trkpt><trkpt lat="9.9916058" lon="-84.1668787"><ele>991.0000000000001</ele><time>2026-04-08T21:36:21.591Z</time></trkpt><trkpt lat="9.9916304" lon="-84.1668113"><ele>991.0000000000001</ele><time>2026-04-08T21:36:23.592Z</time></trkpt><trkpt lat="9.9916541" lon="-84.1667437"><ele>991.0</ele><time>2026-04-08T21:36:25.592Z</time></trkpt><trkpt lat="9.9916812" lon="-84.1666779"><ele>991.0000000000001</ele><time>2026-04-08T21:36:27.591Z</time></trkpt><trkpt lat="9.9916873" lon="-84.1666006"><ele>991.0000000000001</ele><time>2026-04-08T21:36:29.591Z</time></trkpt><trkpt lat="9.9916218" lon="-84.1665139"><ele>989.4</ele><time>2026-04-08T21:36:31.59Z</time></trkpt><trkpt lat="9.9915461" lon="-84.1664887"><ele>987.8</ele><time>2026-04-08T21:36:32.591Z</time></trkpt><trkpt lat="9.9914632" lon="-84.1664609"><ele>986.1999999999999</ele><time>2026-04-08T21:36:33.59Z</time></trkpt><trkpt lat="9.9913675" lon="-84.1664193"><ele>984.5999999999999</ele><time>2026-04-08T21:36:34.591Z</time></trkpt><trkpt lat="9.9912658" lon="-84.1663724"><ele>983.0</ele><time>2026-04-08T21:36:35.59Z</time></trkpt><trkpt lat="9.9911632" lon="-84.1663269"><ele>983.0</ele><time>2026-04-08T21:36:36.591Z</time></trkpt><trkpt lat="9.9910669" lon="-84.1662769"><ele>983.0</ele><time>2026-04-08T21:36:37.591Z</time></trkpt><trkpt lat="9.9909629" lon="-84.1662191"><ele>983.0</ele><time>2026-04-08T21:36:38.591Z</time></trkpt><trkpt lat="9.9908566" lon="-84.1661567"><ele>983.0</ele><time>2026-04-08T21:36:39.592Z</time></trkpt><trkpt lat="9.9907411" lon="-84.1660947"><ele>982.0</ele><time>2026-04-08T21:36:40.59Z</time></trkpt><trkpt lat="9.9906117" lon="-84.1660421"><ele>981.0</ele><time>2026-04-08T21:36:41.59Z</time></trkpt><trkpt lat="9.9904678" lon="-84.1659862"><ele>980.0</ele><time>2026-04-08T21:36:42.59Z</time></trkpt><trkpt lat="9.9903193" lon="-84.1659276"><ele>980.0</ele><time>2026-04-08T21:36:43.591Z</time></trkpt><trkpt lat="9.9901647" lon="-84.1658663"><ele>980.0</ele><time>2026-04-08T21:36:44.591Z</time></trkpt><trkpt lat="9.9900063" lon="-84.1657972"><ele>980.0</ele><time>2026-04-08T21:36:45.591Z</time></trkpt><trkpt lat="9.9898539" lon="-84.1657318"><ele>977.6666666666667</ele><time>2026-04-08T21:36:46.59Z</time></trkpt><trkpt lat="9.989701" lon="-84.1656716"><ele>975.3333333333333</ele><time>2026-04-08T21:36:47.59Z</time></trkpt><trkpt lat="9.9895419" lon="-84.165608"><ele>973.0</ele><time>2026-04-08T21:36:48.591Z</time></trkpt><trkpt lat="9.9893777" lon="-84.1655421"><ele>973.0</ele><time>2026-04-08T21:36:49.592Z</time></trkpt><trkpt lat="9.9892075" lon="-84.165481"><ele>973.0</ele><time>2026-04-08T21:36:50.591Z</time></trkpt><trkpt lat="9.9890369" lon="-84.1654148"><ele>973.0</ele><time>2026-04-08T21:36:51.591Z</time></trkpt><trkpt lat="9.9888665" lon="-84.165351"><ele>973.0</ele><time>2026-04-08T21:36:52.591Z</time></trkpt><trkpt lat="9.9886932" lon="-84.1652889"><ele>973.0</ele><time>2026-04-08T21:36:53.59Z</time></trkpt><trkpt lat="9.98853" lon="-84.1652282"><ele>973.0</ele><time>2026-04-08T21:36:54.59Z</time></trkpt><trkpt lat="9.9883643" lon="-84.1651662"><ele>972.6666666666666</ele><time>2026-04-08T21:36:55.592Z</time></trkpt><trkpt lat="9.9882007" lon="-84.1650997"><ele>972.3333333333333</ele><time>2026-04-08T21:36:56.59Z</time></trkpt><trkpt lat="9.988033" lon="-84.1650361"><ele>972.0</ele><time>2026-04-08T21:36:57.591Z</time></trkpt><trkpt lat="9.9878661" lon="-84.1649777"><ele>972.0</ele><time>2026-04-08T21:36:58.59Z</time></trkpt><trkpt lat="9.9876964" lon="-84.1649196"><ele>972.0</ele><time>2026-04-08T21:36:59.591Z</time></trkpt><trkpt lat="9.9875272" lon="-84.1648523"><ele>972.0</ele><time>2026-04-08T21:37:00.591Z</time></trkpt><trkpt lat="9.9873578" lon="-84.1647895"><ele>973.0</ele><time>2026-04-08T21:37:01.592Z</time></trkpt><trkpt lat="9.987183" lon="-84.1647261"><ele>974.0</ele><time>2026-04-08T21:37:02.591Z</time></trkpt><trkpt lat="9.9870112" lon="-84.1646588"><ele>975.0</ele><time>2026-04-08T21:37:03.591Z</time></trkpt><trkpt lat="9.9868449" lon="-84.1645976"><ele>975.3333333333333</ele><time>2026-04-08T21:37:04.591Z</time></trkpt><trkpt lat="9.9866753" lon="-84.1645336"><ele>975.6666666666666</ele><time>2026-04-08T21:37:05.589Z</time></trkpt><trkpt lat="9.9865052" lon="-84.1644647"><ele>976.0</ele><time>2026-04-08T21:37:06.591Z</time></trkpt><trkpt lat="9.9863342" lon="-84.1644025"><ele>976.0</ele><time>2026-04-08T21:37:07.592Z</time></trkpt><trkpt lat="9.9861652" lon="-84.1643413"><ele>976.0</ele><time>2026-04-08T21:37:08.59Z</time></trkpt><trkpt lat="9.9859969" lon="-84.1642674"><ele>976.0</ele><time>2026-04-08T21:37:09.591Z</time></trkpt><trkpt lat="9.9858346" lon="-84.164208"><ele>978.0</ele><time>2026-04-08T21:37:10.591Z</time></trkpt><trkpt lat="9.9856713" lon="-84.1641494"><ele>980.0</ele><time>2026-04-08T21:37:11.59Z</time></trkpt><trkpt lat="9.9855124" lon="-84.1640911"><ele>982.0</ele><time>2026-04-08T21:37:12.592Z</time></trkpt><trkpt lat="9.9853513" lon="-84.1640289"><ele>982.3333333333333</ele><time>2026-04-08T21:37:13.591Z</time></trkpt><trkpt lat="9.9851943" lon="-84.1639707"><ele>982.6666666666667</ele><time>2026-04-08T21:37:14.591Z</time></trkpt><trkpt lat="9.9850285" lon="-84.1639107"><ele>983.0</ele><time>2026-04-08T21:37:15.59Z</time></trkpt><trkpt lat="9.9848639" lon="-84.1638511"><ele>983.6666666666667</ele><time>2026-04-08T21:37:16.591Z</time></trkpt><trkpt lat="9.9847063" lon="-84.163795"><ele>984.3333333333333</ele><time>2026-04-08T21:37:17.592Z</time></trkpt><trkpt lat="9.9845443" lon="-84.1637359"><ele>985.0</ele><time>2026-04-08T21:37:18.591Z</time></trkpt><trkpt lat="9.984382" lon="-84.1636766"><ele>985.0</ele><time>2026-04-08T21:37:19.59Z</time></trkpt><trkpt lat="9.9842188" lon="-84.163617"><ele>985.0</ele><time>2026-04-08T21:37:20.591Z</time></trkpt><trkpt lat="9.9840623" lon="-84.1635613"><ele>985.0</ele><time>2026-04-08T21:37:21.59Z</time></trkpt><trkpt lat="9.9839122" lon="-84.1635058"><ele>986.3333333333333</ele><time>2026-04-08T21:37:22.592Z</time></trkpt><trkpt lat="9.9837685" lon="-84.1634474"><ele>987.6666666666667</ele><time>2026-04-08T21:37:23.59Z</time></trkpt><trkpt lat="9.9836209" lon="-84.1633977"><ele>989.0</ele><time>2026-04-08T21:37:24.591Z</time></trkpt><trkpt lat="9.9834761" lon="-84.163348"><ele>990.3333333333334</ele><time>2026-04-08T21:37:25.591Z</time></trkpt><trkpt lat="9.9833237" lon="-84.1632912"><ele>991.6666666666667</ele><time>2026-04-08T21:37:26.591Z</time></trkpt><trkpt lat="9.983164" lon="-84.1632332"><ele>993.0</ele><time>2026-04-08T21:37:27.59Z</time></trkpt><trkpt lat="9.9830123" lon="-84.1631755"><ele>994.3333333333333</ele><time>2026-04-08T21:37:28.59Z</time></trkpt><trkpt lat="9.9828639" lon="-84.1631157"><ele>995.6666666666666</ele><time>2026-04-08T21:37:29.591Z</time></trkpt><trkpt lat="9.9827196" lon="-84.1630564"><ele>997.0</ele><time>2026-04-08T21:37:30.591Z</time></trkpt><trkpt lat="9.9825854" lon="-84.1629963"><ele>997.5</ele><time>2026-04-08T21:37:31.591Z</time></trkpt><trkpt lat="9.9824509" lon="-84.1629293"><ele>998.0</ele><time>2026-04-08T21:37:32.59Z</time></trkpt><trkpt lat="9.9823253" lon="-84.1628602"><ele>998.5</ele><time>2026-04-08T21:37:33.59Z</time></trkpt><trkpt lat="9.9821998" lon="-84.1627908"><ele>999.0</ele><time>2026-04-08T21:37:34.59Z</time></trkpt><trkpt lat="9.9820774" lon="-84.1627131"><ele>999.0</ele><time>2026-04-08T21:37:35.591Z</time></trkpt><trkpt lat="9.9819554" lon="-84.1626357"><ele>999.0</ele><time>2026-04-08T21:37:36.591Z</time></trkpt><trkpt lat="9.9818325" lon="-84.1625556"><ele>999.0</ele><time>2026-04-08T21:37:37.591Z</time></trkpt><trkpt lat="9.9817227" lon="-84.1624869"><ele>999.0</ele><time>2026-04-08T21:37:38.59Z</time></trkpt><trkpt lat="9.9816139" lon="-84.1624162"><ele>999.75</ele><time>2026-04-08T21:37:39.591Z</time></trkpt><trkpt lat="9.9815045" lon="-84.162339"><ele>1000.5</ele><time>2026-04-08T21:37:40.59Z</time></trkpt><trkpt lat="9.9813925" lon="-84.1622589"><ele>1001.25</ele><time>2026-04-08T21:37:41.59Z</time></trkpt><trkpt lat="9.9812802" lon="-84.1621718"><ele>1002.0</ele><time>2026-04-08T21:37:42.59Z</time></trkpt><trkpt lat="9.9811699" lon="-84.1620775"><ele>1002.0</ele><time>2026-04-08T21:37:43.592Z</time></trkpt><trkpt lat="9.9810533" lon="-84.1619652"><ele>1002.0</ele><time>2026-04-08T21:37:44.589Z</time></trkpt><trkpt lat="9.9809364" lon="-84.161866"><ele>1002.0</ele><time>2026-04-08T21:37:45.591Z</time></trkpt><trkpt lat="9.9808167" lon="-84.1617543"><ele>1000.3333333333333</ele><time>2026-04-08T21:37:46.591Z</time></trkpt><trkpt lat="9.9807025" lon="-84.1616422"><ele>998.6666666666666</ele><time>2026-04-08T21:37:47.59Z</time></trkpt><trkpt lat="9.9805979" lon="-84.1615324"><ele>997.0</ele><time>2026-04-08T21:37:48.591Z</time></trkpt><trkpt lat="9.9805" lon="-84.1614237"><ele>997.0</ele><time>2026-04-08T21:37:49.592Z</time></trkpt><trkpt lat="9.9804041" lon="-84.1613112"><ele>997.0</ele><time>2026-04-08T21:37:50.59Z</time></trkpt><trkpt lat="9.9803026" lon="-84.1611858"><ele>997.0</ele><time>2026-04-08T21:37:51.591Z</time></trkpt><trkpt lat="9.9802062" lon="-84.161057"><ele>997.0</ele><time>2026-04-08T21:37:52.591Z</time></trkpt><trkpt lat="9.9801124" lon="-84.160921"><ele>997.0</ele><time>2026-04-08T21:37:53.591Z</time></trkpt><trkpt lat="9.9800199" lon="-84.1607899"><ele>997.0</ele><time>2026-04-08T21:37:54.59Z</time></trkpt><trkpt lat="9.9799352" lon="-84.1606612"><ele>995.3333333333333</ele><time>2026-04-08T21:37:55.59Z</time></trkpt><trkpt lat="9.9798537" lon="-84.160526"><ele>993.6666666666667</ele><time>2026-04-08T21:37:56.591Z</time></trkpt><trkpt lat="9.9797754" lon="-84.1603881"><ele>992.0</ele><time>2026-04-08T21:37:57.591Z</time></trkpt><trkpt lat="9.9796927" lon="-84.1602403"><ele>992.0</ele><time>2026-04-08T21:37:58.59Z</time></trkpt><trkpt lat="9.979611" lon="-84.1600921"><ele>992.0</ele><time>2026-04-08T21:37:59.591Z</time></trkpt><trkpt lat="9.9795302" lon="-84.1599409"><ele>992.0</ele><time>2026-04-08T21:38:00.591Z</time></trkpt><trkpt lat="9.9794492" lon="-84.159789"><ele>991.3333333333334</ele><time>2026-04-08T21:38:01.59Z</time></trkpt><trkpt lat="9.9793671" lon="-84.159643"><ele>990.6666666666667</ele><time>2026-04-08T21:38:02.591Z</time></trkpt><trkpt lat="9.9792874" lon="-84.1595013"><ele>990.0</ele><time>2026-04-08T21:38:03.591Z</time></trkpt><trkpt lat="9.9792132" lon="-84.159373"><ele>989.0</ele><time>2026-04-08T21:38:04.59Z</time></trkpt><trkpt lat="9.97915" lon="-84.1592473"><ele>988.0</ele><time>2026-04-08T21:38:05.591Z</time></trkpt><trkpt lat="9.979082" lon="-84.1591175"><ele>987.0</ele><time>2026-04-08T21:38:06.591Z</time></trkpt><trkpt lat="9.9790158" lon="-84.1589836"><ele>986.0</ele><time>2026-04-08T21:38:07.589Z</time></trkpt><trkpt lat="9.9789436" lon="-84.1588373"><ele>986.0</ele><time>2026-04-08T21:38:08.59Z</time></trkpt><trkpt lat="9.9788753" lon="-84.1587042"><ele>986.0</ele><time>2026-04-08T21:38:09.591Z</time></trkpt><trkpt lat="9.9788081" lon="-84.1585813"><ele>986.0</ele><time>2026-04-08T21:38:10.59Z</time></trkpt><trkpt lat="9.9787431" lon="-84.1584614"><ele>986.0</ele><time>2026-04-08T21:38:11.59Z</time></trkpt><trkpt lat="9.978682" lon="-84.158343"><ele>986.0</ele><time>2026-04-08T21:38:12.59Z</time></trkpt><trkpt lat="9.978616" lon="-84.1582196"><ele>986.0</ele><time>2026-04-08T21:38:13.591Z</time></trkpt><trkpt lat="9.9785469" lon="-84.1580966"><ele>986.0</ele><time>2026-04-08T21:38:14.59Z</time></trkpt><trkpt lat="9.9784833" lon="-84.1579701"><ele>986.0</ele><time>2026-04-08T21:38:15.591Z</time></trkpt><trkpt lat="9.9784216" lon="-84.1578594"><ele>985.8</ele><time>2026-04-08T21:38:16.591Z</time></trkpt><trkpt lat="9.9783658" lon="-84.1577503"><ele>985.5999999999999</ele><time>2026-04-08T21:38:17.589Z</time></trkpt><trkpt lat="9.9783143" lon="-84.1576582"><ele>985.4</ele><time>2026-04-08T21:38:18.591Z</time></trkpt><trkpt lat="9.9782686" lon="-84.1575728"><ele>985.2</ele><time>2026-04-08T21:38:19.591Z</time></trkpt><trkpt lat="9.9782184" lon="-84.1574877"><ele>985.0</ele><time>2026-04-08T21:38:20.592Z</time></trkpt><trkpt lat="9.9781758" lon="-84.1573999"><ele>986.0</ele><time>2026-04-08T21:38:21.591Z</time></trkpt><trkpt lat="9.9781284" lon="-84.1573086"><ele>987.0</ele><time>2026-04-08T21:38:22.591Z</time></trkpt><trkpt lat="9.9780852" lon="-84.1572241"><ele>988.0</ele><time>2026-04-08T21:38:23.589Z</time></trkpt><trkpt lat="9.9780355" lon="-84.1571486"><ele>989.0</ele><time>2026-04-08T21:38:24.591Z</time></trkpt><trkpt lat="9.9779952" lon="-84.1570687"><ele>990.0</ele><time>2026-04-08T21:38:25.59Z</time></trkpt><trkpt lat="9.9779476" lon="-84.1569917"><ele>990.0</ele><time>2026-04-08T21:38:26.59Z</time></trkpt><trkpt lat="9.9779045" lon="-84.1568986"><ele>990.0</ele><time>2026-04-08T21:38:27.59Z</time></trkpt><trkpt lat="9.9778582" lon="-84.1568053"><ele>990.0</ele><time>2026-04-08T21:38:28.591Z</time></trkpt><trkpt lat="9.9778115" lon="-84.1567162"><ele>990.0</ele><time>2026-04-08T21:38:29.592Z</time></trkpt><trkpt lat="9.9777678" lon="-84.156634"><ele>990.0</ele><time>2026-04-08T21:38:30.591Z</time></trkpt><trkpt lat="9.9777278" lon="-84.1565651"><ele>990.8</ele><time>2026-04-08T21:38:31.59Z</time></trkpt><trkpt lat="9.977684" lon="-84.1564842"><ele>991.6</ele><time>2026-04-08T21:38:32.59Z</time></trkpt><trkpt lat="9.9776344" lon="-84.1563989"><ele>992.4000000000001</ele><time>2026-04-08T21:38:33.59Z</time></trkpt><trkpt lat="9.9775873" lon="-84.156306"><ele>993.2</ele><time>2026-04-08T21:38:34.591Z</time></trkpt><trkpt lat="9.9775319" lon="-84.1562123"><ele>994.0</ele><time>2026-04-08T21:38:35.591Z</time></trkpt><trkpt lat="9.9774785" lon="-84.1561096"><ele>993.0</ele><time>2026-04-08T21:38:36.591Z</time></trkpt><trkpt lat="9.9774252" lon="-84.1560108"><ele>992.0000000000001</ele><time>2026-04-08T21:38:37.591Z</time></trkpt><trkpt lat="9.9773738" lon="-84.155917"><ele>991.0000000000001</ele><time>2026-04-08T21:38:38.59Z</time></trkpt><trkpt lat="9.977325" lon="-84.1558319"><ele>990.0</ele><time>2026-04-08T21:38:39.591Z</time></trkpt><trkpt lat="9.9772844" lon="-84.1557513"><ele>989.0</ele><time>2026-04-08T21:38:40.591Z</time></trkpt><trkpt lat="9.9772483" lon="-84.1556785"><ele>989.0</ele><time>2026-04-08T21:38:41.591Z</time></trkpt><trkpt lat="9.9772133" lon="-84.1556166"><ele>989.0000000000001</ele><time>2026-04-08T21:38:42.591Z</time></trkpt><trkpt lat="9.9771536" lon="-84.1555039"><ele>989.0000000000001</ele><time>2026-04-08T21:38:44.591Z</time></trkpt><trkpt lat="9.9770908" lon="-84.1553914"><ele>989.0</ele><time>2026-04-08T21:38:46.591Z</time></trkpt><trkpt lat="9.9770573" lon="-84.1553239"><ele>989.0</ele><time>2026-04-08T21:38:47.59Z</time></trkpt><trkpt lat="9.9770204" lon="-84.1552622"><ele>989.0000000000001</ele><time>2026-04-08T21:38:48.591Z</time></trkpt><trkpt lat="9.976987" lon="-84.1552044"><ele>989.0</ele><time>2026-04-08T21:38:49.59Z</time></trkpt><trkpt lat="9.9769324" lon="-84.1551117"><ele>989.0</ele><time>2026-04-08T21:38:51.59Z</time></trkpt><trkpt lat="9.9768838" lon="-84.1550245"><ele>989.0</ele><time>2026-04-08T21:38:53.59Z</time></trkpt><trkpt lat="9.976847" lon="-84.154956"><ele>989.0000000000001</ele><time>2026-04-08T21:38:55.591Z</time></trkpt><trkpt lat="9.9768148" lon="-84.1548928"><ele>989.0</ele><time>2026-04-08T21:39:14.59Z</time></trkpt><trkpt lat="9.9767711" lon="-84.1548212"><ele>989.2857142857142</ele><time>2026-04-08T21:39:18.59Z</time></trkpt><trkpt lat="9.9767366" lon="-84.1547598"><ele>989.5714285714284</ele><time>2026-04-08T21:39:21.59Z</time></trkpt><trkpt lat="9.9766999" lon="-84.1546921"><ele>989.8571428571429</ele><time>2026-04-08T21:39:24.589Z</time></trkpt><trkpt lat="9.9766753" lon="-84.1546269"><ele>990.1428571428571</ele><time>2026-04-08T21:39:28.59Z</time></trkpt><trkpt lat="9.9766449" lon="-84.1545589"><ele>990.4285714285714</ele><time>2026-04-08T21:39:33.591Z</time></trkpt><trkpt lat="9.9765999" lon="-84.1544843"><ele>990.7142857142858</ele><time>2026-04-08T21:39:37.59Z</time></trkpt><trkpt lat="9.97656" lon="-84.1544211"><ele>991.0000000000001</ele><time>2026-04-08T21:39:39.591Z</time></trkpt><trkpt lat="9.9765185" lon="-84.1543453"><ele>990.0000000000001</ele><time>2026-04-08T21:39:42.591Z</time></trkpt><trkpt lat="9.9764831" lon="-84.1542797"><ele>989.0</ele><time>2026-04-08T21:39:45.591Z</time></trkpt><trkpt lat="9.9764467" lon="-84.1542143"><ele>988.0000000000001</ele><time>2026-04-08T21:39:47.59Z</time></trkpt><trkpt lat="9.9764109" lon="-84.1541535"><ele>987.0000000000001</ele><time>2026-04-08T21:39:49.59Z</time></trkpt><trkpt lat="9.9763811" lon="-84.1540932"><ele>986.0</ele><time>2026-04-08T21:39:51.591Z</time></trkpt><trkpt lat="9.9763521" lon="-84.1540353"><ele>985.0000000000001</ele><time>2026-04-08T21:39:53.591Z</time></trkpt><trkpt lat="9.9763226" lon="-84.1539784"><ele>984.0000000000001</ele><time>2026-04-08T21:39:55.591Z</time></trkpt><trkpt lat="9.9762779" lon="-84.1538922"><ele>984.0</ele><time>2026-04-08T21:39:57.591Z</time></trkpt><trkpt lat="9.9762348" lon="-84.1538145"><ele>984.0</ele><time>2026-04-08T21:39:59.59Z</time></trkpt><trkpt lat="9.9761861" lon="-84.1537439"><ele>984.0</ele><time>2026-04-08T21:40:01.59Z</time></trkpt><trkpt lat="9.9761562" lon="-84.1536845"><ele>984.0</ele><time>2026-04-08T21:40:03.591Z</time></trkpt><trkpt lat="9.9761192" lon="-84.1536027"><ele>984.0</ele><time>2026-04-08T21:40:06.591Z</time></trkpt><trkpt lat="9.9760839" lon="-84.1535423"><ele>984.0</ele><time>2026-04-08T21:40:09.589Z</time></trkpt><trkpt lat="9.9760526" lon="-84.153474"><ele>984.0000000000001</ele><time>2026-04-08T21:40:12.591Z</time></trkpt><trkpt lat="9.9760161" lon="-84.1534038"><ele>984.0</ele><time>2026-04-08T21:40:15.59Z</time></trkpt><trkpt lat="9.9759829" lon="-84.1533342"><ele>984.0000000000001</ele><time>2026-04-08T21:40:18.591Z</time></trkpt><trkpt lat="9.9759357" lon="-84.1532727"><ele>984.0000000000001</ele><time>2026-04-08T21:40:21.591Z</time></trkpt><trkpt lat="9.9759106" lon="-84.1532106"><ele>984.0</ele><time>2026-04-08T21:40:24.591Z</time></trkpt><trkpt lat="9.9758736" lon="-84.1531498"><ele>984.0000000000001</ele><time>2026-04-08T21:40:27.589Z</time></trkpt><trkpt lat="9.9758345" lon="-84.1530836"><ele>984.0000000000001</ele><time>2026-04-08T21:40:31.588Z</time></trkpt><trkpt lat="9.9758034" lon="-84.1530242"><ele>984.0</ele><time>2026-04-08T21:40:34.59Z</time></trkpt><trkpt lat="9.9757723" lon="-84.152965"><ele>984.0</ele><time>2026-04-08T21:40:37.59Z</time></trkpt><trkpt lat="9.975736" lon="-84.1529"><ele>984.0</ele><time>2026-04-08T21:40:41.59Z</time></trkpt><trkpt lat="9.9757023" lon="-84.1528374"><ele>984.0</ele><time>2026-04-08T21:40:46.591Z</time></trkpt><trkpt lat="9.9756634" lon="-84.1527622"><ele>984.0</ele><time>2026-04-08T21:41:01.59Z</time></trkpt><trkpt lat="9.9756258" lon="-84.1526936"><ele>984.0</ele><time>2026-04-08T21:41:04.591Z</time></trkpt><trkpt lat="9.9755842" lon="-84.1526227"><ele>984.0</ele><time>2026-04-08T21:41:07.591Z</time></trkpt><trkpt lat="9.9755458" lon="-84.1525357"><ele>984.0</ele><time>2026-04-08T21:41:10.591Z</time></trkpt><trkpt lat="9.9755147" lon="-84.1524801"><ele>984.0</ele><time>2026-04-08T21:41:11.589Z</time></trkpt><trkpt lat="9.9754614" lon="-84.1523848"><ele>984.0</ele><time>2026-04-08T21:41:13.59Z</time></trkpt><trkpt lat="9.9754195" lon="-84.1523136"><ele>984.0</ele><time>2026-04-08T21:41:15.59Z</time></trkpt><trkpt lat="9.975383" lon="-84.1522424"><ele>984.0</ele><time>2026-04-08T21:41:17.591Z</time></trkpt><trkpt lat="9.9753363" lon="-84.152167"><ele>984.3333333333334</ele><time>2026-04-08T21:41:19.59Z</time></trkpt><trkpt lat="9.9752965" lon="-84.1520909"><ele>984.6666666666667</ele><time>2026-04-08T21:41:21.59Z</time></trkpt><trkpt lat="9.9752618" lon="-84.1520252"><ele>985.0</ele><time>2026-04-08T21:41:23.591Z</time></trkpt><trkpt lat="9.9752306" lon="-84.1519612"><ele>985.3333333333334</ele><time>2026-04-08T21:41:26.59Z</time></trkpt><trkpt lat="9.975193" lon="-84.1518987"><ele>985.6666666666667</ele><time>2026-04-08T21:41:29.59Z</time></trkpt><trkpt lat="9.9751547" lon="-84.1518367"><ele>986.0</ele><time>2026-04-08T21:41:31.59Z</time></trkpt><trkpt lat="9.9751192" lon="-84.1517524"><ele>986.0000000000001</ele><time>2026-04-08T21:41:33.591Z</time></trkpt><trkpt lat="9.9750587" lon="-84.1516352"><ele>986.0</ele><time>2026-04-08T21:41:35.591Z</time></trkpt><trkpt lat="9.9750216" lon="-84.1515612"><ele>986.0</ele><time>2026-04-08T21:41:36.59Z</time></trkpt><trkpt lat="9.9749814" lon="-84.1514997"><ele>986.0</ele><time>2026-04-08T21:41:37.589Z</time></trkpt><trkpt lat="9.9749452" lon="-84.1514408"><ele>986.0000000000001</ele><time>2026-04-08T21:41:38.591Z</time></trkpt><trkpt lat="9.974909" lon="-84.1513764"><ele>986.0</ele><time>2026-04-08T21:41:39.589Z</time></trkpt><trkpt lat="9.9748729" lon="-84.1513098"><ele>985.3333333333334</ele><time>2026-04-08T21:41:40.59Z</time></trkpt><trkpt lat="9.9748328" lon="-84.1512392"><ele>984.6666666666667</ele><time>2026-04-08T21:41:41.589Z</time></trkpt><trkpt lat="9.9747931" lon="-84.1511642"><ele>984.0</ele><time>2026-04-08T21:41:42.589Z</time></trkpt><trkpt lat="9.9747592" lon="-84.1511018"><ele>983.3333333333333</ele><time>2026-04-08T21:41:43.59Z</time></trkpt><trkpt lat="9.9747261" lon="-84.1510409"><ele>982.6666666666666</ele><time>2026-04-08T21:41:44.591Z</time></trkpt><trkpt lat="9.9746879" lon="-84.150984"><ele>982.0</ele><time>2026-04-08T21:41:45.591Z</time></trkpt><trkpt lat="9.9746346" lon="-84.1508724"><ele>982.0</ele><time>2026-04-08T21:41:47.591Z</time></trkpt><trkpt lat="9.9746067" lon="-84.1508091"><ele>982.0</ele><time>2026-04-08T21:41:48.59Z</time></trkpt><trkpt lat="9.974549" lon="-84.1507082"><ele>982.0</ele><time>2026-04-08T21:41:50.589Z</time></trkpt><trkpt lat="9.9745224" lon="-84.1506484"><ele>982.0</ele><time>2026-04-08T21:41:51.589Z</time></trkpt><trkpt lat="9.9744643" lon="-84.1505417"><ele>982.0</ele><time>2026-04-08T21:41:53.59Z</time></trkpt><trkpt lat="9.9744145" lon="-84.1504342"><ele>982.3333333333333</ele><time>2026-04-08T21:41:55.591Z</time></trkpt><trkpt lat="9.9743569" lon="-84.1503193"><ele>982.6666666666666</ele><time>2026-04-08T21:41:57.59Z</time></trkpt><trkpt lat="9.9743268" lon="-84.1502544"><ele>983.0</ele><time>2026-04-08T21:41:58.59Z</time></trkpt><trkpt lat="9.9743009" lon="-84.1501914"><ele>983.3333333333333</ele><time>2026-04-08T21:41:59.589Z</time></trkpt><trkpt lat="9.9742694" lon="-84.1501223"><ele>983.6666666666666</ele><time>2026-04-08T21:42:00.59Z</time></trkpt><trkpt lat="9.9742415" lon="-84.1500569"><ele>984.0</ele><time>2026-04-08T21:42:01.59Z</time></trkpt><trkpt lat="9.9742145" lon="-84.1499941"><ele>983.2</ele><time>2026-04-08T21:42:02.589Z</time></trkpt><trkpt lat="9.9741812" lon="-84.1499205"><ele>982.4000000000001</ele><time>2026-04-08T21:42:03.59Z</time></trkpt><trkpt lat="9.9741436" lon="-84.1498333"><ele>981.6</ele><time>2026-04-08T21:42:04.591Z</time></trkpt><trkpt lat="9.974102" lon="-84.149736"><ele>980.8</ele><time>2026-04-08T21:42:05.589Z</time></trkpt><trkpt lat="9.9740563" lon="-84.1496341"><ele>980.0</ele><time>2026-04-08T21:42:06.59Z</time></trkpt><trkpt lat="9.9740151" lon="-84.1495405"><ele>981.6</ele><time>2026-04-08T21:42:07.589Z</time></trkpt><trkpt lat="9.9739768" lon="-84.1494578"><ele>983.2</ele><time>2026-04-08T21:42:08.591Z</time></trkpt><trkpt lat="9.9739427" lon="-84.149374"><ele>984.8</ele><time>2026-04-08T21:42:09.589Z</time></trkpt><trkpt lat="9.9739071" lon="-84.1492888"><ele>986.4</ele><time>2026-04-08T21:42:10.59Z</time></trkpt><trkpt lat="9.9738757" lon="-84.1492069"><ele>988.0</ele><time>2026-04-08T21:42:11.59Z</time></trkpt><trkpt lat="9.9738401" lon="-84.1491171"><ele>988.8</ele><time>2026-04-08T21:42:12.591Z</time></trkpt><trkpt lat="9.9738065" lon="-84.1490237"><ele>989.5999999999999</ele><time>2026-04-08T21:42:13.59Z</time></trkpt><trkpt lat="9.9737754" lon="-84.1489264"><ele>990.4000000000001</ele><time>2026-04-08T21:42:14.59Z</time></trkpt><trkpt lat="9.973738" lon="-84.1488198"><ele>991.2</ele><time>2026-04-08T21:42:15.591Z</time></trkpt><trkpt lat="9.9736968" lon="-84.148728"><ele>992.0</ele><time>2026-04-08T21:42:16.59Z</time></trkpt><trkpt lat="9.9736648" lon="-84.1486453"><ele>992.0000000000001</ele><time>2026-04-08T21:42:17.591Z</time></trkpt><trkpt lat="9.9736324" lon="-84.1485564"><ele>992.0</ele><time>2026-04-08T21:42:18.59Z</time></trkpt><trkpt lat="9.9736015" lon="-84.148463"><ele>992.0</ele><time>2026-04-08T21:42:19.59Z</time></trkpt><trkpt lat="9.973573" lon="-84.1483826"><ele>992.0</ele><time>2026-04-08T21:42:20.591Z</time></trkpt><trkpt lat="9.9735474" lon="-84.1483105"><ele>992.0000000000001</ele><time>2026-04-08T21:42:21.59Z</time></trkpt><trkpt lat="9.9735274" lon="-84.1482464"><ele>992.0</ele><time>2026-04-08T21:42:22.588Z</time></trkpt><trkpt lat="9.9734793" lon="-84.1481395"><ele>992.0</ele><time>2026-04-08T21:42:24.59Z</time></trkpt><trkpt lat="9.9734434" lon="-84.1480414"><ele>992.0</ele><time>2026-04-08T21:42:26.59Z</time></trkpt><trkpt lat="9.9734077" lon="-84.1479433"><ele>992.0</ele><time>2026-04-08T21:42:28.59Z</time></trkpt><trkpt lat="9.973367" lon="-84.1478382"><ele>992.0</ele><time>2026-04-08T21:42:30.589Z</time></trkpt><trkpt lat="9.9733233" lon="-84.1477156"><ele>992.0</ele><time>2026-04-08T21:42:32.588Z</time></trkpt><trkpt lat="9.9732962" lon="-84.1476474"><ele>992.0</ele><time>2026-04-08T21:42:33.589Z</time></trkpt><trkpt lat="9.973271" lon="-84.1475834"><ele>992.0</ele><time>2026-04-08T21:42:34.589Z</time></trkpt><trkpt lat="9.9732257" lon="-84.1474721"><ele>992.0</ele><time>2026-04-08T21:42:36.59Z</time></trkpt><trkpt lat="9.9731787" lon="-84.1473595"><ele>992.0</ele><time>2026-04-08T21:42:38.59Z</time></trkpt><trkpt lat="9.9731419" lon="-84.1472561"><ele>992.0</ele><time>2026-04-08T21:42:40.59Z</time></trkpt><trkpt lat="9.9731133" lon="-84.1471661"><ele>993.2</ele><time>2026-04-08T21:42:42.589Z</time></trkpt><trkpt lat="9.9730749" lon="-84.1470732"><ele>994.4000000000001</ele><time>2026-04-08T21:42:44.59Z</time></trkpt><trkpt lat="9.9730415" lon="-84.1469821"><ele>995.5999999999999</ele><time>2026-04-08T21:42:46.59Z</time></trkpt><trkpt lat="9.9730071" lon="-84.1468954"><ele>996.8</ele><time>2026-04-08T21:42:48.589Z</time></trkpt><trkpt lat="9.9729742" lon="-84.146812"><ele>998.0</ele><time>2026-04-08T21:42:50.589Z</time></trkpt><trkpt lat="9.9729395" lon="-84.1467342"><ele>998.0000000000001</ele><time>2026-04-08T21:42:52.59Z</time></trkpt><trkpt lat="9.9729163" lon="-84.1466578"><ele>998.0</ele><time>2026-04-08T21:42:54.589Z</time></trkpt><trkpt lat="9.9728837" lon="-84.146576"><ele>998.0</ele><time>2026-04-08T21:42:56.59Z</time></trkpt><trkpt lat="9.9728535" lon="-84.146503"><ele>998.0</ele><time>2026-04-08T21:42:58.589Z</time></trkpt><trkpt lat="9.9728224" lon="-84.1464249"><ele>998.0000000000001</ele><time>2026-04-08T21:43:00.589Z</time></trkpt><trkpt lat="9.9727974" lon="-84.146344"><ele>998.0</ele><time>2026-04-08T21:43:02.59Z</time></trkpt><trkpt lat="9.972766" lon="-84.1462677"><ele>998.2</ele><time>2026-04-08T21:43:04.589Z</time></trkpt><trkpt lat="9.9727363" lon="-84.1461949"><ele>998.4</ele><time>2026-04-08T21:43:06.589Z</time></trkpt><trkpt lat="9.9727083" lon="-84.1461045"><ele>998.6000000000001</ele><time>2026-04-08T21:43:08.588Z</time></trkpt><trkpt lat="9.9726652" lon="-84.146"><ele>998.8000000000001</ele><time>2026-04-08T21:43:10.589Z</time></trkpt><trkpt lat="9.9726244" lon="-84.1458905"><ele>999.0</ele><time>2026-04-08T21:43:12.59Z</time></trkpt><trkpt lat="9.9725992" lon="-84.1458105"><ele>999.0</ele><time>2026-04-08T21:43:14.59Z</time></trkpt><trkpt lat="9.9725775" lon="-84.1457472"><ele>999.0000000000001</ele><time>2026-04-08T21:43:16.59Z</time></trkpt><trkpt lat="9.9725556" lon="-84.1456856"><ele>999.0</ele><time>2026-04-08T21:43:19.589Z</time></trkpt><trkpt lat="9.9725323" lon="-84.1456185"><ele>999.0</ele><time>2026-04-08T21:43:21.59Z</time></trkpt><trkpt lat="9.9725074" lon="-84.1455444"><ele>999.0000000000001</ele><time>2026-04-08T21:43:23.589Z</time></trkpt><trkpt lat="9.9724792" lon="-84.1454717"><ele>999.0</ele><time>2026-04-08T21:43:25.59Z</time></trkpt><trkpt lat="9.9724565" lon="-84.1454038"><ele>999.0</ele><time>2026-04-08T21:43:27.59Z</time></trkpt><trkpt lat="9.9724336" lon="-84.1453346"><ele>998.1666666666666</ele><time>2026-04-08T21:43:30.59Z</time></trkpt><trkpt lat="9.9724028" lon="-84.1452582"><ele>997.3333333333333</ele><time>2026-04-08T21:43:34.59Z</time></trkpt><trkpt lat="9.9723774" lon="-84.1451888"><ele>996.5</ele><time>2026-04-08T21:43:38.589Z</time></trkpt><trkpt lat="9.972344" lon="-84.1451013"><ele>995.6666666666666</ele><time>2026-04-08T21:43:41.59Z</time></trkpt><trkpt lat="9.9723199" lon="-84.1450386"><ele>994.8333333333333</ele><time>2026-04-08T21:43:44.59Z</time></trkpt><trkpt lat="9.9722869" lon="-84.1449474"><ele>994.0</ele><time>2026-04-08T21:43:49.589Z</time></trkpt><trkpt lat="9.972255" lon="-84.1448696"><ele>994.0</ele><time>2026-04-08T21:43:51.59Z</time></trkpt><trkpt lat="9.9722133" lon="-84.1447587"><ele>994.0</ele><time>2026-04-08T21:43:53.588Z</time></trkpt><trkpt lat="9.9721771" lon="-84.1446463"><ele>994.0</ele><time>2026-04-08T21:43:55.59Z</time></trkpt><trkpt lat="9.9721334" lon="-84.1445392"><ele>994.0</ele><time>2026-04-08T21:43:57.59Z</time></trkpt><trkpt lat="9.9720886" lon="-84.1444213"><ele>994.0</ele><time>2026-04-08T21:43:59.59Z</time></trkpt><trkpt lat="9.9720541" lon="-84.1443292"><ele>994.0000000000001</ele><time>2026-04-08T21:44:01.59Z</time></trkpt><trkpt lat="9.9720249" lon="-84.1442503"><ele>994.0000000000001</ele><time>2026-04-08T21:44:03.59Z</time></trkpt><trkpt lat="9.9719804" lon="-84.1441326"><ele>994.0</ele><time>2026-04-08T21:44:05.589Z</time></trkpt><trkpt lat="9.971948" lon="-84.1440536"><ele>994.0</ele><time>2026-04-08T21:44:06.59Z</time></trkpt><trkpt lat="9.971915" lon="-84.1439731"><ele>993.4999999999999</ele><time>2026-04-08T21:44:07.589Z</time></trkpt><trkpt lat="9.9718902" lon="-84.1438923"><ele>993.0</ele><time>2026-04-08T21:44:08.59Z</time></trkpt><trkpt lat="9.9718594" lon="-84.1438095"><ele>992.5</ele><time>2026-04-08T21:44:09.589Z</time></trkpt><trkpt lat="9.9718322" lon="-84.1437321"><ele>992.0</ele><time>2026-04-08T21:44:10.59Z</time></trkpt><trkpt lat="9.9718033" lon="-84.1436585"><ele>991.4999999999999</ele><time>2026-04-08T21:44:11.589Z</time></trkpt><trkpt lat="9.9717802" lon="-84.1435944"><ele>991.0</ele><time>2026-04-08T21:44:12.59Z</time></trkpt><trkpt lat="9.9717299" lon="-84.1434926"><ele>990.9999999999999</ele><time>2026-04-08T21:44:14.589Z</time></trkpt><trkpt lat="9.9716999" lon="-84.143408"><ele>991.0</ele><time>2026-04-08T21:44:16.59Z</time></trkpt><trkpt lat="9.97167" lon="-84.1433192"><ele>991.0</ele><time>2026-04-08T21:44:18.59Z</time></trkpt><trkpt lat="9.9716478" lon="-84.1432531"><ele>991.0</ele><time>2026-04-08T21:44:20.589Z</time></trkpt><trkpt lat="9.9716134" lon="-84.1431774"><ele>990.9999999999999</ele><time>2026-04-08T21:44:23.59Z</time></trkpt><trkpt lat="9.9715877" lon="-84.143099"><ele>991.0</ele><time>2026-04-08T21:44:27.589Z</time></trkpt><trkpt lat="9.9715618" lon="-84.1430311"><ele>991.0000000000001</ele><time>2026-04-08T21:44:30.59Z</time></trkpt><trkpt lat="9.9715325" lon="-84.1429597"><ele>991.0</ele><time>2026-04-08T21:44:35.59Z</time></trkpt><trkpt lat="9.9715118" lon="-84.1428947"><ele>991.0000000000001</ele><time>2026-04-08T21:44:41.589Z</time></trkpt><trkpt lat="9.9714926" lon="-84.1428189"><ele>991.0000000000001</ele><time>2026-04-08T21:44:46.589Z</time></trkpt><trkpt lat="9.9714596" lon="-84.1427538"><ele>991.0</ele><time>2026-04-08T21:44:51.59Z</time></trkpt><trkpt lat="9.9714347" lon="-84.142682"><ele>991.0000000000001</ele><time>2026-04-08T21:44:56.589Z</time></trkpt><trkpt lat="9.9714123" lon="-84.1426132"><ele>991.0000000000001</ele><time>2026-04-08T21:44:58.59Z</time></trkpt><trkpt lat="9.9713801" lon="-84.1425474"><ele>990.9999999999999</ele><time>2026-04-08T21:44:59.59Z</time></trkpt><trkpt lat="9.9713508" lon="-84.1424574"><ele>991.0</ele><time>2026-04-08T21:45:01.589Z</time></trkpt><trkpt lat="9.971319" lon="-84.1423679"><ele>991.0</ele><time>2026-04-08T21:45:03.589Z</time></trkpt><trkpt lat="9.9712847" lon="-84.1423071"><ele>991.0</ele><time>2026-04-08T21:45:06.59Z</time></trkpt><trkpt lat="9.9712564" lon="-84.1422495"><ele>990.9999999999999</ele><time>2026-04-08T21:45:10.588Z</time></trkpt><trkpt lat="9.9712366" lon="-84.1421785"><ele>991.0</ele><time>2026-04-08T21:45:31.589Z</time></trkpt><trkpt lat="9.9712094" lon="-84.1421133"><ele>991.8</ele><time>2026-04-08T21:45:34.588Z</time></trkpt><trkpt lat="9.9711812" lon="-84.142032"><ele>992.5999999999999</ele><time>2026-04-08T21:45:36.589Z</time></trkpt><trkpt lat="9.9711387" lon="-84.1419074"><ele>993.4</ele><time>2026-04-08T21:45:38.589Z</time></trkpt><trkpt lat="9.9711108" lon="-84.1418401"><ele>994.2</ele><time>2026-04-08T21:45:39.59Z</time></trkpt><trkpt lat="9.9710698" lon="-84.14173"><ele>995.0</ele><time>2026-04-08T21:45:41.588Z</time></trkpt><trkpt lat="9.9710284" lon="-84.1416273"><ele>995.1666666666667</ele><time>2026-04-08T21:45:43.589Z</time></trkpt><trkpt lat="9.9709899" lon="-84.14153"><ele>995.3333333333334</ele><time>2026-04-08T21:45:45.59Z</time></trkpt><trkpt lat="9.9709508" lon="-84.1414379"><ele>995.5</ele><time>2026-04-08T21:45:47.589Z</time></trkpt><trkpt lat="9.9709179" lon="-84.1413612"><ele>995.6666666666667</ele><time>2026-04-08T21:45:49.59Z</time></trkpt><trkpt lat="9.9708962" lon="-84.1412903"><ele>995.8333333333334</ele><time>2026-04-08T21:45:51.589Z</time></trkpt><trkpt lat="9.9708609" lon="-84.1412124"><ele>996.0</ele><time>2026-04-08T21:45:54.589Z</time></trkpt><trkpt lat="9.9708309" lon="-84.1411426"><ele>998.6666666666666</ele><time>2026-04-08T21:45:58.59Z</time></trkpt><trkpt lat="9.9707992" lon="-84.1410801"><ele>1001.3333333333333</ele><time>2026-04-08T21:46:03.59Z</time></trkpt><trkpt lat="9.9707746" lon="-84.1410198"><ele>1004.0</ele><time>2026-04-08T21:46:06.59Z</time></trkpt><trkpt lat="9.9707398" lon="-84.1409411"><ele>1006.6666666666666</ele><time>2026-04-08T21:46:08.588Z</time></trkpt><trkpt lat="9.9706966" lon="-84.1408508"><ele>1009.3333333333333</ele><time>2026-04-08T21:46:10.589Z</time></trkpt><trkpt lat="9.9706484" lon="-84.1407528"><ele>1012.0</ele><time>2026-04-08T21:46:12.59Z</time></trkpt><trkpt lat="9.970614" lon="-84.1406833"><ele>1012.0000000000001</ele><time>2026-04-08T21:46:14.588Z</time></trkpt><trkpt lat="9.9705923" lon="-84.1406215"><ele>1012.0</ele><time>2026-04-08T21:46:17.589Z</time></trkpt><trkpt lat="9.970558" lon="-84.1405642"><ele>1012.0000000000001</ele><time>2026-04-08T21:46:21.588Z</time></trkpt><trkpt lat="9.9705284" lon="-84.1404984"><ele>1012.0000000000001</ele><time>2026-04-08T21:46:28.589Z</time></trkpt><trkpt lat="9.9704942" lon="-84.1404294"><ele>1012.0</ele><time>2026-04-08T21:46:42.59Z</time></trkpt><trkpt lat="9.9704659" lon="-84.1403628"><ele>1012.0000000000001</ele><time>2026-04-08T21:46:47.59Z</time></trkpt><trkpt lat="9.970437" lon="-84.1402968"><ele>1012.0000000000001</ele><time>2026-04-08T21:46:53.589Z</time></trkpt><trkpt lat="9.970404" lon="-84.1402368"><ele>1011.9999999999999</ele><time>2026-04-08T21:46:56.589Z</time></trkpt><trkpt lat="9.9703646" lon="-84.1401553"><ele>1012.0</ele><time>2026-04-08T21:46:58.589Z</time></trkpt><trkpt lat="9.9703336" lon="-84.1400811"><ele>1012.0</ele><time>2026-04-08T21:47:00.589Z</time></trkpt><trkpt lat="9.970303" lon="-84.1400242"><ele>1012.0</ele><time>2026-04-08T21:47:03.589Z</time></trkpt><trkpt lat="9.9702622" lon="-84.1399526"><ele>1011.9999999999999</ele><time>2026-04-08T21:47:06.589Z</time></trkpt><trkpt lat="9.9702217" lon="-84.1398665"><ele>1012.0</ele><time>2026-04-08T21:47:09.588Z</time></trkpt><trkpt lat="9.9701772" lon="-84.1397887"><ele>1012.1428571428573</ele><time>2026-04-08T21:47:12.589Z</time></trkpt><trkpt lat="9.9701456" lon="-84.139723"><ele>1012.2857142857143</ele><time>2026-04-08T21:47:15.589Z</time></trkpt><trkpt lat="9.9701075" lon="-84.1396564"><ele>1012.4285714285716</ele><time>2026-04-08T21:47:20.589Z</time></trkpt><trkpt lat="9.9700656" lon="-84.1395845"><ele>1012.5714285714287</ele><time>2026-04-08T21:47:24.589Z</time></trkpt><trkpt lat="9.9700213" lon="-84.1395254"><ele>1012.7142857142858</ele><time>2026-04-08T21:47:57.589Z</time></trkpt><trkpt lat="9.9699914" lon="-84.1394643"><ele>1012.8571428571429</ele><time>2026-04-08T21:47:59.59Z</time></trkpt><trkpt lat="9.9699553" lon="-84.1393935"><ele>1013.0</ele><time>2026-04-08T21:48:01.589Z</time></trkpt><trkpt lat="9.9699183" lon="-84.1393246"><ele>1014.0000000000001</ele><time>2026-04-08T21:48:04.589Z</time></trkpt><trkpt lat="9.9698809" lon="-84.1392498"><ele>1015.0</ele><time>2026-04-08T21:48:18.59Z</time></trkpt><trkpt lat="9.9698422" lon="-84.1391829"><ele>1016.0</ele><time>2026-04-08T21:48:22.588Z</time></trkpt><trkpt lat="9.9697913" lon="-84.1391077"><ele>1017.0</ele><time>2026-04-08T21:48:37.588Z</time></trkpt><trkpt lat="9.9697486" lon="-84.1390301"><ele>1018.0000000000001</ele><time>2026-04-08T21:48:40.588Z</time></trkpt><trkpt lat="9.969717" lon="-84.1389696"><ele>1019.0</ele><time>2026-04-08T21:48:45.589Z</time></trkpt><trkpt lat="9.9696733" lon="-84.1389019"><ele>1019.6666666666667</ele><time>2026-04-08T21:48:54.588Z</time></trkpt><trkpt lat="9.969638" lon="-84.1388242"><ele>1020.3333333333334</ele><time>2026-04-08T21:48:56.588Z</time></trkpt><trkpt lat="9.9696051" lon="-84.1387606"><ele>1021.0</ele><time>2026-04-08T21:48:58.588Z</time></trkpt><trkpt lat="9.9695559" lon="-84.1386748"><ele>1021.6666666666667</ele><time>2026-04-08T21:49:01.589Z</time></trkpt><trkpt lat="9.9695201" lon="-84.1386072"><ele>1022.3333333333334</ele><time>2026-04-08T21:49:03.589Z</time></trkpt><trkpt lat="9.969485" lon="-84.1385385"><ele>1023.0</ele><time>2026-04-08T21:49:05.589Z</time></trkpt><trkpt lat="9.9694298" lon="-84.1384415"><ele>1023.0</ele><time>2026-04-08T21:49:07.589Z</time></trkpt><trkpt lat="9.9693749" lon="-84.1383377"><ele>1023.0</ele><time>2026-04-08T21:49:09.588Z</time></trkpt><trkpt lat="9.9693442" lon="-84.138275"><ele>1023.0</ele><time>2026-04-08T21:49:10.589Z</time></trkpt><trkpt lat="9.9693097" lon="-84.1382148"><ele>1023.0</ele><time>2026-04-08T21:49:11.588Z</time></trkpt><trkpt lat="9.9692708" lon="-84.1381494"><ele>1023.0</ele><time>2026-04-08T21:49:12.589Z</time></trkpt><trkpt lat="9.9692354" lon="-84.1380783"><ele>1023.0</ele><time>2026-04-08T21:49:13.588Z</time></trkpt><trkpt lat="9.9692" lon="-84.138007"><ele>1022.5999999999999</ele><time>2026-04-08T21:49:14.589Z</time></trkpt><trkpt lat="9.9691573" lon="-84.1379262"><ele>1022.1999999999999</ele><time>2026-04-08T21:49:15.587Z</time></trkpt><trkpt lat="9.9691075" lon="-84.1378431"><ele>1021.8</ele><time>2026-04-08T21:49:16.589Z</time></trkpt><trkpt lat="9.9690658" lon="-84.1377647"><ele>1021.4</ele><time>2026-04-08T21:49:17.587Z</time></trkpt><trkpt lat="9.9690191" lon="-84.1376866"><ele>1021.0</ele><time>2026-04-08T21:49:18.587Z</time></trkpt><trkpt lat="9.9689693" lon="-84.1376014"><ele>1021.0</ele><time>2026-04-08T21:49:19.589Z</time></trkpt><trkpt lat="9.9689286" lon="-84.1375192"><ele>1020.9999999999999</ele><time>2026-04-08T21:49:20.589Z</time></trkpt><trkpt lat="9.9688829" lon="-84.1374362"><ele>1020.9999999999999</ele><time>2026-04-08T21:49:21.588Z</time></trkpt><trkpt lat="9.9688435" lon="-84.1373563"><ele>1021.0</ele><time>2026-04-08T21:49:22.589Z</time></trkpt><trkpt lat="9.9687991" lon="-84.1372745"><ele>1021.0</ele><time>2026-04-08T21:49:23.588Z</time></trkpt><trkpt lat="9.9687549" lon="-84.1371996"><ele>1021.3333333333333</ele><time>2026-04-08T21:49:24.589Z</time></trkpt><trkpt lat="9.9687122" lon="-84.1371227"><ele>1021.6666666666666</ele><time>2026-04-08T21:49:25.588Z</time></trkpt><trkpt lat="9.9686725" lon="-84.1370586"><ele>1022.0</ele><time>2026-04-08T21:49:26.588Z</time></trkpt><trkpt lat="9.9686352" lon="-84.1369839"><ele>1022.3333333333333</ele><time>2026-04-08T21:49:27.588Z</time></trkpt><trkpt lat="9.9685974" lon="-84.1369157"><ele>1022.6666666666666</ele><time>2026-04-08T21:49:28.588Z</time></trkpt><trkpt lat="9.968561" lon="-84.136839"><ele>1023.0</ele><time>2026-04-08T21:49:29.589Z</time></trkpt><trkpt lat="9.968521" lon="-84.1367464"><ele>1023.0</ele><time>2026-04-08T21:49:30.588Z</time></trkpt><trkpt lat="9.9684687" lon="-84.1366537"><ele>1023.0</ele><time>2026-04-08T21:49:31.588Z</time></trkpt><trkpt lat="9.9684178" lon="-84.1365606"><ele>1023.0</ele><time>2026-04-08T21:49:32.589Z</time></trkpt><trkpt lat="9.968369" lon="-84.1364714"><ele>1023.0</ele><time>2026-04-08T21:49:33.589Z</time></trkpt><trkpt lat="9.9683207" lon="-84.1363933"><ele>1023.0</ele><time>2026-04-08T21:49:34.589Z</time></trkpt><trkpt lat="9.9682717" lon="-84.1363029"><ele>1022.75</ele><time>2026-04-08T21:49:35.588Z</time></trkpt><trkpt lat="9.9682135" lon="-84.1362017"><ele>1022.5</ele><time>2026-04-08T21:49:36.588Z</time></trkpt><trkpt lat="9.9681577" lon="-84.136095"><ele>1022.25</ele><time>2026-04-08T21:49:37.588Z</time></trkpt><trkpt lat="9.9680992" lon="-84.1359886"><ele>1022.0</ele><time>2026-04-08T21:49:38.588Z</time></trkpt><trkpt lat="9.9680412" lon="-84.1358944"><ele>1022.0</ele><time>2026-04-08T21:49:39.588Z</time></trkpt><trkpt lat="9.9679967" lon="-84.1358096"><ele>1022.0</ele><time>2026-04-08T21:49:40.589Z</time></trkpt><trkpt lat="9.9679506" lon="-84.135728"><ele>1022.0</ele><time>2026-04-08T21:49:41.588Z</time></trkpt><trkpt lat="9.9679179" lon="-84.1356619"><ele>1022.0</ele><time>2026-04-08T21:49:42.588Z</time></trkpt><trkpt lat="9.967885" lon="-84.1356"><ele>1022.0</ele><time>2026-04-08T21:49:43.589Z</time></trkpt><trkpt lat="9.9678268" lon="-84.1354882"><ele>1022.4000000000001</ele><time>2026-04-08T21:49:45.587Z</time></trkpt><trkpt lat="9.9677736" lon="-84.1353851"><ele>1022.8000000000001</ele><time>2026-04-08T21:49:47.588Z</time></trkpt><trkpt lat="9.9677115" lon="-84.1352713"><ele>1023.2</ele><time>2026-04-08T21:49:49.589Z</time></trkpt><trkpt lat="9.9676785" lon="-84.1352121"><ele>1023.6</ele><time>2026-04-08T21:49:50.588Z</time></trkpt><trkpt lat="9.9676452" lon="-84.1351537"><ele>1024.0</ele><time>2026-04-08T21:49:51.589Z</time></trkpt><trkpt lat="9.9676078" lon="-84.1350897"><ele>1024.0</ele><time>2026-04-08T21:49:52.589Z</time></trkpt><trkpt lat="9.967576" lon="-84.1350244"><ele>1024.0</ele><time>2026-04-08T21:49:53.589Z</time></trkpt><trkpt lat="9.9675263" lon="-84.134925"><ele>1024.0</ele><time>2026-04-08T21:49:55.588Z</time></trkpt><trkpt lat="9.9674666" lon="-84.134816"><ele>1024.0</ele><time>2026-04-08T21:49:57.588Z</time></trkpt><trkpt lat="9.9674134" lon="-84.1347129"><ele>1024.0</ele><time>2026-04-08T21:49:59.589Z</time></trkpt><trkpt lat="9.9673791" lon="-84.1346546"><ele>1018.4999999999999</ele><time>2026-04-08T21:50:00.589Z</time></trkpt><trkpt lat="9.9673437" lon="-84.1345926"><ele>1013.0</ele><time>2026-04-08T21:50:01.588Z</time></trkpt><trkpt lat="9.9672976" lon="-84.1345173"><ele>1007.5</ele><time>2026-04-08T21:50:02.587Z</time></trkpt><trkpt lat="9.9672565" lon="-84.1344365"><ele>1002.0</ele><time>2026-04-08T21:50:03.588Z</time></trkpt><trkpt lat="9.9672133" lon="-84.1343618"><ele>996.4999999999999</ele><time>2026-04-08T21:50:04.588Z</time></trkpt><trkpt lat="9.9671752" lon="-84.1342876"><ele>991.0</ele><time>2026-04-08T21:50:05.587Z</time></trkpt><trkpt lat="9.9671281" lon="-84.1342141"><ele>990.9999999999999</ele><time>2026-04-08T21:50:06.589Z</time></trkpt><trkpt lat="9.967091" lon="-84.1341343"><ele>991.0</ele><time>2026-04-08T21:50:07.587Z</time></trkpt><trkpt lat="9.9670513" lon="-84.1340627"><ele>991.0</ele><time>2026-04-08T21:50:08.588Z</time></trkpt><trkpt lat="9.9670169" lon="-84.1340034"><ele>991.0</ele><time>2026-04-08T21:50:09.587Z</time></trkpt><trkpt lat="9.9669858" lon="-84.1339458"><ele>990.9999999999999</ele><time>2026-04-08T21:50:10.589Z</time></trkpt><trkpt lat="9.966937" lon="-84.1338484"><ele>991.0</ele><time>2026-04-08T21:50:12.588Z</time></trkpt><trkpt lat="9.9668996" lon="-84.1337682"><ele>991.8333333333333</ele><time>2026-04-08T21:50:14.588Z</time></trkpt><trkpt lat="9.9668665" lon="-84.1337088"><ele>992.6666666666666</ele><time>2026-04-08T21:50:16.588Z</time></trkpt><trkpt lat="9.966824" lon="-84.1336457"><ele>993.5</ele><time>2026-04-08T21:50:19.588Z</time></trkpt><trkpt lat="9.9667937" lon="-84.1335792"><ele>994.3333333333333</ele><time>2026-04-08T21:50:21.587Z</time></trkpt><trkpt lat="9.966761" lon="-84.1335144"><ele>995.1666666666666</ele><time>2026-04-08T21:50:23.589Z</time></trkpt><trkpt lat="9.9666948" lon="-84.1333969"><ele>996.0</ele><time>2026-04-08T21:50:25.587Z</time></trkpt><trkpt lat="9.9666576" lon="-84.1333323"><ele>996.0</ele><time>2026-04-08T21:50:26.587Z</time></trkpt><trkpt lat="9.9666246" lon="-84.1332752"><ele>996.0</ele><time>2026-04-08T21:50:27.589Z</time></trkpt><trkpt lat="9.9665878" lon="-84.1332126"><ele>996.0</ele><time>2026-04-08T21:50:28.588Z</time></trkpt><trkpt lat="9.9665522" lon="-84.1331475"><ele>996.0</ele><time>2026-04-08T21:50:29.588Z</time></trkpt><trkpt lat="9.9665076" lon="-84.1330782"><ele>996.0</ele><time>2026-04-08T21:50:30.588Z</time></trkpt><trkpt lat="9.966466" lon="-84.1329983"><ele>996.0</ele><time>2026-04-08T21:50:31.588Z</time></trkpt><trkpt lat="9.966427" lon="-84.1329274"><ele>995.6666666666666</ele><time>2026-04-08T21:50:32.588Z</time></trkpt><trkpt lat="9.9663909" lon="-84.1328577"><ele>995.3333333333333</ele><time>2026-04-08T21:50:33.587Z</time></trkpt><trkpt lat="9.966361" lon="-84.1327989"><ele>995.0</ele><time>2026-04-08T21:50:34.589Z</time></trkpt><trkpt lat="9.9663281" lon="-84.1327405"><ele>994.6666666666666</ele><time>2026-04-08T21:50:35.588Z</time></trkpt><trkpt lat="9.9662956" lon="-84.1326811"><ele>994.3333333333333</ele><time>2026-04-08T21:50:36.589Z</time></trkpt><trkpt lat="9.9662431" lon="-84.1325867"><ele>994.0</ele><time>2026-04-08T21:50:38.588Z</time></trkpt><trkpt lat="9.9662064" lon="-84.1325156"><ele>993.9999999999999</ele><time>2026-04-08T21:50:40.588Z</time></trkpt><trkpt lat="9.9661741" lon="-84.1324605"><ele>994.0</ele><time>2026-04-08T21:50:42.588Z</time></trkpt><trkpt lat="9.9661208" lon="-84.1323656"><ele>994.0</ele><time>2026-04-08T21:50:45.587Z</time></trkpt><trkpt lat="9.9660591" lon="-84.1322513"><ele>994.0</ele><time>2026-04-08T21:50:47.587Z</time></trkpt><trkpt lat="9.9660227" lon="-84.1321866"><ele>993.9999999999999</ele><time>2026-04-08T21:50:48.588Z</time></trkpt><trkpt lat="9.9659934" lon="-84.1321258"><ele>994.0</ele><time>2026-04-08T21:50:49.588Z</time></trkpt><trkpt lat="9.9659465" lon="-84.1320312"><ele>992.0</ele><time>2026-04-08T21:50:51.589Z</time></trkpt><trkpt lat="9.9658938" lon="-84.1319363"><ele>990.0000000000001</ele><time>2026-04-08T21:50:53.588Z</time></trkpt><trkpt lat="9.9658401" lon="-84.1318401"><ele>988.0000000000001</ele><time>2026-04-08T21:50:55.588Z</time></trkpt><trkpt lat="9.9657842" lon="-84.1317339"><ele>986.0</ele><time>2026-04-08T21:50:57.588Z</time></trkpt><trkpt lat="9.9657527" lon="-84.1316731"><ele>984.0</ele><time>2026-04-08T21:50:58.589Z</time></trkpt><trkpt lat="9.9657187" lon="-84.131613"><ele>986.2</ele><time>2026-04-08T21:50:59.588Z</time></trkpt><trkpt lat="9.9656676" lon="-84.1315225"><ele>988.4000000000001</ele><time>2026-04-08T21:51:01.588Z</time></trkpt><trkpt lat="9.9656426" lon="-84.1314534"><ele>990.6</ele><time>2026-04-08T21:51:03.588Z</time></trkpt><trkpt lat="9.9655967" lon="-84.1313709"><ele>992.8</ele><time>2026-04-08T21:51:06.587Z</time></trkpt><trkpt lat="9.9655514" lon="-84.1312955"><ele>995.0</ele><time>2026-04-08T21:51:08.588Z</time></trkpt><trkpt lat="9.9655009" lon="-84.131209"><ele>995.0</ele><time>2026-04-08T21:51:10.588Z</time></trkpt><trkpt lat="9.9654233" lon="-84.1311052"><ele>995.0</ele><time>2026-04-08T21:51:12.588Z</time></trkpt><trkpt lat="9.9653843" lon="-84.13104"><ele>995.0</ele><time>2026-04-08T21:51:13.588Z</time></trkpt><trkpt lat="9.9653324" lon="-84.1309684"><ele>995.0</ele><time>2026-04-08T21:51:14.587Z</time></trkpt><trkpt lat="9.9652737" lon="-84.1308803"><ele>995.0</ele><time>2026-04-08T21:51:15.588Z</time></trkpt><trkpt lat="9.9652173" lon="-84.1307821"><ele>994.4</ele><time>2026-04-08T21:51:16.593Z</time></trkpt><trkpt lat="9.9651613" lon="-84.1306717"><ele>993.8</ele><time>2026-04-08T21:51:17.588Z</time></trkpt><trkpt lat="9.9651084" lon="-84.130564"><ele>993.2</ele><time>2026-04-08T21:51:18.588Z</time></trkpt><trkpt lat="9.9650512" lon="-84.1304729"><ele>992.6</ele><time>2026-04-08T21:51:19.587Z</time></trkpt><trkpt lat="9.9650071" lon="-84.1303869"><ele>992.0</ele><time>2026-04-08T21:51:20.588Z</time></trkpt><trkpt lat="9.9649608" lon="-84.1303152"><ele>997.4000000000001</ele><time>2026-04-08T21:51:21.588Z</time></trkpt><trkpt lat="9.9649368" lon="-84.1302455"><ele>1002.8000000000001</ele><time>2026-04-08T21:51:22.588Z</time></trkpt><trkpt lat="9.9649162" lon="-84.1301822"><ele>1008.2</ele><time>2026-04-08T21:51:23.587Z</time></trkpt><trkpt lat="9.9648657" lon="-84.1300621"><ele>1013.6</ele><time>2026-04-08T21:51:25.587Z</time></trkpt><trkpt lat="9.9648132" lon="-84.1299647"><ele>1019.0</ele><time>2026-04-08T21:51:27.587Z</time></trkpt><trkpt lat="9.9647473" lon="-84.1298436"><ele>1019.6666666666667</ele><time>2026-04-08T21:51:29.588Z</time></trkpt><trkpt lat="9.9647136" lon="-84.1297763"><ele>1020.3333333333334</ele><time>2026-04-08T21:51:30.587Z</time></trkpt><trkpt lat="9.9646835" lon="-84.1297183"><ele>1021.0</ele><time>2026-04-08T21:51:31.589Z</time></trkpt><trkpt lat="9.9646518" lon="-84.1296626"><ele>1021.6666666666667</ele><time>2026-04-08T21:51:32.588Z</time></trkpt><trkpt lat="9.9645946" lon="-84.1295626"><ele>1022.3333333333334</ele><time>2026-04-08T21:51:34.588Z</time></trkpt><trkpt lat="9.9645403" lon="-84.1294626"><ele>1023.0</ele><time>2026-04-08T21:51:36.588Z</time></trkpt><trkpt lat="9.9644872" lon="-84.1293608"><ele>1023.0</ele><time>2026-04-08T21:51:38.588Z</time></trkpt><trkpt lat="9.9644396" lon="-84.1292795"><ele>1023.0</ele><time>2026-04-08T21:51:40.588Z</time></trkpt><trkpt lat="9.9643948" lon="-84.1292061"><ele>1023.0</ele><time>2026-04-08T21:51:42.587Z</time></trkpt><trkpt lat="9.9643622" lon="-84.1291364"><ele>1023.0</ele><time>2026-04-08T21:51:44.587Z</time></trkpt><trkpt lat="9.9643291" lon="-84.1290701"><ele>1023.0</ele><time>2026-04-08T21:51:46.587Z</time></trkpt><trkpt lat="9.9642869" lon="-84.1289949"><ele>1023.0</ele><time>2026-04-08T21:51:48.588Z</time></trkpt><trkpt lat="9.9642439" lon="-84.1289134"><ele>1025.2</ele><time>2026-04-08T21:51:50.589Z</time></trkpt><trkpt lat="9.9641811" lon="-84.1288083"><ele>1027.4</ele><time>2026-04-08T21:51:52.587Z</time></trkpt><trkpt lat="9.9641383" lon="-84.1287091"><ele>1029.6000000000001</ele><time>2026-04-08T21:51:54.589Z</time></trkpt><trkpt lat="9.964076" lon="-84.1286382"><ele>1031.8</ele><time>2026-04-08T21:51:56.587Z</time></trkpt><trkpt lat="9.964043" lon="-84.1285549"><ele>1034.0</ele><time>2026-04-08T21:51:59.588Z</time></trkpt><trkpt lat="9.9640112" lon="-84.1284973"><ele>1034.0</ele><time>2026-04-08T21:52:02.588Z</time></trkpt><trkpt lat="9.9639808" lon="-84.1284287"><ele>1034.0</ele><time>2026-04-08T21:52:05.587Z</time></trkpt><trkpt lat="9.963952" lon="-84.1283714"><ele>1034.0</ele><time>2026-04-08T21:52:07.588Z</time></trkpt><trkpt lat="9.9638982" lon="-84.1282603"><ele>1034.0</ele><time>2026-04-08T21:52:09.588Z</time></trkpt><trkpt lat="9.9638567" lon="-84.1282121"><ele>1034.0</ele><time>2026-04-08T21:52:10.588Z</time></trkpt><trkpt lat="9.9638102" lon="-84.1281284"><ele>1034.0</ele><time>2026-04-08T21:52:12.587Z</time></trkpt><trkpt lat="9.9637729" lon="-84.1280526"><ele>1033.6000000000001</ele><time>2026-04-08T21:52:14.588Z</time></trkpt><trkpt lat="9.9637378" lon="-84.1279936"><ele>1033.2</ele><time>2026-04-08T21:52:15.587Z</time></trkpt><trkpt lat="9.9636742" lon="-84.1278734"><ele>1032.8000000000002</ele><time>2026-04-08T21:52:17.588Z</time></trkpt><trkpt lat="9.9636311" lon="-84.1277754"><ele>1032.4</ele><time>2026-04-08T21:52:18.588Z</time></trkpt><trkpt lat="9.96358" lon="-84.1276824"><ele>1032.0</ele><time>2026-04-08T21:52:19.588Z</time></trkpt><trkpt lat="9.9635329" lon="-84.1275964"><ele>1032.0</ele><time>2026-04-08T21:52:20.587Z</time></trkpt><trkpt lat="9.9634864" lon="-84.1275189"><ele>1032.0</ele><time>2026-04-08T21:52:21.588Z</time></trkpt><trkpt lat="9.9634473" lon="-84.1274485"><ele>1032.0</ele><time>2026-04-08T21:52:22.588Z</time></trkpt><trkpt lat="9.9634079" lon="-84.1273805"><ele>1032.0</ele><time>2026-04-08T21:52:23.587Z</time></trkpt><trkpt lat="9.96338" lon="-84.1273227"><ele>1032.0</ele><time>2026-04-08T21:52:24.589Z</time></trkpt><trkpt lat="9.9633228" lon="-84.1272215"><ele>1032.0</ele><time>2026-04-08T21:52:26.589Z</time></trkpt><trkpt lat="9.9632674" lon="-84.1271168"><ele>1033.4</ele><time>2026-04-08T21:52:28.589Z</time></trkpt><trkpt lat="9.9632103" lon="-84.1270233"><ele>1034.8000000000002</ele><time>2026-04-08T21:52:30.588Z</time></trkpt><trkpt lat="9.963164" lon="-84.1269249"><ele>1036.2</ele><time>2026-04-08T21:52:32.588Z</time></trkpt><trkpt lat="9.9631202" lon="-84.1268516"><ele>1037.6000000000001</ele><time>2026-04-08T21:52:34.588Z</time></trkpt><trkpt lat="9.9630606" lon="-84.126751"><ele>1039.0</ele><time>2026-04-08T21:52:36.588Z</time></trkpt><trkpt lat="9.963022" lon="-84.1266887"><ele>1039.0</ele><time>2026-04-08T21:52:37.588Z</time></trkpt><trkpt lat="9.962985" lon="-84.126619"><ele>1039.0</ele><time>2026-04-08T21:52:38.588Z</time></trkpt><trkpt lat="9.9629515" lon="-84.126558"><ele>1039.0</ele><time>2026-04-08T21:52:39.588Z</time></trkpt><trkpt lat="9.9629184" lon="-84.1264989"><ele>1039.0</ele><time>2026-04-08T21:52:40.588Z</time></trkpt><trkpt lat="9.9628623" lon="-84.1264037"><ele>1039.0</ele><time>2026-04-08T21:52:42.589Z</time></trkpt><trkpt lat="9.9628212" lon="-84.1263252"><ele>1039.0</ele><time>2026-04-08T21:52:44.587Z</time></trkpt><trkpt lat="9.9627869" lon="-84.126252"><ele>1038.8333333333333</ele><time>2026-04-08T21:52:46.588Z</time></trkpt><trkpt lat="9.9627469" lon="-84.1261456"><ele>1038.6666666666665</ele><time>2026-04-08T21:52:48.587Z</time></trkpt><trkpt lat="9.9627101" lon="-84.1260771"><ele>1038.5</ele><time>2026-04-08T21:52:49.586Z</time></trkpt><trkpt lat="9.9626727" lon="-84.1260134"><ele>1038.3333333333333</ele><time>2026-04-08T21:52:50.587Z</time></trkpt><trkpt lat="9.9626309" lon="-84.1259364"><ele>1038.1666666666667</ele><time>2026-04-08T21:52:51.587Z</time></trkpt><trkpt lat="9.9625926" lon="-84.12586"><ele>1038.0</ele><time>2026-04-08T21:52:52.588Z</time></trkpt><trkpt lat="9.9625509" lon="-84.1257834"><ele>1038.6666666666667</ele><time>2026-04-08T21:52:53.588Z</time></trkpt><trkpt lat="9.9625093" lon="-84.1257039"><ele>1039.3333333333333</ele><time>2026-04-08T21:52:54.588Z</time></trkpt><trkpt lat="9.9624643" lon="-84.1256227"><ele>1040.0</ele><time>2026-04-08T21:52:55.587Z</time></trkpt><trkpt lat="9.9624211" lon="-84.1255489"><ele>1040.6666666666665</ele><time>2026-04-08T21:52:56.587Z</time></trkpt><trkpt lat="9.9623803" lon="-84.1254778"><ele>1041.3333333333333</ele><time>2026-04-08T21:52:57.588Z</time></trkpt><trkpt lat="9.9623426" lon="-84.1254169"><ele>1042.0</ele><time>2026-04-08T21:52:58.588Z</time></trkpt><trkpt lat="9.9622871" lon="-84.125308"><ele>1042.0</ele><time>2026-04-08T21:53:00.588Z</time></trkpt><trkpt lat="9.9622406" lon="-84.1252137"><ele>1042.0</ele><time>2026-04-08T21:53:02.588Z</time></trkpt><trkpt lat="9.9621958" lon="-84.12512"><ele>1042.0</ele><time>2026-04-08T21:53:04.587Z</time></trkpt><trkpt lat="9.9621355" lon="-84.125005"><ele>1042.0</ele><time>2026-04-08T21:53:06.588Z</time></trkpt><trkpt lat="9.9620835" lon="-84.1249327"><ele>1042.0</ele><time>2026-04-08T21:53:07.587Z</time></trkpt><trkpt lat="9.9620394" lon="-84.1248645"><ele>1042.3333333333333</ele><time>2026-04-08T21:53:08.587Z</time></trkpt><trkpt lat="9.9620014" lon="-84.1248017"><ele>1042.6666666666665</ele><time>2026-04-08T21:53:09.588Z</time></trkpt><trkpt lat="9.9619679" lon="-84.1247407"><ele>1043.0</ele><time>2026-04-08T21:53:10.587Z</time></trkpt><trkpt lat="9.9619218" lon="-84.1246394"><ele>1043.3333333333333</ele><time>2026-04-08T21:53:12.587Z</time></trkpt><trkpt lat="9.961862" lon="-84.1245318"><ele>1043.6666666666667</ele><time>2026-04-08T21:53:14.588Z</time></trkpt><trkpt lat="9.9618284" lon="-84.1244745"><ele>1044.0</ele><time>2026-04-08T21:53:15.588Z</time></trkpt><trkpt lat="9.9617669" lon="-84.1243707"><ele>1044.0</ele><time>2026-04-08T21:53:17.588Z</time></trkpt><trkpt lat="9.9617257" lon="-84.1243132"><ele>1044.0</ele><time>2026-04-08T21:53:18.588Z</time></trkpt><trkpt lat="9.9616981" lon="-84.1242535"><ele>1044.0</ele><time>2026-04-08T21:53:19.588Z</time></trkpt><trkpt lat="9.961645" lon="-84.124153"><ele>1044.0</ele><time>2026-04-08T21:53:21.587Z</time></trkpt><trkpt lat="9.9615911" lon="-84.1240504"><ele>1044.0</ele><time>2026-04-08T21:53:23.588Z</time></trkpt><trkpt lat="9.9615608" lon="-84.1239828"><ele>1044.0</ele><time>2026-04-08T21:53:25.587Z</time></trkpt><trkpt lat="9.9615287" lon="-84.1239187"><ele>1044.1666666666667</ele><time>2026-04-08T21:53:30.586Z</time></trkpt><trkpt lat="9.9614969" lon="-84.1238543"><ele>1044.3333333333333</ele><time>2026-04-08T21:53:32.588Z</time></trkpt><trkpt lat="9.9614507" lon="-84.1237702"><ele>1044.5</ele><time>2026-04-08T21:53:35.587Z</time></trkpt><trkpt lat="9.9614175" lon="-84.1237046"><ele>1044.6666666666665</ele><time>2026-04-08T21:53:37.587Z</time></trkpt><trkpt lat="9.9613773" lon="-84.1236291"><ele>1044.8333333333333</ele><time>2026-04-08T21:53:40.587Z</time></trkpt><trkpt lat="9.9613364" lon="-84.1235685"><ele>1045.0</ele><time>2026-04-08T21:53:45.587Z</time></trkpt><trkpt lat="9.9612977" lon="-84.1235038"><ele>1045.0</ele><time>2026-04-08T21:53:50.588Z</time></trkpt><trkpt lat="9.9612608" lon="-84.1234419"><ele>1045.0</ele><time>2026-04-08T21:53:52.587Z</time></trkpt><trkpt lat="9.9612088" lon="-84.1233383"><ele>1045.0</ele><time>2026-04-08T21:53:54.588Z</time></trkpt><trkpt lat="9.9611475" lon="-84.1232233"><ele>1045.0</ele><time>2026-04-08T21:53:56.588Z</time></trkpt><trkpt lat="9.9610923" lon="-84.1231199"><ele>1045.0</ele><time>2026-04-08T21:53:58.588Z</time></trkpt><trkpt lat="9.9610321" lon="-84.1230262"><ele>1045.0</ele><time>2026-04-08T21:54:00.588Z</time></trkpt><trkpt lat="9.9609962" lon="-84.1229509"><ele>1045.0</ele><time>2026-04-08T21:54:02.586Z</time></trkpt><trkpt lat="9.9609379" lon="-84.1228521"><ele>1045.0</ele><time>2026-04-08T21:54:04.588Z</time></trkpt><trkpt lat="9.9609123" lon="-84.1227916"><ele>1045.0</ele><time>2026-04-08T21:54:05.586Z</time></trkpt><trkpt lat="9.9608732" lon="-84.1227222"><ele>1045.0</ele><time>2026-04-08T21:54:06.588Z</time></trkpt><trkpt lat="9.9608137" lon="-84.1226154"><ele>1045.0</ele><time>2026-04-08T21:54:08.588Z</time></trkpt><trkpt lat="9.9607587" lon="-84.1225237"><ele>1045.0</ele><time>2026-04-08T21:54:10.588Z</time></trkpt><trkpt lat="9.9607158" lon="-84.1224479"><ele>1045.0</ele><time>2026-04-08T21:54:13.587Z</time></trkpt><trkpt lat="9.9606902" lon="-84.1223892"><ele>1045.0</ele><time>2026-04-08T21:54:16.587Z</time></trkpt><trkpt lat="9.9606552" lon="-84.122325"><ele>1045.0</ele><time>2026-04-08T21:54:20.588Z</time></trkpt><trkpt lat="9.9606194" lon="-84.1222514"><ele>1045.0</ele><time>2026-04-08T21:54:25.588Z</time></trkpt><trkpt lat="9.9605768" lon="-84.1221755"><ele>1044.6666666666665</ele><time>2026-04-08T21:54:28.588Z</time></trkpt><trkpt lat="9.9605207" lon="-84.1220827"><ele>1044.3333333333333</ele><time>2026-04-08T21:54:30.585Z</time></trkpt><trkpt lat="9.96048" lon="-84.1219991"><ele>1044.0</ele><time>2026-04-08T21:54:32.588Z</time></trkpt><trkpt lat="9.9604479" lon="-84.1219431"><ele>1043.6666666666667</ele><time>2026-04-08T21:54:34.588Z</time></trkpt><trkpt lat="9.9604201" lon="-84.1218841"><ele>1043.3333333333335</ele><time>2026-04-08T21:54:37.587Z</time></trkpt><trkpt lat="9.9603889" lon="-84.1218123"><ele>1043.0</ele><time>2026-04-08T21:54:39.588Z</time></trkpt><trkpt lat="9.9603299" lon="-84.1217092"><ele>1043.0</ele><time>2026-04-08T21:54:41.588Z</time></trkpt><trkpt lat="9.960297" lon="-84.1216437"><ele>1043.0</ele><time>2026-04-08T21:54:42.586Z</time></trkpt><trkpt lat="9.9602593" lon="-84.1215835"><ele>1043.0</ele><time>2026-04-08T21:54:43.586Z</time></trkpt><trkpt lat="9.9602224" lon="-84.1215164"><ele>1043.0</ele><time>2026-04-08T21:54:44.587Z</time></trkpt><trkpt lat="9.9601854" lon="-84.1214498"><ele>1043.0</ele><time>2026-04-08T21:54:45.588Z</time></trkpt><trkpt lat="9.9601497" lon="-84.1213805"><ele>1043.0</ele><time>2026-04-08T21:54:46.588Z</time></trkpt><trkpt lat="9.9601159" lon="-84.1213204"><ele>1043.0</ele><time>2026-04-08T21:54:47.587Z</time></trkpt><trkpt lat="9.960084" lon="-84.1212551"><ele>1043.2857142857142</ele><time>2026-04-08T21:54:48.588Z</time></trkpt><trkpt lat="9.9600507" lon="-84.1211898"><ele>1043.5714285714284</ele><time>2026-04-08T21:54:49.587Z</time></trkpt><trkpt lat="9.9600155" lon="-84.1211227"><ele>1043.857142857143</ele><time>2026-04-08T21:54:50.586Z</time></trkpt><trkpt lat="9.9599755" lon="-84.1210545"><ele>1044.142857142857</ele><time>2026-04-08T21:54:51.588Z</time></trkpt><trkpt lat="9.9599419" lon="-84.1209944"><ele>1044.4285714285713</ele><time>2026-04-08T21:54:52.587Z</time></trkpt><trkpt lat="9.9599116" lon="-84.1209342"><ele>1044.7142857142858</ele><time>2026-04-08T21:54:53.588Z</time></trkpt><trkpt lat="9.9598753" lon="-84.1208705"><ele>1045.0</ele><time>2026-04-08T21:54:54.588Z</time></trkpt><trkpt lat="9.9598168" lon="-84.1207641"><ele>1046.3333333333333</ele><time>2026-04-08T21:54:56.588Z</time></trkpt><trkpt lat="9.9597783" lon="-84.1206922"><ele>1047.6666666666665</ele><time>2026-04-08T21:54:58.587Z</time></trkpt><trkpt lat="9.9597337" lon="-84.1206211"><ele>1049.0</ele><time>2026-04-08T21:55:01.588Z</time></trkpt><trkpt lat="9.9596954" lon="-84.1205633"><ele>1050.3333333333333</ele><time>2026-04-08T21:55:04.588Z</time></trkpt><trkpt lat="9.9596548" lon="-84.1204922"><ele>1051.6666666666667</ele><time>2026-04-08T21:55:08.585Z</time></trkpt><trkpt lat="9.9596074" lon="-84.1204083"><ele>1053.0</ele><time>2026-04-08T21:55:12.588Z</time></trkpt><trkpt lat="9.959577" lon="-84.1203483"><ele>1053.0</ele><time>2026-04-08T21:55:14.587Z</time></trkpt><trkpt lat="9.9595315" lon="-84.1202621"><ele>1053.0</ele><time>2026-04-08T21:55:17.587Z</time></trkpt><trkpt lat="9.9594938" lon="-84.1201934"><ele>1053.0</ele><time>2026-04-08T21:55:19.587Z</time></trkpt><trkpt lat="9.9594566" lon="-84.1201185"><ele>1053.0</ele><time>2026-04-08T21:55:22.587Z</time></trkpt><trkpt lat="9.9594247" lon="-84.1200341"><ele>1053.0</ele><time>2026-04-08T21:55:24.586Z</time></trkpt><trkpt lat="9.9593801" lon="-84.1199576"><ele>1053.0</ele><time>2026-04-08T21:55:26.587Z</time></trkpt><trkpt lat="9.9593285" lon="-84.1198722"><ele>1053.3333333333333</ele><time>2026-04-08T21:55:28.585Z</time></trkpt><trkpt lat="9.9592931" lon="-84.1198165"><ele>1053.6666666666667</ele><time>2026-04-08T21:55:29.588Z</time></trkpt><trkpt lat="9.9592519" lon="-84.1197411"><ele>1054.0</ele><time>2026-04-08T21:55:30.588Z</time></trkpt><trkpt lat="9.9592042" lon="-84.1196633"><ele>1054.3333333333335</ele><time>2026-04-08T21:55:31.586Z</time></trkpt><trkpt lat="9.9591624" lon="-84.1195996"><ele>1054.6666666666667</ele><time>2026-04-08T21:55:32.588Z</time></trkpt><trkpt lat="9.9591199" lon="-84.1195386"><ele>1055.0</ele><time>2026-04-08T21:55:33.587Z</time></trkpt><trkpt lat="9.9590935" lon="-84.1194629"><ele>1055.3333333333335</ele><time>2026-04-08T21:55:34.588Z</time></trkpt><trkpt lat="9.9590525" lon="-84.1193889"><ele>1055.6666666666667</ele><time>2026-04-08T21:55:35.587Z</time></trkpt><trkpt lat="9.9590086" lon="-84.1193189"><ele>1056.0</ele><time>2026-04-08T21:55:36.588Z</time></trkpt><trkpt lat="9.9589736" lon="-84.1192498"><ele>1056.3333333333333</ele><time>2026-04-08T21:55:37.586Z</time></trkpt><trkpt lat="9.9589335" lon="-84.1191816"><ele>1056.6666666666665</ele><time>2026-04-08T21:55:38.588Z</time></trkpt><trkpt lat="9.9589023" lon="-84.1191087"><ele>1057.0</ele><time>2026-04-08T21:55:39.587Z</time></trkpt><trkpt lat="9.9588739" lon="-84.1190455"><ele>1057.1666666666665</ele><time>2026-04-08T21:55:40.588Z</time></trkpt><trkpt lat="9.9588351" lon="-84.1189741"><ele>1057.3333333333333</ele><time>2026-04-08T21:55:41.587Z</time></trkpt><trkpt lat="9.9587911" lon="-84.1189073"><ele>1057.5</ele><time>2026-04-08T21:55:42.587Z</time></trkpt><trkpt lat="9.9587502" lon="-84.118833"><ele>1057.6666666666667</ele><time>2026-04-08T21:55:43.587Z</time></trkpt><trkpt lat="9.9587132" lon="-84.1187661"><ele>1057.8333333333335</ele><time>2026-04-08T21:55:44.587Z</time></trkpt><trkpt lat="9.9586822" lon="-84.118705"><ele>1058.0</ele><time>2026-04-08T21:55:45.586Z</time></trkpt><trkpt lat="9.9586184" lon="-84.118603"><ele>1058.0</ele><time>2026-04-08T21:55:47.586Z</time></trkpt><trkpt lat="9.9585795" lon="-84.1185484"><ele>1058.0</ele><time>2026-04-08T21:55:48.588Z</time></trkpt><trkpt lat="9.958519" lon="-84.1184606"><ele>1058.0</ele><time>2026-04-08T21:55:50.586Z</time></trkpt><trkpt lat="9.9584648" lon="-84.1183749"><ele>1058.0</ele><time>2026-04-08T21:55:52.588Z</time></trkpt><trkpt lat="9.9584171" lon="-84.1182944"><ele>1058.0</ele><time>2026-04-08T21:55:54.587Z</time></trkpt><trkpt lat="9.9583731" lon="-84.1182246"><ele>1058.0</ele><time>2026-04-08T21:55:56.587Z</time></trkpt><trkpt lat="9.9583284" lon="-84.118153"><ele>1058.3333333333335</ele><time>2026-04-08T21:55:58.587Z</time></trkpt><trkpt lat="9.9582922" lon="-84.118093"><ele>1058.6666666666667</ele><time>2026-04-08T21:56:00.585Z</time></trkpt><trkpt lat="9.9582452" lon="-84.1180356"><ele>1059.0</ele><time>2026-04-08T21:56:02.587Z</time></trkpt><trkpt lat="9.9581968" lon="-84.1179761"><ele>1059.3333333333333</ele><time>2026-04-08T21:56:05.587Z</time></trkpt><trkpt lat="9.9581529" lon="-84.1179131"><ele>1059.6666666666665</ele><time>2026-04-08T21:56:08.587Z</time></trkpt><trkpt lat="9.9581053" lon="-84.1178461"><ele>1060.0</ele><time>2026-04-08T21:56:10.588Z</time></trkpt><trkpt lat="9.958046" lon="-84.1177634"><ele>1060.0</ele><time>2026-04-08T21:56:12.588Z</time></trkpt><trkpt lat="9.9579766" lon="-84.1176764"><ele>1060.0</ele><time>2026-04-08T21:56:14.586Z</time></trkpt><trkpt lat="9.9579351" lon="-84.1176249"><ele>1060.0</ele><time>2026-04-08T21:56:15.587Z</time></trkpt><trkpt lat="9.9578915" lon="-84.1175703"><ele>1060.0</ele><time>2026-04-08T21:56:16.588Z</time></trkpt><trkpt lat="9.957843" lon="-84.1175137"><ele>1060.0</ele><time>2026-04-08T21:56:17.586Z</time></trkpt><trkpt lat="9.9578028" lon="-84.1174644"><ele>1060.0</ele><time>2026-04-08T21:56:18.586Z</time></trkpt><trkpt lat="9.9577407" lon="-84.1173843"><ele>1060.3333333333333</ele><time>2026-04-08T21:56:20.587Z</time></trkpt><trkpt lat="9.9576925" lon="-84.1173157"><ele>1060.6666666666665</ele><time>2026-04-08T21:56:23.587Z</time></trkpt><trkpt lat="9.9576349" lon="-84.1172541"><ele>1061.0</ele><time>2026-04-08T21:56:25.588Z</time></trkpt><trkpt lat="9.957582" lon="-84.1171931"><ele>1061.3333333333333</ele><time>2026-04-08T21:56:27.588Z</time></trkpt><trkpt lat="9.9575302" lon="-84.1171399"><ele>1061.6666666666667</ele><time>2026-04-08T21:56:31.587Z</time></trkpt><trkpt lat="9.9574822" lon="-84.117092"><ele>1062.0</ele><time>2026-04-08T21:56:35.587Z</time></trkpt><trkpt lat="9.957426" lon="-84.1170372"><ele>1062.142857142857</ele><time>2026-04-08T21:56:37.586Z</time></trkpt><trkpt lat="9.9573799" lon="-84.1169868"><ele>1062.2857142857144</ele><time>2026-04-08T21:56:39.586Z</time></trkpt><trkpt lat="9.9573323" lon="-84.1169345"><ele>1062.4285714285716</ele><time>2026-04-08T21:56:42.586Z</time></trkpt><trkpt lat="9.9572859" lon="-84.1168892"><ele>1062.5714285714287</ele><time>2026-04-08T21:56:44.587Z</time></trkpt><trkpt lat="9.9572316" lon="-84.1168325"><ele>1062.7142857142858</ele><time>2026-04-08T21:56:46.588Z</time></trkpt><trkpt lat="9.9571775" lon="-84.1167814"><ele>1062.857142857143</ele><time>2026-04-08T21:56:48.587Z</time></trkpt><trkpt lat="9.957113" lon="-84.1167197"><ele>1063.0</ele><time>2026-04-08T21:56:50.587Z</time></trkpt><trkpt lat="9.9570422" lon="-84.1166514"><ele>1063.0</ele><time>2026-04-08T21:56:52.586Z</time></trkpt><trkpt lat="9.9569811" lon="-84.1166001"><ele>1063.0</ele><time>2026-04-08T21:56:54.587Z</time></trkpt><trkpt lat="9.9569218" lon="-84.1165427"><ele>1063.0</ele><time>2026-04-08T21:56:56.587Z</time></trkpt><trkpt lat="9.9568667" lon="-84.1165023"><ele>1063.0</ele><time>2026-04-08T21:56:58.586Z</time></trkpt><trkpt lat="9.9568189" lon="-84.1164588"><ele>1063.0</ele><time>2026-04-08T21:57:00.586Z</time></trkpt><trkpt lat="9.9567641" lon="-84.1164106"><ele>1063.0</ele><time>2026-04-08T21:57:03.586Z</time></trkpt><trkpt lat="9.9567111" lon="-84.1163671"><ele>1063.0</ele><time>2026-04-08T21:57:06.587Z</time></trkpt><trkpt lat="9.9566642" lon="-84.1163132"><ele>1063.6666666666665</ele><time>2026-04-08T21:57:20.587Z</time></trkpt><trkpt lat="9.9565976" lon="-84.1162549"><ele>1064.3333333333333</ele><time>2026-04-08T21:57:24.587Z</time></trkpt><trkpt lat="9.9565415" lon="-84.1162105"><ele>1065.0</ele><time>2026-04-08T21:57:26.586Z</time></trkpt><trkpt lat="9.9564871" lon="-84.1161651"><ele>1065.6666666666667</ele><time>2026-04-08T21:57:28.586Z</time></trkpt><trkpt lat="9.9564271" lon="-84.1161193"><ele>1066.3333333333335</ele><time>2026-04-08T21:57:31.587Z</time></trkpt><trkpt lat="9.9563553" lon="-84.1160668"><ele>1067.0</ele><time>2026-04-08T21:57:34.587Z</time></trkpt><trkpt lat="9.956286" lon="-84.1160092"><ele>1067.0</ele><time>2026-04-08T21:57:36.588Z</time></trkpt><trkpt lat="9.956222" lon="-84.1159685"><ele>1067.0</ele><time>2026-04-08T21:57:38.586Z</time></trkpt><trkpt lat="9.9561638" lon="-84.1159276"><ele>1067.0</ele><time>2026-04-08T21:58:01.586Z</time></trkpt><trkpt lat="9.9560785" lon="-84.1158747"><ele>1067.0</ele><time>2026-04-08T21:58:04.586Z</time></trkpt><trkpt lat="9.9560093" lon="-84.1158313"><ele>1067.0</ele><time>2026-04-08T21:58:06.587Z</time></trkpt><trkpt lat="9.9559497" lon="-84.1157903"><ele>1067.0</ele><time>2026-04-08T21:58:09.587Z</time></trkpt><trkpt lat="9.9558892" lon="-84.1157491"><ele>1067.5</ele><time>2026-04-08T21:58:11.587Z</time></trkpt><trkpt lat="9.9557976" lon="-84.1156807"><ele>1068.0</ele><time>2026-04-08T21:58:13.586Z</time></trkpt><trkpt lat="9.955737" lon="-84.1156412"><ele>1068.5</ele><time>2026-04-08T21:58:14.587Z</time></trkpt><trkpt lat="9.9556791" lon="-84.1155958"><ele>1069.0</ele><time>2026-04-08T21:58:15.588Z</time></trkpt><trkpt lat="9.9556172" lon="-84.1155565"><ele>1069.5</ele><time>2026-04-08T21:58:16.587Z</time></trkpt><trkpt lat="9.9555635" lon="-84.1155212"><ele>1070.0</ele><time>2026-04-08T21:58:17.587Z</time></trkpt><trkpt lat="9.9554793" lon="-84.1154641"><ele>1070.0</ele><time>2026-04-08T21:58:19.587Z</time></trkpt><trkpt lat="9.9553914" lon="-84.1154002"><ele>1070.0</ele><time>2026-04-08T21:58:21.588Z</time></trkpt><trkpt lat="9.9553068" lon="-84.1153324"><ele>1070.0</ele><time>2026-04-08T21:58:23.587Z</time></trkpt><trkpt lat="9.9552269" lon="-84.1152782"><ele>1070.0</ele><time>2026-04-08T21:58:25.586Z</time></trkpt><trkpt lat="9.9551218" lon="-84.1152084"><ele>1070.0</ele><time>2026-04-08T21:58:27.588Z</time></trkpt><trkpt lat="9.9550633" lon="-84.1151609"><ele>1070.1666666666667</ele><time>2026-04-08T21:58:28.586Z</time></trkpt><trkpt lat="9.9550006" lon="-84.1151233"><ele>1070.3333333333335</ele><time>2026-04-08T21:58:29.586Z</time></trkpt><trkpt lat="9.9549321" lon="-84.1150862"><ele>1070.5</ele><time>2026-04-08T21:58:30.587Z</time></trkpt><trkpt lat="9.9548636" lon="-84.1150358"><ele>1070.6666666666667</ele><time>2026-04-08T21:58:31.587Z</time></trkpt><trkpt lat="9.9548" lon="-84.1149873"><ele>1070.8333333333333</ele><time>2026-04-08T21:58:32.587Z</time></trkpt><trkpt lat="9.9547424" lon="-84.1149476"><ele>1071.0</ele><time>2026-04-08T21:58:33.587Z</time></trkpt><trkpt lat="9.9546496" lon="-84.1148824"><ele>1071.0</ele><time>2026-04-08T21:58:35.586Z</time></trkpt><trkpt lat="9.9545639" lon="-84.1148201"><ele>1071.0</ele><time>2026-04-08T21:58:37.587Z</time></trkpt><trkpt lat="9.9544777" lon="-84.1147625"><ele>1071.0</ele><time>2026-04-08T21:58:39.587Z</time></trkpt><trkpt lat="9.954408" lon="-84.1147107"><ele>1071.0</ele><time>2026-04-08T21:58:41.587Z</time></trkpt><trkpt lat="9.9543469" lon="-84.1146697"><ele>1071.0</ele><time>2026-04-08T21:58:43.586Z</time></trkpt><trkpt lat="9.9542911" lon="-84.1146239"><ele>1071.0</ele><time>2026-04-08T21:58:47.587Z</time></trkpt><trkpt lat="9.954234" lon="-84.1145805"><ele>1071.2</ele><time>2026-04-08T21:58:53.587Z</time></trkpt><trkpt lat="9.9541799" lon="-84.1145363"><ele>1071.3999999999999</ele><time>2026-04-08T21:59:09.586Z</time></trkpt><trkpt lat="9.9541059" lon="-84.1144858"><ele>1071.6</ele><time>2026-04-08T21:59:13.587Z</time></trkpt><trkpt lat="9.9540374" lon="-84.1144465"><ele>1071.8</ele><time>2026-04-08T21:59:15.587Z</time></trkpt><trkpt lat="9.9539551" lon="-84.1143998"><ele>1072.0</ele><time>2026-04-08T21:59:17.587Z</time></trkpt><trkpt lat="9.9538588" lon="-84.1143301"><ele>1072.0</ele><time>2026-04-08T21:59:19.586Z</time></trkpt><trkpt lat="9.9537965" lon="-84.1142886"><ele>1072.0</ele><time>2026-04-08T21:59:20.587Z</time></trkpt><trkpt lat="9.9537432" lon="-84.1142512"><ele>1072.0</ele><time>2026-04-08T21:59:21.587Z</time></trkpt><trkpt lat="9.9536504" lon="-84.1141855"><ele>1072.0</ele><time>2026-04-08T21:59:23.586Z</time></trkpt><trkpt lat="9.953545" lon="-84.1141133"><ele>1072.0</ele><time>2026-04-08T21:59:25.586Z</time></trkpt><trkpt lat="9.9534881" lon="-84.1140692"><ele>1072.6</ele><time>2026-04-08T21:59:26.586Z</time></trkpt><trkpt lat="9.9533808" lon="-84.1140064"><ele>1073.2</ele><time>2026-04-08T21:59:28.586Z</time></trkpt><trkpt lat="9.9532839" lon="-84.1139396"><ele>1073.8</ele><time>2026-04-08T21:59:30.587Z</time></trkpt><trkpt lat="9.9531993" lon="-84.1138834"><ele>1074.4</ele><time>2026-04-08T21:59:32.586Z</time></trkpt><trkpt lat="9.9531112" lon="-84.113832"><ele>1075.0</ele><time>2026-04-08T21:59:34.587Z</time></trkpt><trkpt lat="9.9530047" lon="-84.1137525"><ele>1075.0</ele><time>2026-04-08T21:59:36.585Z</time></trkpt><trkpt lat="9.9529405" lon="-84.1137038"><ele>1075.0</ele><time>2026-04-08T21:59:37.585Z</time></trkpt><trkpt lat="9.9528847" lon="-84.1136612"><ele>1075.0</ele><time>2026-04-08T21:59:38.586Z</time></trkpt><trkpt lat="9.9527875" lon="-84.1135908"><ele>1075.0</ele><time>2026-04-08T21:59:40.585Z</time></trkpt><trkpt lat="9.9526947" lon="-84.1135264"><ele>1075.0</ele><time>2026-04-08T21:59:42.587Z</time></trkpt><trkpt lat="9.9526414" lon="-84.1134854"><ele>1075.0</ele><time>2026-04-08T21:59:43.586Z</time></trkpt><trkpt lat="9.9525799" lon="-84.113441"><ele>1075.0</ele><time>2026-04-08T21:59:44.587Z</time></trkpt><trkpt lat="9.9525144" lon="-84.1133949"><ele>1075.0</ele><time>2026-04-08T21:59:45.587Z</time></trkpt><trkpt lat="9.9524569" lon="-84.1133536"><ele>1075.0</ele><time>2026-04-08T21:59:46.585Z</time></trkpt><trkpt lat="9.9523999" lon="-84.1133156"><ele>1075.0</ele><time>2026-04-08T21:59:47.586Z</time></trkpt><trkpt lat="9.9523095" lon="-84.1132544"><ele>1075.0</ele><time>2026-04-08T21:59:49.587Z</time></trkpt><trkpt lat="9.9522521" lon="-84.1132128"><ele>1075.0</ele><time>2026-04-08T21:59:51.584Z</time></trkpt><trkpt lat="9.952198" lon="-84.1131792"><ele>1075.0</ele><time>2026-04-08T21:59:54.587Z</time></trkpt><trkpt lat="9.9521348" lon="-84.1131294"><ele>1075.0</ele><time>2026-04-08T21:59:58.586Z</time></trkpt><trkpt lat="9.9520773" lon="-84.1130888"><ele>1075.0</ele><time>2026-04-08T22:00:00.585Z</time></trkpt><trkpt lat="9.9520122" lon="-84.1130438"><ele>1075.0</ele><time>2026-04-08T22:00:02.586Z</time></trkpt><trkpt lat="9.9519553" lon="-84.1129979"><ele>1075.0</ele><time>2026-04-08T22:00:04.585Z</time></trkpt><trkpt lat="9.951884" lon="-84.1129438"><ele>1075.0</ele><time>2026-04-08T22:00:06.586Z</time></trkpt><trkpt lat="9.9518027" lon="-84.1128896"><ele>1075.0</ele><time>2026-04-08T22:00:08.585Z</time></trkpt><trkpt lat="9.9517149" lon="-84.1128293"><ele>1075.0</ele><time>2026-04-08T22:00:10.586Z</time></trkpt><trkpt lat="9.951614" lon="-84.1127516"><ele>1075.0</ele><time>2026-04-08T22:00:12.586Z</time></trkpt><trkpt lat="9.9515508" lon="-84.112712"><ele>1075.0</ele><time>2026-04-08T22:00:13.586Z</time></trkpt><trkpt lat="9.9514939" lon="-84.1126714"><ele>1075.0</ele><time>2026-04-08T22:00:14.585Z</time></trkpt><trkpt lat="9.9514302" lon="-84.1126303"><ele>1075.5</ele><time>2026-04-08T22:00:15.585Z</time></trkpt><trkpt lat="9.9513631" lon="-84.1125906"><ele>1076.0</ele><time>2026-04-08T22:00:16.585Z</time></trkpt><trkpt lat="9.951292" lon="-84.1125506"><ele>1076.5</ele><time>2026-04-08T22:00:17.586Z</time></trkpt><trkpt lat="9.9512187" lon="-84.1125061"><ele>1077.0</ele><time>2026-04-08T22:00:18.585Z</time></trkpt><trkpt lat="9.951145" lon="-84.1124563"><ele>1077.5</ele><time>2026-04-08T22:00:19.587Z</time></trkpt><trkpt lat="9.9510647" lon="-84.1124009"><ele>1078.0</ele><time>2026-04-08T22:00:20.586Z</time></trkpt><trkpt lat="9.9509878" lon="-84.1123477"><ele>1078.3333333333333</ele><time>2026-04-08T22:00:21.584Z</time></trkpt><trkpt lat="9.950917" lon="-84.1123034"><ele>1078.6666666666665</ele><time>2026-04-08T22:00:22.587Z</time></trkpt><trkpt lat="9.9508431" lon="-84.112256"><ele>1079.0</ele><time>2026-04-08T22:00:23.587Z</time></trkpt><trkpt lat="9.9507766" lon="-84.1122095"><ele>1079.3333333333333</ele><time>2026-04-08T22:00:24.587Z</time></trkpt><trkpt lat="9.9507206" lon="-84.1121583"><ele>1079.6666666666667</ele><time>2026-04-08T22:00:25.585Z</time></trkpt><trkpt lat="9.9506679" lon="-84.1121193"><ele>1080.0</ele><time>2026-04-08T22:00:26.587Z</time></trkpt><trkpt lat="9.9506047" lon="-84.1120824"><ele>1080.5</ele><time>2026-04-08T22:00:27.586Z</time></trkpt><trkpt lat="9.9505369" lon="-84.1120351"><ele>1081.0</ele><time>2026-04-08T22:00:28.587Z</time></trkpt><trkpt lat="9.9504684" lon="-84.1119867"><ele>1081.5</ele><time>2026-04-08T22:00:29.587Z</time></trkpt><trkpt lat="9.9504004" lon="-84.1119345"><ele>1082.0</ele><time>2026-04-08T22:00:30.587Z</time></trkpt><trkpt lat="9.9503377" lon="-84.1118896"><ele>1082.5</ele><time>2026-04-08T22:00:31.586Z</time></trkpt><trkpt lat="9.9502718" lon="-84.1118428"><ele>1083.0</ele><time>2026-04-08T22:00:32.585Z</time></trkpt><trkpt lat="9.9502017" lon="-84.111796"><ele>1083.0</ele><time>2026-04-08T22:00:33.586Z</time></trkpt><trkpt lat="9.9501324" lon="-84.1117426"><ele>1083.0</ele><time>2026-04-08T22:00:34.586Z</time></trkpt><trkpt lat="9.9500588" lon="-84.1116894"><ele>1083.0</ele><time>2026-04-08T22:00:35.587Z</time></trkpt><trkpt lat="9.949989" lon="-84.1116407"><ele>1083.0</ele><time>2026-04-08T22:00:36.586Z</time></trkpt><trkpt lat="9.9499204" lon="-84.1115964"><ele>1083.0</ele><time>2026-04-08T22:00:37.585Z</time></trkpt><trkpt lat="9.9498604" lon="-84.1115564"><ele>1083.0</ele><time>2026-04-08T22:00:38.587Z</time></trkpt><trkpt lat="9.9498043" lon="-84.1115162"><ele>1084.0</ele><time>2026-04-08T22:00:39.585Z</time></trkpt><trkpt lat="9.9497007" lon="-84.1114429"><ele>1085.0</ele><time>2026-04-08T22:00:41.586Z</time></trkpt><trkpt lat="9.9495987" lon="-84.1113723"><ele>1086.0</ele><time>2026-04-08T22:00:43.587Z</time></trkpt><trkpt lat="9.9495017" lon="-84.1113164"><ele>1087.0</ele><time>2026-04-08T22:00:45.586Z</time></trkpt><trkpt lat="9.9494148" lon="-84.1112518"><ele>1087.0</ele><time>2026-04-08T22:00:47.586Z</time></trkpt><trkpt lat="9.9493416" lon="-84.1111977"><ele>1087.0</ele><time>2026-04-08T22:00:49.586Z</time></trkpt><trkpt lat="9.9492851" lon="-84.1111562"><ele>1087.0</ele><time>2026-04-08T22:00:51.586Z</time></trkpt><trkpt lat="9.9492154" lon="-84.1110973"><ele>1087.0</ele><time>2026-04-08T22:00:55.585Z</time></trkpt><trkpt lat="9.9491185" lon="-84.111036"><ele>1087.0</ele><time>2026-04-08T22:00:57.586Z</time></trkpt><trkpt lat="9.9490294" lon="-84.1109728"><ele>1087.6666666666665</ele><time>2026-04-08T22:00:59.585Z</time></trkpt><trkpt lat="9.9489507" lon="-84.1109241"><ele>1088.3333333333333</ele><time>2026-04-08T22:01:01.586Z</time></trkpt><trkpt lat="9.9488877" lon="-84.1108837"><ele>1089.0</ele><time>2026-04-08T22:01:03.585Z</time></trkpt><trkpt lat="9.9488163" lon="-84.1108446"><ele>1089.6666666666667</ele><time>2026-04-08T22:01:05.587Z</time></trkpt><trkpt lat="9.9487446" lon="-84.1108025"><ele>1090.3333333333335</ele><time>2026-04-08T22:01:07.585Z</time></trkpt><trkpt lat="9.9486845" lon="-84.1107789"><ele>1091.0</ele><time>2026-04-08T22:01:08.584Z</time></trkpt><trkpt lat="9.9486247" lon="-84.1107511"><ele>1091.1666666666667</ele><time>2026-04-08T22:01:09.587Z</time></trkpt><trkpt lat="9.9485509" lon="-84.1107015"><ele>1091.3333333333335</ele><time>2026-04-08T22:01:10.585Z</time></trkpt><trkpt lat="9.9484706" lon="-84.1106541"><ele>1091.5</ele><time>2026-04-08T22:01:11.586Z</time></trkpt><trkpt lat="9.9483914" lon="-84.1106053"><ele>1091.6666666666667</ele><time>2026-04-08T22:01:12.587Z</time></trkpt><trkpt lat="9.9483185" lon="-84.1105574"><ele>1091.8333333333333</ele><time>2026-04-08T22:01:13.586Z</time></trkpt><trkpt lat="9.9482455" lon="-84.1105087"><ele>1092.0</ele><time>2026-04-08T22:01:14.586Z</time></trkpt><trkpt lat="9.9481718" lon="-84.110454"><ele>1092.6666666666667</ele><time>2026-04-08T22:01:15.586Z</time></trkpt><trkpt lat="9.9480935" lon="-84.1103993"><ele>1093.3333333333333</ele><time>2026-04-08T22:01:16.586Z</time></trkpt><trkpt lat="9.9480231" lon="-84.1103468"><ele>1094.0</ele><time>2026-04-08T22:01:17.586Z</time></trkpt><trkpt lat="9.9479578" lon="-84.1103001"><ele>1094.6666666666665</ele><time>2026-04-08T22:01:18.585Z</time></trkpt><trkpt lat="9.9478914" lon="-84.1102521"><ele>1095.3333333333333</ele><time>2026-04-08T22:01:19.586Z</time></trkpt><trkpt lat="9.9478269" lon="-84.1102042"><ele>1096.0</ele><time>2026-04-08T22:01:20.586Z</time></trkpt><trkpt lat="9.9477646" lon="-84.1101682"><ele>1096.0</ele><time>2026-04-08T22:01:21.587Z</time></trkpt><trkpt lat="9.9477009" lon="-84.1101287"><ele>1096.0</ele><time>2026-04-08T22:01:22.587Z</time></trkpt><trkpt lat="9.9476407" lon="-84.1100827"><ele>1096.0</ele><time>2026-04-08T22:01:23.585Z</time></trkpt><trkpt lat="9.9475592" lon="-84.1100325"><ele>1096.0</ele><time>2026-04-08T22:01:24.587Z</time></trkpt><trkpt lat="9.9474756" lon="-84.1099822"><ele>1096.0</ele><time>2026-04-08T22:01:25.586Z</time></trkpt><trkpt lat="9.9473606" lon="-84.1099583"><ele>1096.5</ele><time>2026-04-08T22:01:26.586Z</time></trkpt><trkpt lat="9.9472415" lon="-84.1099599"><ele>1097.0</ele><time>2026-04-08T22:01:27.586Z</time></trkpt><trkpt lat="9.9471161" lon="-84.1099833"><ele>1097.5</ele><time>2026-04-08T22:01:28.586Z</time></trkpt><trkpt lat="9.946985" lon="-84.1100286"><ele>1098.0</ele><time>2026-04-08T22:01:29.586Z</time></trkpt><trkpt lat="9.9468511" lon="-84.1100868"><ele>1098.0</ele><time>2026-04-08T22:01:30.584Z</time></trkpt><trkpt lat="9.9467157" lon="-84.1101519"><ele>1098.0</ele><time>2026-04-08T22:01:31.585Z</time></trkpt><trkpt lat="9.9465992" lon="-84.1102234"><ele>1098.0</ele><time>2026-04-08T22:01:32.586Z</time></trkpt><trkpt lat="9.9464879" lon="-84.1102953"><ele>1098.0</ele><time>2026-04-08T22:01:33.586Z</time></trkpt><trkpt lat="9.9463798" lon="-84.11036"><ele>1098.2</ele><time>2026-04-08T22:01:34.585Z</time></trkpt><trkpt lat="9.9462844" lon="-84.1104207"><ele>1098.4</ele><time>2026-04-08T22:01:35.586Z</time></trkpt><trkpt lat="9.9461953" lon="-84.1104911"><ele>1098.6000000000001</ele><time>2026-04-08T22:01:36.586Z</time></trkpt><trkpt lat="9.9461276" lon="-84.1105707"><ele>1098.8</ele><time>2026-04-08T22:01:37.585Z</time></trkpt><trkpt lat="9.9460867" lon="-84.1106602"><ele>1099.0</ele><time>2026-04-08T22:01:38.585Z</time></trkpt><trkpt lat="9.9460695" lon="-84.1107599"><ele>1099.0</ele><time>2026-04-08T22:01:39.586Z</time></trkpt><trkpt lat="9.9460536" lon="-84.110855"><ele>1099.0</ele><time>2026-04-08T22:01:40.586Z</time></trkpt><trkpt lat="9.9460404" lon="-84.1109501"><ele>1099.0</ele><time>2026-04-08T22:01:41.586Z</time></trkpt><trkpt lat="9.9460312" lon="-84.1110446"><ele>1099.0</ele><time>2026-04-08T22:01:42.586Z</time></trkpt><trkpt lat="9.9460226" lon="-84.1111398"><ele>1099.0</ele><time>2026-04-08T22:01:43.586Z</time></trkpt><trkpt lat="9.946012" lon="-84.1112354"><ele>1099.0</ele><time>2026-04-08T22:01:44.585Z</time></trkpt><trkpt lat="9.9460015" lon="-84.1113235"><ele>1099.0</ele><time>2026-04-08T22:01:45.586Z</time></trkpt><trkpt lat="9.9459983" lon="-84.1114089"><ele>1099.0</ele><time>2026-04-08T22:01:46.586Z</time></trkpt><trkpt lat="9.9459975" lon="-84.1114926"><ele>1099.0</ele><time>2026-04-08T22:01:47.586Z</time></trkpt><trkpt lat="9.945996" lon="-84.1115737"><ele>1099.0</ele><time>2026-04-08T22:01:48.586Z</time></trkpt><trkpt lat="9.9459931" lon="-84.1116588"><ele>1099.0</ele><time>2026-04-08T22:01:49.586Z</time></trkpt><trkpt lat="9.9459846" lon="-84.1117547"><ele>1099.4</ele><time>2026-04-08T22:01:50.584Z</time></trkpt><trkpt lat="9.9459765" lon="-84.111852"><ele>1099.8000000000002</ele><time>2026-04-08T22:01:51.587Z</time></trkpt><trkpt lat="9.9459624" lon="-84.1119456"><ele>1100.1999999999998</ele><time>2026-04-08T22:01:52.586Z</time></trkpt><trkpt lat="9.9459526" lon="-84.1120349"><ele>1100.6</ele><time>2026-04-08T22:01:53.586Z</time></trkpt><trkpt lat="9.9459415" lon="-84.1121257"><ele>1101.0</ele><time>2026-04-08T22:01:54.587Z</time></trkpt><trkpt lat="9.9459325" lon="-84.1122115"><ele>1101.0</ele><time>2026-04-08T22:01:55.585Z</time></trkpt><trkpt lat="9.9459267" lon="-84.1122971"><ele>1101.0</ele><time>2026-04-08T22:01:56.586Z</time></trkpt><trkpt lat="9.9459149" lon="-84.1123892"><ele>1101.0</ele><time>2026-04-08T22:01:57.584Z</time></trkpt><trkpt lat="9.9459028" lon="-84.1124792"><ele>1101.0</ele><time>2026-04-08T22:01:58.585Z</time></trkpt><trkpt lat="9.9458978" lon="-84.112564"><ele>1101.0</ele><time>2026-04-08T22:01:59.586Z</time></trkpt><trkpt lat="9.9458926" lon="-84.1126432"><ele>1101.0</ele><time>2026-04-08T22:02:00.586Z</time></trkpt><trkpt lat="9.9458861" lon="-84.1127232"><ele>1100.6</ele><time>2026-04-08T22:02:01.586Z</time></trkpt><trkpt lat="9.945895" lon="-84.1127989"><ele>1100.1999999999998</ele><time>2026-04-08T22:02:02.586Z</time></trkpt><trkpt lat="9.9458691" lon="-84.1128809"><ele>1099.8000000000002</ele><time>2026-04-08T22:02:03.585Z</time></trkpt><trkpt lat="9.9458392" lon="-84.1129751"><ele>1099.4</ele><time>2026-04-08T22:02:04.585Z</time></trkpt><trkpt lat="9.9458094" lon="-84.1130738"><ele>1099.0</ele><time>2026-04-08T22:02:05.586Z</time></trkpt><trkpt lat="9.9457872" lon="-84.1131653"><ele>1096.8333333333333</ele><time>2026-04-08T22:02:06.586Z</time></trkpt><trkpt lat="9.945772" lon="-84.1132637"><ele>1094.6666666666665</ele><time>2026-04-08T22:02:07.587Z</time></trkpt><trkpt lat="9.9457493" lon="-84.1133519"><ele>1092.5</ele><time>2026-04-08T22:02:08.584Z</time></trkpt><trkpt lat="9.9457239" lon="-84.1134414"><ele>1090.3333333333333</ele><time>2026-04-08T22:02:09.585Z</time></trkpt><trkpt lat="9.9457086" lon="-84.1135168"><ele>1088.1666666666667</ele><time>2026-04-08T22:02:10.586Z</time></trkpt><trkpt lat="9.9456807" lon="-84.1136037"><ele>1086.0</ele><time>2026-04-08T22:02:11.587Z</time></trkpt><trkpt lat="9.9456565" lon="-84.1136912"><ele>1086.0</ele><time>2026-04-08T22:02:12.585Z</time></trkpt><trkpt lat="9.9456176" lon="-84.1137853"><ele>1086.0</ele><time>2026-04-08T22:02:13.585Z</time></trkpt><trkpt lat="9.9455795" lon="-84.1138829"><ele>1086.0</ele><time>2026-04-08T22:02:14.584Z</time></trkpt><trkpt lat="9.9455357" lon="-84.1139778"><ele>1086.0</ele><time>2026-04-08T22:02:15.587Z</time></trkpt><trkpt lat="9.9454892" lon="-84.1140689"><ele>1086.0</ele><time>2026-04-08T22:02:16.586Z</time></trkpt><trkpt lat="9.9454473" lon="-84.1141521"><ele>1083.5</ele><time>2026-04-08T22:02:17.586Z</time></trkpt><trkpt lat="9.9454123" lon="-84.1142302"><ele>1081.0</ele><time>2026-04-08T22:02:18.586Z</time></trkpt><trkpt lat="9.945372" lon="-84.1143077"><ele>1078.5</ele><time>2026-04-08T22:02:19.585Z</time></trkpt><trkpt lat="9.945326" lon="-84.1143819"><ele>1076.0</ele><time>2026-04-08T22:02:20.586Z</time></trkpt><trkpt lat="9.945279" lon="-84.1144559"><ele>1073.5</ele><time>2026-04-08T22:02:21.586Z</time></trkpt><trkpt lat="9.9452282" lon="-84.1145299"><ele>1071.0</ele><time>2026-04-08T22:02:22.587Z</time></trkpt><trkpt lat="9.9451816" lon="-84.114605"><ele>1071.0</ele><time>2026-04-08T22:02:23.586Z</time></trkpt><trkpt lat="9.9451364" lon="-84.1146755"><ele>1071.0</ele><time>2026-04-08T22:02:24.586Z</time></trkpt><trkpt lat="9.9450913" lon="-84.1147397"><ele>1071.0</ele><time>2026-04-08T22:02:25.586Z</time></trkpt><trkpt lat="9.9450201" lon="-84.1148228"><ele>1071.0</ele><time>2026-04-08T22:02:27.585Z</time></trkpt><trkpt lat="9.9449574" lon="-84.1148964"><ele>1071.0</ele><time>2026-04-08T22:02:30.587Z</time></trkpt><trkpt lat="9.9448941" lon="-84.1149747"><ele>1073.0</ele><time>2026-04-08T22:02:32.586Z</time></trkpt><trkpt lat="9.9448516" lon="-84.1150413"><ele>1075.0</ele><time>2026-04-08T22:02:33.585Z</time></trkpt><trkpt lat="9.9447985" lon="-84.1151136"><ele>1077.0</ele><time>2026-04-08T22:02:34.586Z</time></trkpt><trkpt lat="9.9447341" lon="-84.1151884"><ele>1079.0</ele><time>2026-04-08T22:02:35.586Z</time></trkpt><trkpt lat="9.9446683" lon="-84.1152693"><ele>1081.0</ele><time>2026-04-08T22:02:36.586Z</time></trkpt><trkpt lat="9.9445951" lon="-84.115351"><ele>1081.0</ele><time>2026-04-08T22:02:37.584Z</time></trkpt><trkpt lat="9.9445292" lon="-84.1154236"><ele>1081.0</ele><time>2026-04-08T22:02:38.586Z</time></trkpt><trkpt lat="9.9444712" lon="-84.1154957"><ele>1081.0</ele><time>2026-04-08T22:02:39.587Z</time></trkpt><trkpt lat="9.9443924" lon="-84.115569"><ele>1081.0</ele><time>2026-04-08T22:02:40.585Z</time></trkpt><trkpt lat="9.9443214" lon="-84.1156496"><ele>1081.0</ele><time>2026-04-08T22:02:41.585Z</time></trkpt><trkpt lat="9.9442411" lon="-84.1157304"><ele>1082.8</ele><time>2026-04-08T22:02:42.584Z</time></trkpt><trkpt lat="9.9441693" lon="-84.1158041"><ele>1084.6</ele><time>2026-04-08T22:02:43.586Z</time></trkpt><trkpt lat="9.9441065" lon="-84.1158637"><ele>1086.4</ele><time>2026-04-08T22:02:44.586Z</time></trkpt><trkpt lat="9.9440559" lon="-84.1159154"><ele>1088.2</ele><time>2026-04-08T22:02:45.586Z</time></trkpt><trkpt lat="9.9439717" lon="-84.1160036"><ele>1090.0</ele><time>2026-04-08T22:02:47.587Z</time></trkpt><trkpt lat="9.9439158" lon="-84.1160548"><ele>1090.0</ele><time>2026-04-08T22:02:48.584Z</time></trkpt><trkpt lat="9.9438637" lon="-84.1161065"><ele>1090.0</ele><time>2026-04-08T22:02:49.586Z</time></trkpt><trkpt lat="9.9437531" lon="-84.1162169"><ele>1090.0</ele><time>2026-04-08T22:02:51.585Z</time></trkpt><trkpt lat="9.943685" lon="-84.1162826"><ele>1090.0</ele><time>2026-04-08T22:02:52.585Z</time></trkpt><trkpt lat="9.9436151" lon="-84.116353"><ele>1090.0</ele><time>2026-04-08T22:02:53.585Z</time></trkpt><trkpt lat="9.9435461" lon="-84.1164201"><ele>1090.0</ele><time>2026-04-08T22:02:54.586Z</time></trkpt><trkpt lat="9.9434823" lon="-84.1164847"><ele>1090.0</ele><time>2026-04-08T22:02:55.585Z</time></trkpt><trkpt lat="9.943421" lon="-84.1165355"><ele>1090.0</ele><time>2026-04-08T22:02:56.586Z</time></trkpt><trkpt lat="9.9433637" lon="-84.1165851"><ele>1090.0</ele><time>2026-04-08T22:02:57.586Z</time></trkpt><trkpt lat="9.9432799" lon="-84.1166481"><ele>1090.0</ele><time>2026-04-08T22:02:59.585Z</time></trkpt><trkpt lat="9.9432192" lon="-84.1166922"><ele>1090.0</ele><time>2026-04-08T22:03:01.586Z</time></trkpt><trkpt lat="9.9431221" lon="-84.1167527"><ele>1090.4285714285716</ele><time>2026-04-08T22:03:03.585Z</time></trkpt><trkpt lat="9.9430545" lon="-84.1167921"><ele>1090.857142857143</ele><time>2026-04-08T22:03:04.586Z</time></trkpt><trkpt lat="9.942983" lon="-84.1168329"><ele>1091.2857142857142</ele><time>2026-04-08T22:03:05.586Z</time></trkpt><trkpt lat="9.9429166" lon="-84.1168627"><ele>1091.7142857142858</ele><time>2026-04-08T22:03:06.586Z</time></trkpt><trkpt lat="9.9428508" lon="-84.1168922"><ele>1092.142857142857</ele><time>2026-04-08T22:03:07.586Z</time></trkpt><trkpt lat="9.9427919" lon="-84.1169159"><ele>1092.5714285714287</ele><time>2026-04-08T22:03:08.586Z</time></trkpt><trkpt lat="9.9427224" lon="-84.1169357"><ele>1093.0</ele><time>2026-04-08T22:03:09.585Z</time></trkpt><trkpt lat="9.9426547" lon="-84.1169594"><ele>1093.0</ele><time>2026-04-08T22:03:10.586Z</time></trkpt><trkpt lat="9.9425903" lon="-84.1169816"><ele>1093.0</ele><time>2026-04-08T22:03:11.586Z</time></trkpt><trkpt lat="9.9425012" lon="-84.1170138"><ele>1093.0</ele><time>2026-04-08T22:03:13.585Z</time></trkpt><trkpt lat="9.9423878" lon="-84.1170413"><ele>1093.0</ele><time>2026-04-08T22:03:15.586Z</time></trkpt><trkpt lat="9.9423142" lon="-84.1170579"><ele>1093.0</ele><time>2026-04-08T22:03:16.586Z</time></trkpt><trkpt lat="9.9422405" lon="-84.1170748"><ele>1093.0</ele><time>2026-04-08T22:03:17.586Z</time></trkpt><trkpt lat="9.9421677" lon="-84.1170901"><ele>1094.0</ele><time>2026-04-08T22:03:18.586Z</time></trkpt><trkpt lat="9.9420868" lon="-84.1171071"><ele>1095.0</ele><time>2026-04-08T22:03:19.585Z</time></trkpt><trkpt lat="9.941993" lon="-84.117121"><ele>1096.0</ele><time>2026-04-08T22:03:20.585Z</time></trkpt><trkpt lat="9.9418887" lon="-84.1171345"><ele>1097.0</ele><time>2026-04-08T22:03:21.586Z</time></trkpt><trkpt lat="9.9417925" lon="-84.1171461"><ele>1098.0</ele><time>2026-04-08T22:03:22.585Z</time></trkpt><trkpt lat="9.9416998" lon="-84.1171548"><ele>1098.0</ele><time>2026-04-08T22:03:23.585Z</time></trkpt><trkpt lat="9.9416018" lon="-84.1171648"><ele>1098.0</ele><time>2026-04-08T22:03:24.586Z</time></trkpt><trkpt lat="9.9415039" lon="-84.1171751"><ele>1098.0</ele><time>2026-04-08T22:03:25.585Z</time></trkpt><trkpt lat="9.9414033" lon="-84.1171832"><ele>1098.0</ele><time>2026-04-08T22:03:26.584Z</time></trkpt><trkpt lat="9.9413071" lon="-84.1171887"><ele>1098.0</ele><time>2026-04-08T22:03:27.585Z</time></trkpt><trkpt lat="9.9412148" lon="-84.1171879"><ele>1098.0</ele><time>2026-04-08T22:03:28.586Z</time></trkpt><trkpt lat="9.9411234" lon="-84.117186"><ele>1098.0</ele><time>2026-04-08T22:03:29.586Z</time></trkpt><trkpt lat="9.9410413" lon="-84.1171822"><ele>1098.0</ele><time>2026-04-08T22:03:30.586Z</time></trkpt><trkpt lat="9.940964" lon="-84.1171771"><ele>1098.0</ele><time>2026-04-08T22:03:31.585Z</time></trkpt><trkpt lat="9.940891" lon="-84.1171719"><ele>1098.0</ele><time>2026-04-08T22:03:32.586Z</time></trkpt><trkpt lat="9.9408123" lon="-84.1171698"><ele>1098.0</ele><time>2026-04-08T22:03:33.585Z</time></trkpt><trkpt lat="9.9407239" lon="-84.1171549"><ele>1098.4</ele><time>2026-04-08T22:03:34.585Z</time></trkpt><trkpt lat="9.9406254" lon="-84.1171467"><ele>1098.8</ele><time>2026-04-08T22:03:35.585Z</time></trkpt><trkpt lat="9.9405328" lon="-84.117138"><ele>1099.2</ele><time>2026-04-08T22:03:36.584Z</time></trkpt><trkpt lat="9.9404462" lon="-84.1171312"><ele>1099.6</ele><time>2026-04-08T22:03:37.586Z</time></trkpt><trkpt lat="9.940355" lon="-84.1171187"><ele>1100.0</ele><time>2026-04-08T22:03:38.585Z</time></trkpt><trkpt lat="9.9402743" lon="-84.1171113"><ele>1100.0</ele><time>2026-04-08T22:03:39.583Z</time></trkpt><trkpt lat="9.9401894" lon="-84.1171026"><ele>1100.0</ele><time>2026-04-08T22:03:40.586Z</time></trkpt><trkpt lat="9.9401051" lon="-84.1170945"><ele>1100.0</ele><time>2026-04-08T22:03:41.586Z</time></trkpt><trkpt lat="9.9400267" lon="-84.1170858"><ele>1100.0</ele><time>2026-04-08T22:03:42.586Z</time></trkpt><trkpt lat="9.9399435" lon="-84.1170798"><ele>1100.0</ele><time>2026-04-08T22:03:43.585Z</time></trkpt><trkpt lat="9.9398632" lon="-84.1170747"><ele>1100.0</ele><time>2026-04-08T22:03:44.586Z</time></trkpt><trkpt lat="9.939787" lon="-84.1170682"><ele>1099.5</ele><time>2026-04-08T22:03:45.586Z</time></trkpt><trkpt lat="9.9397145" lon="-84.1170616"><ele>1099.0</ele><time>2026-04-08T22:03:46.585Z</time></trkpt><trkpt lat="9.9396406" lon="-84.1170537"><ele>1098.5</ele><time>2026-04-08T22:03:47.585Z</time></trkpt><trkpt lat="9.9395646" lon="-84.1170445"><ele>1098.0</ele><time>2026-04-08T22:03:48.585Z</time></trkpt><trkpt lat="9.9394898" lon="-84.1170352"><ele>1097.5</ele><time>2026-04-08T22:03:49.586Z</time></trkpt><trkpt lat="9.9393974" lon="-84.1170228"><ele>1097.0</ele><time>2026-04-08T22:03:50.585Z</time></trkpt><trkpt lat="9.9393059" lon="-84.1170059"><ele>1097.0</ele><time>2026-04-08T22:03:51.584Z</time></trkpt><trkpt lat="9.9392232" lon="-84.1169885"><ele>1097.0</ele><time>2026-04-08T22:03:52.585Z</time></trkpt><trkpt lat="9.9391497" lon="-84.1169678"><ele>1097.0</ele><time>2026-04-08T22:03:53.585Z</time></trkpt><trkpt lat="9.9390694" lon="-84.1169512"><ele>1097.0</ele><time>2026-04-08T22:03:54.586Z</time></trkpt><trkpt lat="9.9389946" lon="-84.116926"><ele>1097.0</ele><time>2026-04-08T22:03:55.585Z</time></trkpt><trkpt lat="9.9389274" lon="-84.1169036"><ele>1097.0</ele><time>2026-04-08T22:03:56.586Z</time></trkpt><trkpt lat="9.9388556" lon="-84.11688"><ele>1097.2857142857142</ele><time>2026-04-08T22:03:57.586Z</time></trkpt><trkpt lat="9.9387792" lon="-84.1168547"><ele>1097.5714285714287</ele><time>2026-04-08T22:03:58.585Z</time></trkpt><trkpt lat="9.9386974" lon="-84.1168332"><ele>1097.857142857143</ele><time>2026-04-08T22:03:59.585Z</time></trkpt><trkpt lat="9.9386326" lon="-84.1168178"><ele>1098.142857142857</ele><time>2026-04-08T22:04:00.585Z</time></trkpt><trkpt lat="9.938564" lon="-84.1167978"><ele>1098.4285714285716</ele><time>2026-04-08T22:04:01.586Z</time></trkpt><trkpt lat="9.9384906" lon="-84.1167826"><ele>1098.7142857142858</ele><time>2026-04-08T22:04:02.585Z</time></trkpt><trkpt lat="9.938425" lon="-84.1167728"><ele>1099.0</ele><time>2026-04-08T22:04:03.586Z</time></trkpt><trkpt lat="9.9383051" lon="-84.1167543"><ele>1099.1666666666665</ele><time>2026-04-08T22:04:05.585Z</time></trkpt><trkpt lat="9.9382132" lon="-84.1167303"><ele>1099.3333333333333</ele><time>2026-04-08T22:04:07.586Z</time></trkpt><trkpt lat="9.938123" lon="-84.1167096"><ele>1099.5</ele><time>2026-04-08T22:04:10.585Z</time></trkpt><trkpt lat="9.9380448" lon="-84.1166969"><ele>1099.6666666666667</ele><time>2026-04-08T22:04:13.586Z</time></trkpt><trkpt lat="9.9379673" lon="-84.1166881"><ele>1099.8333333333335</ele><time>2026-04-08T22:04:17.586Z</time></trkpt><trkpt lat="9.9379021" lon="-84.1166842"><ele>1100.0</ele><time>2026-04-08T22:04:19.585Z</time></trkpt><trkpt lat="9.9378338" lon="-84.1166836"><ele>1100.0</ele><time>2026-04-08T22:04:21.586Z</time></trkpt><trkpt lat="9.9377267" lon="-84.1166772"><ele>1100.0</ele><time>2026-04-08T22:04:23.586Z</time></trkpt><trkpt lat="9.937608" lon="-84.1166711"><ele>1100.0</ele><time>2026-04-08T22:04:25.585Z</time></trkpt><trkpt lat="9.9374867" lon="-84.1166609"><ele>1100.0</ele><time>2026-04-08T22:04:27.586Z</time></trkpt><trkpt lat="9.9374147" lon="-84.1166608"><ele>1100.0</ele><time>2026-04-08T22:04:28.585Z</time></trkpt><trkpt lat="9.9373393" lon="-84.1166553"><ele>1099.6666666666667</ele><time>2026-04-08T22:04:29.585Z</time></trkpt><trkpt lat="9.9372651" lon="-84.1166477"><ele>1099.3333333333335</ele><time>2026-04-08T22:04:30.584Z</time></trkpt><trkpt lat="9.937194" lon="-84.1166446"><ele>1099.0</ele><time>2026-04-08T22:04:31.585Z</time></trkpt><trkpt lat="9.9371279" lon="-84.1166432"><ele>1098.6666666666667</ele><time>2026-04-08T22:04:32.585Z</time></trkpt><trkpt lat="9.9370555" lon="-84.1166391"><ele>1098.3333333333333</ele><time>2026-04-08T22:04:33.586Z</time></trkpt><trkpt lat="9.9369432" lon="-84.116631"><ele>1098.0</ele><time>2026-04-08T22:04:35.586Z</time></trkpt><trkpt lat="9.9368359" lon="-84.1166259"><ele>1098.0</ele><time>2026-04-08T22:04:37.585Z</time></trkpt><trkpt lat="9.9367698" lon="-84.1166175"><ele>1098.0</ele><time>2026-04-08T22:04:38.585Z</time></trkpt><trkpt lat="9.9366964" lon="-84.1166119"><ele>1098.0</ele><time>2026-04-08T22:04:39.586Z</time></trkpt><trkpt lat="9.9366244" lon="-84.1166063"><ele>1098.0</ele><time>2026-04-08T22:04:40.586Z</time></trkpt><trkpt lat="9.9365515" lon="-84.116599"><ele>1098.0</ele><time>2026-04-08T22:04:41.586Z</time></trkpt><trkpt lat="9.936487" lon="-84.1165946"><ele>1098.0</ele><time>2026-04-08T22:04:42.585Z</time></trkpt><trkpt lat="9.9364217" lon="-84.1165836"><ele>1098.0</ele><time>2026-04-08T22:04:43.585Z</time></trkpt><trkpt lat="9.9363301" lon="-84.1165805"><ele>1097.8333333333333</ele><time>2026-04-08T22:04:45.586Z</time></trkpt><trkpt lat="9.9362126" lon="-84.1165757"><ele>1097.6666666666667</ele><time>2026-04-08T22:04:47.586Z</time></trkpt><trkpt lat="9.9361396" lon="-84.1165699"><ele>1097.5</ele><time>2026-04-08T22:04:48.584Z</time></trkpt><trkpt lat="9.936058" lon="-84.1165606"><ele>1097.3333333333335</ele><time>2026-04-08T22:04:49.585Z</time></trkpt><trkpt lat="9.9359755" lon="-84.1165552"><ele>1097.1666666666667</ele><time>2026-04-08T22:04:50.586Z</time></trkpt><trkpt lat="9.9359008" lon="-84.1165456"><ele>1097.0</ele><time>2026-04-08T22:04:51.586Z</time></trkpt><trkpt lat="9.9358314" lon="-84.1165421"><ele>1097.0</ele><time>2026-04-08T22:04:52.585Z</time></trkpt><trkpt lat="9.9357618" lon="-84.1165364"><ele>1097.0</ele><time>2026-04-08T22:04:53.585Z</time></trkpt><trkpt lat="9.935693" lon="-84.11653"><ele>1097.0</ele><time>2026-04-08T22:04:54.586Z</time></trkpt><trkpt lat="9.935631" lon="-84.1165183"><ele>1097.0</ele><time>2026-04-08T22:04:55.585Z</time></trkpt><trkpt lat="9.9355521" lon="-84.1165082"><ele>1097.0</ele><time>2026-04-08T22:04:56.585Z</time></trkpt><trkpt lat="9.9354718" lon="-84.1165011"><ele>1097.0</ele><time>2026-04-08T22:04:57.585Z</time></trkpt><trkpt lat="9.9353938" lon="-84.1164906"><ele>1097.0</ele><time>2026-04-08T22:04:58.586Z</time></trkpt><trkpt lat="9.9353238" lon="-84.1164806"><ele>1097.0</ele><time>2026-04-08T22:04:59.586Z</time></trkpt><trkpt lat="9.9352529" lon="-84.1164739"><ele>1097.0</ele><time>2026-04-08T22:05:00.585Z</time></trkpt><trkpt lat="9.9351885" lon="-84.1164689"><ele>1097.0</ele><time>2026-04-08T22:05:01.586Z</time></trkpt><trkpt lat="9.9350619" lon="-84.1164504"><ele>1097.0</ele><time>2026-04-08T22:05:03.584Z</time></trkpt><trkpt lat="9.9349877" lon="-84.1164399"><ele>1097.0</ele><time>2026-04-08T22:05:04.585Z</time></trkpt><trkpt lat="9.9349103" lon="-84.1164334"><ele>1097.0</ele><time>2026-04-08T22:05:05.585Z</time></trkpt><trkpt lat="9.9348368" lon="-84.1164255"><ele>1097.3333333333335</ele><time>2026-04-08T22:05:06.585Z</time></trkpt><trkpt lat="9.9347027" lon="-84.1164134"><ele>1097.6666666666667</ele><time>2026-04-08T22:05:08.584Z</time></trkpt><trkpt lat="9.9346363" lon="-84.11641"><ele>1098.0</ele><time>2026-04-08T22:05:09.586Z</time></trkpt><trkpt lat="9.9345719" lon="-84.1164096"><ele>1098.3333333333333</ele><time>2026-04-08T22:05:10.584Z</time></trkpt><trkpt lat="9.9344881" lon="-84.1164058"><ele>1098.6666666666665</ele><time>2026-04-08T22:05:12.583Z</time></trkpt><trkpt lat="9.9344224" lon="-84.1163985"><ele>1099.0</ele><time>2026-04-08T22:05:15.585Z</time></trkpt><trkpt lat="9.9343178" lon="-84.1163861"><ele>1099.0</ele><time>2026-04-08T22:05:19.586Z</time></trkpt><trkpt lat="9.9342245" lon="-84.1163784"><ele>1099.0</ele><time>2026-04-08T22:05:21.585Z</time></trkpt><trkpt lat="9.9341149" lon="-84.1163742"><ele>1099.0</ele><time>2026-04-08T22:05:23.585Z</time></trkpt><trkpt lat="9.9339945" lon="-84.1163691"><ele>1099.0</ele><time>2026-04-08T22:05:25.585Z</time></trkpt><trkpt lat="9.9338781" lon="-84.116369"><ele>1099.0</ele><time>2026-04-08T22:05:27.586Z</time></trkpt><trkpt lat="9.9337763" lon="-84.1163667"><ele>1098.5</ele><time>2026-04-08T22:05:29.586Z</time></trkpt><trkpt lat="9.9336741" lon="-84.1163522"><ele>1098.0</ele><time>2026-04-08T22:05:31.585Z</time></trkpt><trkpt lat="9.9335636" lon="-84.1163489"><ele>1097.5</ele><time>2026-04-08T22:05:33.584Z</time></trkpt><trkpt lat="9.9334923" lon="-84.1163463"><ele>1097.0</ele><time>2026-04-08T22:05:34.585Z</time></trkpt><trkpt lat="9.9334224" lon="-84.1163449"><ele>1096.5</ele><time>2026-04-08T22:05:35.584Z</time></trkpt><trkpt lat="9.933346" lon="-84.1163382"><ele>1096.0</ele><time>2026-04-08T22:05:36.585Z</time></trkpt><trkpt lat="9.9332685" lon="-84.1163294"><ele>1095.8333333333333</ele><time>2026-04-08T22:05:37.584Z</time></trkpt><trkpt lat="9.933195" lon="-84.1163298"><ele>1095.6666666666665</ele><time>2026-04-08T22:05:38.586Z</time></trkpt><trkpt lat="9.933127" lon="-84.1163276"><ele>1095.5</ele><time>2026-04-08T22:05:39.586Z</time></trkpt><trkpt lat="9.9330088" lon="-84.116333"><ele>1095.3333333333333</ele><time>2026-04-08T22:05:41.586Z</time></trkpt><trkpt lat="9.9329308" lon="-84.1163351"><ele>1095.1666666666667</ele><time>2026-04-08T22:05:43.585Z</time></trkpt><trkpt lat="9.9328563" lon="-84.1163315"><ele>1095.0</ele><time>2026-04-08T22:05:49.585Z</time></trkpt><trkpt lat="9.9327836" lon="-84.1163343"><ele>1095.0</ele><time>2026-04-08T22:05:52.585Z</time></trkpt><trkpt lat="9.9326815" lon="-84.1163326"><ele>1095.0</ele><time>2026-04-08T22:05:54.586Z</time></trkpt><trkpt lat="9.9325724" lon="-84.1163327"><ele>1095.0</ele><time>2026-04-08T22:05:56.585Z</time></trkpt><trkpt lat="9.9324572" lon="-84.116338"><ele>1095.0</ele><time>2026-04-08T22:05:58.586Z</time></trkpt><trkpt lat="9.932348" lon="-84.1163403"><ele>1095.0</ele><time>2026-04-08T22:06:00.585Z</time></trkpt><trkpt lat="9.9322424" lon="-84.1163514"><ele>1093.3333333333333</ele><time>2026-04-08T22:06:02.585Z</time></trkpt><trkpt lat="9.9321531" lon="-84.1163477"><ele>1091.6666666666667</ele><time>2026-04-08T22:06:04.585Z</time></trkpt><trkpt lat="9.9320729" lon="-84.1163496"><ele>1090.0</ele><time>2026-04-08T22:06:06.585Z</time></trkpt><trkpt lat="9.9319552" lon="-84.1163479"><ele>1088.3333333333335</ele><time>2026-04-08T22:06:08.585Z</time></trkpt><trkpt lat="9.9318921" lon="-84.1163497"><ele>1086.6666666666667</ele><time>2026-04-08T22:06:09.586Z</time></trkpt><trkpt lat="9.9318245" lon="-84.1163535"><ele>1085.0</ele><time>2026-04-08T22:06:10.586Z</time></trkpt><trkpt lat="9.9317021" lon="-84.1163584"><ele>1081.5</ele><time>2026-04-08T22:06:12.586Z</time></trkpt><trkpt lat="9.9315858" lon="-84.1163628"><ele>1078.0</ele><time>2026-04-08T22:06:14.586Z</time></trkpt><trkpt lat="9.9314588" lon="-84.1163675"><ele>1074.5</ele><time>2026-04-08T22:06:16.585Z</time></trkpt><trkpt lat="9.9313322" lon="-84.1163761"><ele>1071.0</ele><time>2026-04-08T22:06:18.585Z</time></trkpt><trkpt lat="9.9312078" lon="-84.1163811"><ele>1071.0</ele><time>2026-04-08T22:06:20.585Z</time></trkpt><trkpt lat="9.9310868" lon="-84.1163865"><ele>1071.0</ele><time>2026-04-08T22:06:22.584Z</time></trkpt><trkpt lat="9.9309718" lon="-84.116386"><ele>1071.0</ele><time>2026-04-08T22:06:24.586Z</time></trkpt><trkpt lat="9.9308486" lon="-84.1163875"><ele>1071.0</ele><time>2026-04-08T22:06:26.584Z</time></trkpt><trkpt lat="9.930784" lon="-84.1163866"><ele>1071.0</ele><time>2026-04-08T22:06:27.585Z</time></trkpt><trkpt lat="9.9307057" lon="-84.1163893"><ele>1069.6666666666667</ele><time>2026-04-08T22:06:28.586Z</time></trkpt><trkpt lat="9.930635" lon="-84.1163901"><ele>1068.3333333333333</ele><time>2026-04-08T22:06:29.585Z</time></trkpt><trkpt lat="9.9305705" lon="-84.1163888"><ele>1067.0</ele><time>2026-04-08T22:06:30.586Z</time></trkpt><trkpt lat="9.9304969" lon="-84.1163906"><ele>1065.6666666666665</ele><time>2026-04-08T22:06:31.585Z</time></trkpt><trkpt lat="9.9304265" lon="-84.1163922"><ele>1064.3333333333333</ele><time>2026-04-08T22:06:32.586Z</time></trkpt><trkpt lat="9.9303104" lon="-84.1163932"><ele>1063.0</ele><time>2026-04-08T22:06:34.585Z</time></trkpt><trkpt lat="9.9301948" lon="-84.1163961"><ele>1063.0</ele><time>2026-04-08T22:06:36.585Z</time></trkpt><trkpt lat="9.9301289" lon="-84.1163932"><ele>1063.0</ele><time>2026-04-08T22:06:37.585Z</time></trkpt><trkpt lat="9.9300602" lon="-84.1163932"><ele>1063.0</ele><time>2026-04-08T22:06:38.585Z</time></trkpt><trkpt lat="9.9299816" lon="-84.1163935"><ele>1063.0</ele><time>2026-04-08T22:06:39.584Z</time></trkpt><trkpt lat="9.9298937" lon="-84.1163939"><ele>1063.0</ele><time>2026-04-08T22:06:40.585Z</time></trkpt><trkpt lat="9.9298105" lon="-84.1163958"><ele>1063.0</ele><time>2026-04-08T22:06:41.584Z</time></trkpt><trkpt lat="9.9297346" lon="-84.116395"><ele>1064.5</ele><time>2026-04-08T22:06:42.585Z</time></trkpt><trkpt lat="9.9296649" lon="-84.1163954"><ele>1066.0</ele><time>2026-04-08T22:06:43.585Z</time></trkpt><trkpt lat="9.9295968" lon="-84.1163912"><ele>1067.5</ele><time>2026-04-08T22:06:44.585Z</time></trkpt><trkpt lat="9.929521" lon="-84.1163905"><ele>1069.0</ele><time>2026-04-08T22:06:45.586Z</time></trkpt><trkpt lat="9.9294477" lon="-84.1163805"><ele>1070.5</ele><time>2026-04-08T22:06:46.584Z</time></trkpt><trkpt lat="9.9293674" lon="-84.1163704"><ele>1072.0</ele><time>2026-04-08T22:06:47.585Z</time></trkpt><trkpt lat="9.9292835" lon="-84.1163557"><ele>1074.0</ele><time>2026-04-08T22:06:48.584Z</time></trkpt><trkpt lat="9.929202" lon="-84.116345"><ele>1076.0</ele><time>2026-04-08T22:06:49.584Z</time></trkpt><trkpt lat="9.9291247" lon="-84.1163334"><ele>1078.0</ele><time>2026-04-08T22:06:50.585Z</time></trkpt><trkpt lat="9.9290529" lon="-84.1163197"><ele>1080.0</ele><time>2026-04-08T22:06:51.584Z</time></trkpt><trkpt lat="9.9289842" lon="-84.116305"><ele>1082.0</ele><time>2026-04-08T22:06:52.585Z</time></trkpt><trkpt lat="9.9288632" lon="-84.1162684"><ele>1084.0</ele><time>2026-04-08T22:06:54.584Z</time></trkpt><trkpt lat="9.928788" lon="-84.1162446"><ele>1084.0</ele><time>2026-04-08T22:06:55.584Z</time></trkpt><trkpt lat="9.9287227" lon="-84.1162206"><ele>1084.0</ele><time>2026-04-08T22:06:56.585Z</time></trkpt><trkpt lat="9.9286259" lon="-84.116182"><ele>1084.0</ele><time>2026-04-08T22:06:58.585Z</time></trkpt><trkpt lat="9.9285227" lon="-84.1161424"><ele>1084.0</ele><time>2026-04-08T22:07:00.586Z</time></trkpt><trkpt lat="9.9284526" lon="-84.1161068"><ele>1084.0</ele><time>2026-04-08T22:07:02.584Z</time></trkpt><trkpt lat="9.9283812" lon="-84.1160734"><ele>1084.0</ele><time>2026-04-08T22:07:06.583Z</time></trkpt><trkpt lat="9.9282847" lon="-84.1160252"><ele>1083.8</ele><time>2026-04-08T22:07:09.583Z</time></trkpt><trkpt lat="9.9281856" lon="-84.1159631"><ele>1083.6000000000001</ele><time>2026-04-08T22:07:11.586Z</time></trkpt><trkpt lat="9.9280906" lon="-84.1159019"><ele>1083.4</ele><time>2026-04-08T22:07:13.585Z</time></trkpt><trkpt lat="9.9280008" lon="-84.1158314"><ele>1083.2</ele><time>2026-04-08T22:07:15.586Z</time></trkpt><trkpt lat="9.9279336" lon="-84.1157701"><ele>1083.0</ele><time>2026-04-08T22:07:17.585Z</time></trkpt><trkpt lat="9.9278512" lon="-84.1157012"><ele>1085.0</ele><time>2026-04-08T22:07:19.585Z</time></trkpt><trkpt lat="9.9277838" lon="-84.1156305"><ele>1087.0</ele><time>2026-04-08T22:07:21.585Z</time></trkpt><trkpt lat="9.9277066" lon="-84.1155522"><ele>1089.0</ele><time>2026-04-08T22:07:23.585Z</time></trkpt><trkpt lat="9.9276394" lon="-84.115485"><ele>1091.0</ele><time>2026-04-08T22:07:25.586Z</time></trkpt><trkpt lat="9.9275749" lon="-84.1154176"><ele>1093.0</ele><time>2026-04-08T22:07:27.586Z</time></trkpt><trkpt lat="9.9275273" lon="-84.1153682"><ele>1093.0</ele><time>2026-04-08T22:07:29.585Z</time></trkpt><trkpt lat="9.9274743" lon="-84.1152857"><ele>1093.0</ele><time>2026-04-08T22:07:31.585Z</time></trkpt><trkpt lat="9.9274242" lon="-84.1151782"><ele>1093.0</ele><time>2026-04-08T22:07:33.585Z</time></trkpt><trkpt lat="9.9273638" lon="-84.1150788"><ele>1093.0</ele><time>2026-04-08T22:07:35.584Z</time></trkpt><trkpt lat="9.9273196" lon="-84.1150172"><ele>1093.0</ele><time>2026-04-08T22:07:36.585Z</time></trkpt><trkpt lat="9.9272752" lon="-84.1149561"><ele>1094.8</ele><time>2026-04-08T22:07:37.586Z</time></trkpt><trkpt lat="9.9272257" lon="-84.1148907"><ele>1096.6</ele><time>2026-04-08T22:07:38.585Z</time></trkpt><trkpt lat="9.9271778" lon="-84.1148185"><ele>1098.4</ele><time>2026-04-08T22:07:39.585Z</time></trkpt><trkpt lat="9.9271267" lon="-84.1147337"><ele>1100.2</ele><time>2026-04-08T22:07:40.585Z</time></trkpt><trkpt lat="9.9270703" lon="-84.1146323"><ele>1102.0</ele><time>2026-04-08T22:07:41.584Z</time></trkpt><trkpt lat="9.9270123" lon="-84.1145298"><ele>1102.0</ele><time>2026-04-08T22:07:42.584Z</time></trkpt><trkpt lat="9.9269506" lon="-84.1144204"><ele>1102.0</ele><time>2026-04-08T22:07:43.585Z</time></trkpt><trkpt lat="9.9268846" lon="-84.1143106"><ele>1102.0</ele><time>2026-04-08T22:07:44.585Z</time></trkpt><trkpt lat="9.9268172" lon="-84.1141786"><ele>1102.0</ele><time>2026-04-08T22:07:45.585Z</time></trkpt><trkpt lat="9.9267475" lon="-84.114058"><ele>1103.3333333333333</ele><time>2026-04-08T22:07:46.584Z</time></trkpt><trkpt lat="9.9266699" lon="-84.1139231"><ele>1104.6666666666667</ele><time>2026-04-08T22:07:47.584Z</time></trkpt><trkpt lat="9.926589" lon="-84.1137779"><ele>1106.0</ele><time>2026-04-08T22:07:48.585Z</time></trkpt><trkpt lat="9.9265125" lon="-84.113624"><ele>1106.0</ele><time>2026-04-08T22:07:49.583Z</time></trkpt><trkpt lat="9.926426" lon="-84.1134662"><ele>1106.0</ele><time>2026-04-08T22:07:50.583Z</time></trkpt><trkpt lat="9.9263402" lon="-84.1132977"><ele>1106.0</ele><time>2026-04-08T22:07:51.585Z</time></trkpt><trkpt lat="9.9262436" lon="-84.1131346"><ele>1107.0</ele><time>2026-04-08T22:07:52.584Z</time></trkpt><trkpt lat="9.9261485" lon="-84.1129644"><ele>1108.0</ele><time>2026-04-08T22:07:53.586Z</time></trkpt><trkpt lat="9.9260515" lon="-84.1127971"><ele>1109.0</ele><time>2026-04-08T22:07:54.585Z</time></trkpt><trkpt lat="9.9259498" lon="-84.1126224"><ele>1109.0</ele><time>2026-04-08T22:07:55.585Z</time></trkpt><trkpt lat="9.9258443" lon="-84.112442"><ele>1109.0</ele><time>2026-04-08T22:07:56.584Z</time></trkpt><trkpt lat="9.9257323" lon="-84.1122627"><ele>1109.0</ele><time>2026-04-08T22:07:57.585Z</time></trkpt><trkpt lat="9.9256291" lon="-84.1120796"><ele>1110.0</ele><time>2026-04-08T22:07:58.585Z</time></trkpt><trkpt lat="9.9255302" lon="-84.1119074"><ele>1111.0</ele><time>2026-04-08T22:07:59.585Z</time></trkpt><trkpt lat="9.925439" lon="-84.1117443"><ele>1112.0</ele><time>2026-04-08T22:08:00.584Z</time></trkpt><trkpt lat="9.9253503" lon="-84.1115846"><ele>1113.6666666666667</ele><time>2026-04-08T22:08:01.585Z</time></trkpt><trkpt lat="9.9252592" lon="-84.1114224"><ele>1115.3333333333333</ele><time>2026-04-08T22:08:02.585Z</time></trkpt><trkpt lat="9.9251691" lon="-84.111258"><ele>1117.0</ele><time>2026-04-08T22:08:03.586Z</time></trkpt><trkpt lat="9.9250767" lon="-84.1110946"><ele>1117.0</ele><time>2026-04-08T22:08:04.586Z</time></trkpt><trkpt lat="9.9249849" lon="-84.1109265"><ele>1117.0</ele><time>2026-04-08T22:08:05.584Z</time></trkpt><trkpt lat="9.9248909" lon="-84.1107617"><ele>1117.0</ele><time>2026-04-08T22:08:06.585Z</time></trkpt><trkpt lat="9.9247941" lon="-84.1105828"><ele>1118.0</ele><time>2026-04-08T22:08:07.585Z</time></trkpt><trkpt lat="9.9246957" lon="-84.1104144"><ele>1119.0</ele><time>2026-04-08T22:08:08.585Z</time></trkpt><trkpt lat="9.924593" lon="-84.1102341"><ele>1120.0</ele><time>2026-04-08T22:08:09.583Z</time></trkpt><trkpt lat="9.9244985" lon="-84.1100583"><ele>1120.0</ele><time>2026-04-08T22:08:10.585Z</time></trkpt><trkpt lat="9.9244002" lon="-84.1098776"><ele>1120.0</ele><time>2026-04-08T22:08:11.585Z</time></trkpt><trkpt lat="9.9242958" lon="-84.1096945"><ele>1120.0</ele><time>2026-04-08T22:08:12.585Z</time></trkpt><trkpt lat="9.9241944" lon="-84.1095129"><ele>1120.0</ele><time>2026-04-08T22:08:13.585Z</time></trkpt><trkpt lat="9.9240943" lon="-84.1093303"><ele>1120.0</ele><time>2026-04-08T22:08:14.586Z</time></trkpt><trkpt lat="9.9239904" lon="-84.1091434"><ele>1120.0</ele><time>2026-04-08T22:08:15.584Z</time></trkpt><trkpt lat="9.9238824" lon="-84.1089559"><ele>1121.0</ele><time>2026-04-08T22:08:16.585Z</time></trkpt><trkpt lat="9.9237716" lon="-84.1087704"><ele>1122.0</ele><time>2026-04-08T22:08:17.585Z</time></trkpt><trkpt lat="9.9236525" lon="-84.1085931"><ele>1123.0</ele><time>2026-04-08T22:08:18.586Z</time></trkpt><trkpt lat="9.9235211" lon="-84.1084267"><ele>1123.0</ele><time>2026-04-08T22:08:19.585Z</time></trkpt><trkpt lat="9.9233969" lon="-84.1082763"><ele>1123.0</ele><time>2026-04-08T22:08:20.584Z</time></trkpt><trkpt lat="9.9232695" lon="-84.1081366"><ele>1123.0</ele><time>2026-04-08T22:08:21.584Z</time></trkpt><trkpt lat="9.9231357" lon="-84.1080049"><ele>1123.0</ele><time>2026-04-08T22:08:22.584Z</time></trkpt><trkpt lat="9.9229872" lon="-84.1078826"><ele>1123.0</ele><time>2026-04-08T22:08:23.586Z</time></trkpt><trkpt lat="9.9228433" lon="-84.1077728"><ele>1123.0</ele><time>2026-04-08T22:08:24.583Z</time></trkpt><trkpt lat="9.9227009" lon="-84.1076724"><ele>1123.0</ele><time>2026-04-08T22:08:25.584Z</time></trkpt><trkpt lat="9.9225711" lon="-84.107585"><ele>1123.0</ele><time>2026-04-08T22:08:26.585Z</time></trkpt><trkpt lat="9.9224416" lon="-84.1075046"><ele>1123.0</ele><time>2026-04-08T22:08:27.584Z</time></trkpt><trkpt lat="9.9223129" lon="-84.1074337"><ele>1123.5</ele><time>2026-04-08T22:08:28.584Z</time></trkpt><trkpt lat="9.9221927" lon="-84.1073744"><ele>1124.0</ele><time>2026-04-08T22:08:29.584Z</time></trkpt><trkpt lat="9.922075" lon="-84.1073268"><ele>1124.5</ele><time>2026-04-08T22:08:30.585Z</time></trkpt><trkpt lat="9.9219533" lon="-84.1072827"><ele>1125.0</ele><time>2026-04-08T22:08:31.586Z</time></trkpt><trkpt lat="9.9218334" lon="-84.1072382"><ele>1123.5</ele><time>2026-04-08T22:08:32.584Z</time></trkpt><trkpt lat="9.921709" lon="-84.107194"><ele>1122.0</ele><time>2026-04-08T22:08:33.585Z</time></trkpt><trkpt lat="9.92158" lon="-84.1071562"><ele>1120.5</ele><time>2026-04-08T22:08:34.585Z</time></trkpt><trkpt lat="9.9214479" lon="-84.1071221"><ele>1119.0</ele><time>2026-04-08T22:08:35.585Z</time></trkpt><trkpt lat="9.9213186" lon="-84.1070906"><ele>1119.0</ele><time>2026-04-08T22:08:36.585Z</time></trkpt><trkpt lat="9.9211815" lon="-84.1070619"><ele>1119.0</ele><time>2026-04-08T22:08:37.584Z</time></trkpt><trkpt lat="9.921046" lon="-84.1070333"><ele>1119.0</ele><time>2026-04-08T22:08:38.584Z</time></trkpt><trkpt lat="9.9209002" lon="-84.1070016"><ele>1119.0</ele><time>2026-04-08T22:08:39.585Z</time></trkpt><trkpt lat="9.9207456" lon="-84.106974"><ele>1116.6666666666667</ele><time>2026-04-08T22:08:40.585Z</time></trkpt><trkpt lat="9.9205833" lon="-84.1069494"><ele>1114.3333333333335</ele><time>2026-04-08T22:08:41.585Z</time></trkpt><trkpt lat="9.9204185" lon="-84.1069281"><ele>1112.0</ele><time>2026-04-08T22:08:42.585Z</time></trkpt><trkpt lat="9.9202465" lon="-84.1069019"><ele>1112.0</ele><time>2026-04-08T22:08:43.585Z</time></trkpt><trkpt lat="9.9200816" lon="-84.1068755"><ele>1112.0</ele><time>2026-04-08T22:08:44.583Z</time></trkpt><trkpt lat="9.9199206" lon="-84.1068478"><ele>1112.0</ele><time>2026-04-08T22:08:45.584Z</time></trkpt><trkpt lat="9.9197594" lon="-84.1068221"><ele>1111.75</ele><time>2026-04-08T22:08:46.585Z</time></trkpt><trkpt lat="9.9196066" lon="-84.1067939"><ele>1111.5</ele><time>2026-04-08T22:08:47.584Z</time></trkpt><trkpt lat="9.9194661" lon="-84.1067665"><ele>1111.25</ele><time>2026-04-08T22:08:48.584Z</time></trkpt><trkpt lat="9.9193312" lon="-84.1067412"><ele>1111.0</ele><time>2026-04-08T22:08:49.584Z</time></trkpt><trkpt lat="9.9192021" lon="-84.1067191"><ele>1110.75</ele><time>2026-04-08T22:08:50.585Z</time></trkpt><trkpt lat="9.9190832" lon="-84.1066991"><ele>1110.5</ele><time>2026-04-08T22:08:51.584Z</time></trkpt><trkpt lat="9.9189689" lon="-84.1066785"><ele>1110.25</ele><time>2026-04-08T22:08:52.584Z</time></trkpt><trkpt lat="9.9188495" lon="-84.1066519"><ele>1110.0</ele><time>2026-04-08T22:08:53.585Z</time></trkpt><trkpt lat="9.918727" lon="-84.1066299"><ele>1110.0</ele><time>2026-04-08T22:08:54.585Z</time></trkpt><trkpt lat="9.9186017" lon="-84.1066084"><ele>1110.0</ele><time>2026-04-08T22:08:55.584Z</time></trkpt><trkpt lat="9.9184747" lon="-84.1065828"><ele>1110.0</ele><time>2026-04-08T22:08:56.585Z</time></trkpt><trkpt lat="9.918346" lon="-84.1065575"><ele>1110.0</ele><time>2026-04-08T22:08:57.585Z</time></trkpt><trkpt lat="9.9182044" lon="-84.106529"><ele>1109.3333333333333</ele><time>2026-04-08T22:08:58.584Z</time></trkpt><trkpt lat="9.9180538" lon="-84.1065017"><ele>1108.6666666666665</ele><time>2026-04-08T22:08:59.584Z</time></trkpt><trkpt lat="9.9178997" lon="-84.1064732"><ele>1108.0</ele><time>2026-04-08T22:09:00.584Z</time></trkpt><trkpt lat="9.9177514" lon="-84.1064444"><ele>1108.0</ele><time>2026-04-08T22:09:01.585Z</time></trkpt><trkpt lat="9.9176055" lon="-84.1064163"><ele>1108.0</ele><time>2026-04-08T22:09:02.585Z</time></trkpt><trkpt lat="9.9174632" lon="-84.1063883"><ele>1108.0</ele><time>2026-04-08T22:09:03.585Z</time></trkpt><trkpt lat="9.9173287" lon="-84.1063639"><ele>1108.0</ele><time>2026-04-08T22:09:04.584Z</time></trkpt><trkpt lat="9.9171953" lon="-84.1063378"><ele>1108.25</ele><time>2026-04-08T22:09:05.585Z</time></trkpt><trkpt lat="9.9170584" lon="-84.1063135"><ele>1108.5</ele><time>2026-04-08T22:09:06.585Z</time></trkpt><trkpt lat="9.9169142" lon="-84.106287"><ele>1108.75</ele><time>2026-04-08T22:09:07.584Z</time></trkpt><trkpt lat="9.9167664" lon="-84.1062617"><ele>1109.0</ele><time>2026-04-08T22:09:08.585Z</time></trkpt><trkpt lat="9.9166125" lon="-84.1062343"><ele>1109.6666666666667</ele><time>2026-04-08T22:09:09.584Z</time></trkpt><trkpt lat="9.9164573" lon="-84.1062048"><ele>1110.3333333333333</ele><time>2026-04-08T22:09:10.585Z</time></trkpt><trkpt lat="9.9163085" lon="-84.1061792"><ele>1111.0</ele><time>2026-04-08T22:09:11.585Z</time></trkpt><trkpt lat="9.9161528" lon="-84.1061517"><ele>1111.0</ele><time>2026-04-08T22:09:12.584Z</time></trkpt><trkpt lat="9.9159898" lon="-84.1061217"><ele>1111.0</ele><time>2026-04-08T22:09:13.584Z</time></trkpt><trkpt lat="9.9158219" lon="-84.1060893"><ele>1111.0</ele><time>2026-04-08T22:09:14.585Z</time></trkpt><trkpt lat="9.915647" lon="-84.1060581"><ele>1112.0</ele><time>2026-04-08T22:09:15.584Z</time></trkpt><trkpt lat="9.915471" lon="-84.106025"><ele>1113.0</ele><time>2026-04-08T22:09:16.584Z</time></trkpt><trkpt lat="9.9152884" lon="-84.1059948"><ele>1114.0</ele><time>2026-04-08T22:09:17.585Z</time></trkpt><trkpt lat="9.9151028" lon="-84.1059606"><ele>1113.0</ele><time>2026-04-08T22:09:18.584Z</time></trkpt><trkpt lat="9.9149155" lon="-84.1059267"><ele>1112.0</ele><time>2026-04-08T22:09:19.585Z</time></trkpt><trkpt lat="9.9147291" lon="-84.105901"><ele>1111.0</ele><time>2026-04-08T22:09:20.584Z</time></trkpt><trkpt lat="9.9145439" lon="-84.1058715"><ele>1111.0</ele><time>2026-04-08T22:09:21.585Z</time></trkpt><trkpt lat="9.9143693" lon="-84.1058313"><ele>1111.0</ele><time>2026-04-08T22:09:22.584Z</time></trkpt><trkpt lat="9.9142106" lon="-84.1057771"><ele>1111.0</ele><time>2026-04-08T22:09:23.585Z</time></trkpt><trkpt lat="9.9140609" lon="-84.1057139"><ele>1110.6666666666665</ele><time>2026-04-08T22:09:24.584Z</time></trkpt><trkpt lat="9.913914" lon="-84.1056412"><ele>1110.3333333333333</ele><time>2026-04-08T22:09:25.584Z</time></trkpt><trkpt lat="9.9137709" lon="-84.1055594"><ele>1110.0</ele><time>2026-04-08T22:09:26.584Z</time></trkpt><trkpt lat="9.9136284" lon="-84.1054583"><ele>1110.0</ele><time>2026-04-08T22:09:27.585Z</time></trkpt><trkpt lat="9.9134959" lon="-84.1053532"><ele>1110.0</ele><time>2026-04-08T22:09:28.584Z</time></trkpt><trkpt lat="9.9133777" lon="-84.1052482"><ele>1110.0</ele><time>2026-04-08T22:09:29.584Z</time></trkpt><trkpt lat="9.9132733" lon="-84.1051396"><ele>1110.25</ele><time>2026-04-08T22:09:30.585Z</time></trkpt><trkpt lat="9.9131805" lon="-84.105025"><ele>1110.5</ele><time>2026-04-08T22:09:31.584Z</time></trkpt><trkpt lat="9.9130888" lon="-84.1049042"><ele>1110.75</ele><time>2026-04-08T22:09:32.585Z</time></trkpt><trkpt lat="9.913005" lon="-84.1047749"><ele>1111.0</ele><time>2026-04-08T22:09:33.582Z</time></trkpt><trkpt lat="9.9129336" lon="-84.1046454"><ele>1111.0</ele><time>2026-04-08T22:09:34.585Z</time></trkpt><trkpt lat="9.9128682" lon="-84.1045183"><ele>1111.0</ele><time>2026-04-08T22:09:35.584Z</time></trkpt><trkpt lat="9.9128109" lon="-84.1043854"><ele>1111.0</ele><time>2026-04-08T22:09:36.585Z</time></trkpt><trkpt lat="9.9127607" lon="-84.1042456"><ele>1111.0</ele><time>2026-04-08T22:09:37.584Z</time></trkpt><trkpt lat="9.9127149" lon="-84.1041004"><ele>1112.6666666666665</ele><time>2026-04-08T22:09:38.584Z</time></trkpt><trkpt lat="9.9126669" lon="-84.103953"><ele>1114.3333333333333</ele><time>2026-04-08T22:09:39.584Z</time></trkpt><trkpt lat="9.9126124" lon="-84.1037987"><ele>1116.0</ele><time>2026-04-08T22:09:40.584Z</time></trkpt><trkpt lat="9.9125624" lon="-84.1036522"><ele>1116.5</ele><time>2026-04-08T22:09:41.583Z</time></trkpt><trkpt lat="9.9125159" lon="-84.1035103"><ele>1117.0</ele><time>2026-04-08T22:09:42.583Z</time></trkpt><trkpt lat="9.9124715" lon="-84.1033761"><ele>1117.5</ele><time>2026-04-08T22:09:43.585Z</time></trkpt><trkpt lat="9.9124246" lon="-84.103236"><ele>1118.0</ele><time>2026-04-08T22:09:44.584Z</time></trkpt><trkpt lat="9.9123776" lon="-84.1030943"><ele>1119.0</ele><time>2026-04-08T22:09:45.585Z</time></trkpt><trkpt lat="9.9123267" lon="-84.1029551"><ele>1120.0</ele><time>2026-04-08T22:09:46.585Z</time></trkpt><trkpt lat="9.9122736" lon="-84.1028161"><ele>1121.0</ele><time>2026-04-08T22:09:47.585Z</time></trkpt><trkpt lat="9.9122206" lon="-84.10268"><ele>1122.0</ele><time>2026-04-08T22:09:48.585Z</time></trkpt><trkpt lat="9.9121654" lon="-84.102535"><ele>1122.25</ele><time>2026-04-08T22:09:49.585Z</time></trkpt><trkpt lat="9.9121063" lon="-84.1023941"><ele>1122.5</ele><time>2026-04-08T22:09:50.584Z</time></trkpt><trkpt lat="9.912054" lon="-84.1022572"><ele>1122.75</ele><time>2026-04-08T22:09:51.583Z</time></trkpt><trkpt lat="9.9120019" lon="-84.1021279"><ele>1123.0</ele><time>2026-04-08T22:09:52.583Z</time></trkpt><trkpt lat="9.9119563" lon="-84.1020088"><ele>1123.0</ele><time>2026-04-08T22:09:53.584Z</time></trkpt><trkpt lat="9.9119201" lon="-84.1018959"><ele>1123.0</ele><time>2026-04-08T22:09:54.585Z</time></trkpt><trkpt lat="9.9118835" lon="-84.1017861"><ele>1123.0</ele><time>2026-04-08T22:09:55.585Z</time></trkpt><trkpt lat="9.9118399" lon="-84.1016732"><ele>1123.0</ele><time>2026-04-08T22:09:56.584Z</time></trkpt><trkpt lat="9.9118003" lon="-84.1015649"><ele>1123.2</ele><time>2026-04-08T22:09:57.585Z</time></trkpt><trkpt lat="9.9117605" lon="-84.1014648"><ele>1123.4</ele><time>2026-04-08T22:09:58.583Z</time></trkpt><trkpt lat="9.9117249" lon="-84.101364"><ele>1123.6000000000001</ele><time>2026-04-08T22:09:59.585Z</time></trkpt><trkpt lat="9.9116821" lon="-84.101258"><ele>1123.8</ele><time>2026-04-08T22:10:00.585Z</time></trkpt><trkpt lat="9.9116434" lon="-84.1011546"><ele>1124.0</ele><time>2026-04-08T22:10:01.584Z</time></trkpt><trkpt lat="9.9116085" lon="-84.1010582"><ele>1123.4</ele><time>2026-04-08T22:10:02.585Z</time></trkpt><trkpt lat="9.9115726" lon="-84.1009556"><ele>1122.8000000000002</ele><time>2026-04-08T22:10:03.585Z</time></trkpt><trkpt lat="9.9115386" lon="-84.1008578"><ele>1122.1999999999998</ele><time>2026-04-08T22:10:04.584Z</time></trkpt><trkpt lat="9.9115036" lon="-84.100759"><ele>1121.6</ele><time>2026-04-08T22:10:05.584Z</time></trkpt><trkpt lat="9.9114705" lon="-84.1006606"><ele>1121.0</ele><time>2026-04-08T22:10:06.585Z</time></trkpt><trkpt lat="9.9114355" lon="-84.1005573"><ele>1120.8</ele><time>2026-04-08T22:10:07.584Z</time></trkpt><trkpt lat="9.9113983" lon="-84.1004535"><ele>1120.6</ele><time>2026-04-08T22:10:08.584Z</time></trkpt><trkpt lat="9.9113634" lon="-84.100351"><ele>1120.4</ele><time>2026-04-08T22:10:09.584Z</time></trkpt><trkpt lat="9.9113296" lon="-84.100255"><ele>1120.2</ele><time>2026-04-08T22:10:10.585Z</time></trkpt><trkpt lat="9.9112957" lon="-84.1001546"><ele>1120.0</ele><time>2026-04-08T22:10:11.585Z</time></trkpt><trkpt lat="9.9112705" lon="-84.1000588"><ele>1120.0</ele><time>2026-04-08T22:10:12.585Z</time></trkpt><trkpt lat="9.911247" lon="-84.0999679"><ele>1120.0</ele><time>2026-04-08T22:10:13.584Z</time></trkpt><trkpt lat="9.9112214" lon="-84.0998892"><ele>1120.0</ele><time>2026-04-08T22:10:14.585Z</time></trkpt><trkpt lat="9.9111948" lon="-84.0998278"><ele>1120.0</ele><time>2026-04-08T22:10:15.583Z</time></trkpt><trkpt lat="9.9111623" lon="-84.0997594"><ele>1120.0</ele><time>2026-04-08T22:10:17.584Z</time></trkpt><trkpt lat="9.9110911" lon="-84.0997048"><ele>1120.0</ele><time>2026-04-08T22:10:19.583Z</time></trkpt><trkpt lat="9.9110296" lon="-84.0996834"><ele>1119.6666666666665</ele><time>2026-04-08T22:10:20.584Z</time></trkpt><trkpt lat="9.9109591" lon="-84.0996493"><ele>1119.3333333333333</ele><time>2026-04-08T22:10:21.585Z</time></trkpt><trkpt lat="9.9108943" lon="-84.0995994"><ele>1119.0</ele><time>2026-04-08T22:10:22.583Z</time></trkpt><trkpt lat="9.9108309" lon="-84.099531"><ele>1118.6666666666667</ele><time>2026-04-08T22:10:23.585Z</time></trkpt><trkpt lat="9.910773" lon="-84.0994565"><ele>1118.3333333333335</ele><time>2026-04-08T22:10:24.584Z</time></trkpt><trkpt lat="9.9107122" lon="-84.0993952"><ele>1118.0</ele><time>2026-04-08T22:10:25.584Z</time></trkpt><trkpt lat="9.9106432" lon="-84.0993466"><ele>1118.0</ele><time>2026-04-08T22:10:26.584Z</time></trkpt><trkpt lat="9.9105541" lon="-84.0993192"><ele>1118.0</ele><time>2026-04-08T22:10:27.584Z</time></trkpt><trkpt lat="9.9104609" lon="-84.0992909"><ele>1118.0</ele><time>2026-04-08T22:10:28.584Z</time></trkpt><trkpt lat="9.9103582" lon="-84.0992638"><ele>1118.0</ele><time>2026-04-08T22:10:29.585Z</time></trkpt><trkpt lat="9.9102497" lon="-84.099238"><ele>1118.0</ele><time>2026-04-08T22:10:30.585Z</time></trkpt><trkpt lat="9.9101386" lon="-84.0992131"><ele>1118.4</ele><time>2026-04-08T22:10:31.585Z</time></trkpt><trkpt lat="9.9100386" lon="-84.0991854"><ele>1118.8</ele><time>2026-04-08T22:10:32.584Z</time></trkpt><trkpt lat="9.9099467" lon="-84.0991518"><ele>1119.2</ele><time>2026-04-08T22:10:33.584Z</time></trkpt><trkpt lat="9.9098591" lon="-84.0991154"><ele>1119.6</ele><time>2026-04-08T22:10:34.585Z</time></trkpt><trkpt lat="9.9097686" lon="-84.0990725"><ele>1120.0</ele><time>2026-04-08T22:10:35.584Z</time></trkpt><trkpt lat="9.9096826" lon="-84.0990235"><ele>1120.0</ele><time>2026-04-08T22:10:36.585Z</time></trkpt><trkpt lat="9.9095936" lon="-84.0989688"><ele>1120.0</ele><time>2026-04-08T22:10:37.584Z</time></trkpt><trkpt lat="9.9095072" lon="-84.0989122"><ele>1120.0</ele><time>2026-04-08T22:10:38.584Z</time></trkpt><trkpt lat="9.909426" lon="-84.0988561"><ele>1120.0</ele><time>2026-04-08T22:10:39.584Z</time></trkpt><trkpt lat="9.9093472" lon="-84.0988003"><ele>1120.0</ele><time>2026-04-08T22:10:40.584Z</time></trkpt><trkpt lat="9.9092702" lon="-84.0987445"><ele>1119.2</ele><time>2026-04-08T22:10:41.585Z</time></trkpt><trkpt lat="9.9091913" lon="-84.0986942"><ele>1118.4</ele><time>2026-04-08T22:10:42.584Z</time></trkpt><trkpt lat="9.9091079" lon="-84.0986476"><ele>1117.6</ele><time>2026-04-08T22:10:43.584Z</time></trkpt><trkpt lat="9.9090217" lon="-84.0986171"><ele>1116.8</ele><time>2026-04-08T22:10:44.585Z</time></trkpt><trkpt lat="9.9089351" lon="-84.0986073"><ele>1116.0</ele><time>2026-04-08T22:10:45.584Z</time></trkpt><trkpt lat="9.9088426" lon="-84.0986123"><ele>1116.0</ele><time>2026-04-08T22:10:46.584Z</time></trkpt><trkpt lat="9.9087569" lon="-84.0986392"><ele>1116.0</ele><time>2026-04-08T22:10:47.584Z</time></trkpt><trkpt lat="9.9086768" lon="-84.0986778"><ele>1116.0</ele><time>2026-04-08T22:10:48.584Z</time></trkpt><trkpt lat="9.9086255" lon="-84.098743"><ele>1116.0</ele><time>2026-04-08T22:10:49.583Z</time></trkpt><trkpt lat="9.9085828" lon="-84.098815"><ele>1116.0</ele><time>2026-04-08T22:10:50.584Z</time></trkpt><trkpt lat="9.9085618" lon="-84.0988885"><ele>1116.0</ele><time>2026-04-08T22:10:51.585Z</time></trkpt><trkpt lat="9.90856" lon="-84.0989679"><ele>1116.0</ele><time>2026-04-08T22:10:52.583Z</time></trkpt><trkpt lat="9.9085845" lon="-84.0990481"><ele>1116.0</ele><time>2026-04-08T22:10:53.585Z</time></trkpt><trkpt lat="9.9086207" lon="-84.0991174"><ele>1116.0</ele><time>2026-04-08T22:10:54.583Z</time></trkpt><trkpt lat="9.90867" lon="-84.0991842"><ele>1116.0</ele><time>2026-04-08T22:10:55.584Z</time></trkpt><trkpt lat="9.9087403" lon="-84.0992519"><ele>1116.0</ele><time>2026-04-08T22:10:56.584Z</time></trkpt><trkpt lat="9.9088031" lon="-84.0993244"><ele>1116.0</ele><time>2026-04-08T22:10:57.584Z</time></trkpt><trkpt lat="9.9088585" lon="-84.0993998"><ele>1115.6</ele><time>2026-04-08T22:10:58.584Z</time></trkpt><trkpt lat="9.9089076" lon="-84.0994798"><ele>1115.1999999999998</ele><time>2026-04-08T22:10:59.584Z</time></trkpt><trkpt lat="9.9089364" lon="-84.0995694"><ele>1114.8000000000002</ele><time>2026-04-08T22:11:00.584Z</time></trkpt><trkpt lat="9.9089393" lon="-84.0996677"><ele>1114.4</ele><time>2026-04-08T22:11:01.585Z</time></trkpt><trkpt lat="9.9089139" lon="-84.0997721"><ele>1114.0</ele><time>2026-04-08T22:11:02.585Z</time></trkpt><trkpt lat="9.9088805" lon="-84.0998898"><ele>1110.25</ele><time>2026-04-08T22:11:03.585Z</time></trkpt><trkpt lat="9.9088466" lon="-84.1000172"><ele>1106.5</ele><time>2026-04-08T22:11:04.583Z</time></trkpt><trkpt lat="9.9088034" lon="-84.1001402"><ele>1102.75</ele><time>2026-04-08T22:11:05.585Z</time></trkpt><trkpt lat="9.9087589" lon="-84.100245"><ele>1099.0</ele><time>2026-04-08T22:11:06.586Z</time></trkpt><trkpt lat="9.9087026" lon="-84.1003434"><ele>1099.0</ele><time>2026-04-08T22:11:07.585Z</time></trkpt><trkpt lat="9.9086336" lon="-84.1004236"><ele>1099.0</ele><time>2026-04-08T22:11:08.584Z</time></trkpt><trkpt lat="9.908527" lon="-84.1004606"><ele>1099.0</ele><time>2026-04-08T22:11:09.585Z</time></trkpt><trkpt lat="9.9084203" lon="-84.1004798"><ele>1099.0</ele><time>2026-04-08T22:11:10.584Z</time></trkpt><trkpt lat="9.9083113" lon="-84.100471"><ele>1099.0</ele><time>2026-04-08T22:11:11.585Z</time></trkpt><trkpt lat="9.9082036" lon="-84.1004423"><ele>1099.2</ele><time>2026-04-08T22:11:12.584Z</time></trkpt><trkpt lat="9.9081251" lon="-84.1003833"><ele>1099.4</ele><time>2026-04-08T22:11:13.584Z</time></trkpt><trkpt lat="9.9080358" lon="-84.100333"><ele>1099.6</ele><time>2026-04-08T22:11:14.584Z</time></trkpt><trkpt lat="9.9079705" lon="-84.1002881"><ele>1099.8</ele><time>2026-04-08T22:11:15.584Z</time></trkpt><trkpt lat="9.9078978" lon="-84.1002438"><ele>1100.0</ele><time>2026-04-08T22:11:16.584Z</time></trkpt><trkpt lat="9.9078199" lon="-84.1001961"><ele>1100.0</ele><time>2026-04-08T22:11:17.585Z</time></trkpt><trkpt lat="9.9077443" lon="-84.1001395"><ele>1100.0</ele><time>2026-04-08T22:11:18.585Z</time></trkpt><trkpt lat="9.9076697" lon="-84.1000887"><ele>1100.0</ele><time>2026-04-08T22:11:19.584Z</time></trkpt><trkpt lat="9.9075955" lon="-84.1000358"><ele>1100.0</ele><time>2026-04-08T22:11:20.585Z</time></trkpt><trkpt lat="9.907519" lon="-84.0999893"><ele>1100.0</ele><time>2026-04-08T22:11:21.583Z</time></trkpt><trkpt lat="9.9074399" lon="-84.0999335"><ele>1101.2</ele><time>2026-04-08T22:11:22.585Z</time></trkpt><trkpt lat="9.9073619" lon="-84.0998792"><ele>1102.4</ele><time>2026-04-08T22:11:23.584Z</time></trkpt><trkpt lat="9.9072808" lon="-84.0998209"><ele>1103.6</ele><time>2026-04-08T22:11:24.585Z</time></trkpt><trkpt lat="9.907196" lon="-84.0997653"><ele>1104.8</ele><time>2026-04-08T22:11:25.584Z</time></trkpt><trkpt lat="9.9071252" lon="-84.0997253"><ele>1106.0</ele><time>2026-04-08T22:11:26.584Z</time></trkpt><trkpt lat="9.9070497" lon="-84.0996862"><ele>1106.0</ele><time>2026-04-08T22:11:27.583Z</time></trkpt><trkpt lat="9.9069685" lon="-84.0996525"><ele>1106.0</ele><time>2026-04-08T22:11:28.584Z</time></trkpt><trkpt lat="9.9068845" lon="-84.0996307"><ele>1106.0</ele><time>2026-04-08T22:11:29.584Z</time></trkpt><trkpt lat="9.9067928" lon="-84.09963"><ele>1106.0</ele><time>2026-04-08T22:11:30.584Z</time></trkpt><trkpt lat="9.9067034" lon="-84.0996548"><ele>1106.0</ele><time>2026-04-08T22:11:31.584Z</time></trkpt><trkpt lat="9.9066239" lon="-84.0996804"><ele>1106.0</ele><time>2026-04-08T22:11:32.584Z</time></trkpt><trkpt lat="9.9065254" lon="-84.0997356"><ele>1108.2</ele><time>2026-04-08T22:11:34.584Z</time></trkpt><trkpt lat="9.9064695" lon="-84.0997988"><ele>1110.3999999999999</ele><time>2026-04-08T22:11:36.584Z</time></trkpt><trkpt lat="9.9064145" lon="-84.0998685"><ele>1112.6</ele><time>2026-04-08T22:11:38.584Z</time></trkpt><trkpt lat="9.9063466" lon="-84.0999626"><ele>1114.8</ele><time>2026-04-08T22:11:40.582Z</time></trkpt><trkpt lat="9.9062617" lon="-84.1000449"><ele>1117.0</ele><time>2026-04-08T22:11:42.584Z</time></trkpt><trkpt lat="9.9061835" lon="-84.10011"><ele>1118.6666666666665</ele><time>2026-04-08T22:11:44.583Z</time></trkpt><trkpt lat="9.9061254" lon="-84.1001462"><ele>1120.3333333333333</ele><time>2026-04-08T22:11:46.585Z</time></trkpt><trkpt lat="9.906051" lon="-84.1001875"><ele>1122.0</ele><time>2026-04-08T22:11:49.584Z</time></trkpt><trkpt lat="9.9059726" lon="-84.10022"><ele>1123.6666666666667</ele><time>2026-04-08T22:11:52.585Z</time></trkpt><trkpt lat="9.9059065" lon="-84.1002466"><ele>1125.3333333333335</ele><time>2026-04-08T22:11:55.585Z</time></trkpt><trkpt lat="9.9058146" lon="-84.100256"><ele>1127.0</ele><time>2026-04-08T22:12:25.584Z</time></trkpt><trkpt lat="9.9057427" lon="-84.1002545"><ele>1127.3333333333335</ele><time>2026-04-08T22:12:27.584Z</time></trkpt><trkpt lat="9.9056586" lon="-84.1002499"><ele>1127.6666666666667</ele><time>2026-04-08T22:12:30.583Z</time></trkpt><trkpt lat="9.9055804" lon="-84.100233"><ele>1128.0</ele><time>2026-04-08T22:12:33.583Z</time></trkpt><trkpt lat="9.905494" lon="-84.1002116"><ele>1128.3333333333333</ele><time>2026-04-08T22:12:36.582Z</time></trkpt><trkpt lat="9.9054068" lon="-84.1001931"><ele>1128.6666666666665</ele><time>2026-04-08T22:12:39.585Z</time></trkpt><trkpt lat="9.9053426" lon="-84.1001769"><ele>1129.0</ele><time>2026-04-08T22:12:53.584Z</time></trkpt><trkpt lat="9.9052739" lon="-84.1001645"><ele>1129.0</ele><time>2026-04-08T22:13:02.584Z</time></trkpt><trkpt lat="9.9051988" lon="-84.1001502"><ele>1129.0</ele><time>2026-04-08T22:13:06.584Z</time></trkpt><trkpt lat="9.905135" lon="-84.1001346"><ele>1129.0</ele><time>2026-04-08T22:13:20.584Z</time></trkpt><trkpt lat="9.9050551" lon="-84.1001121"><ele>1129.0</ele><time>2026-04-08T22:13:31.584Z</time></trkpt><trkpt lat="9.9050338" lon="-84.1000305"><ele>1129.0</ele><time>2026-04-08T22:13:33.584Z</time></trkpt><trkpt lat="9.9050544" lon="-84.0999261"><ele>1129.0</ele><time>2026-04-08T22:13:35.584Z</time></trkpt><trkpt lat="9.9050586" lon="-84.0998267"><ele>1128.6666666666665</ele><time>2026-04-08T22:13:37.583Z</time></trkpt><trkpt lat="9.905058" lon="-84.0997473"><ele>1128.3333333333333</ele><time>2026-04-08T22:13:40.585Z</time></trkpt><trkpt lat="9.905068" lon="-84.0996816"><ele>1128.0</ele><time>2026-04-08T22:13:43.584Z</time></trkpt><trkpt lat="9.9050824" lon="-84.0996084"><ele>1127.6666666666667</ele><time>2026-04-08T22:13:45.583Z</time></trkpt><trkpt lat="9.9051015" lon="-84.0995162"><ele>1127.3333333333335</ele><time>2026-04-08T22:13:47.584Z</time></trkpt><trkpt lat="9.9051179" lon="-84.0994331"><ele>1127.0</ele><time>2026-04-08T22:13:49.582Z</time></trkpt><trkpt lat="9.9051245" lon="-84.0993418"><ele>1127.0</ele><time>2026-04-08T22:13:52.584Z</time></trkpt><trkpt lat="9.905059" lon="-84.0992634"><ele>1127.0</ele><time>2026-04-08T22:13:55.583Z</time></trkpt><trkpt lat="9.9049695" lon="-84.0992429"><ele>1127.0</ele><time>2026-04-08T22:13:57.582Z</time></trkpt><trkpt lat="9.9048593" lon="-84.0992254"><ele>1127.0</ele><time>2026-04-08T22:13:59.583Z</time></trkpt><trkpt lat="9.9047486" lon="-84.0992032"><ele>1127.0</ele><time>2026-04-08T22:14:01.583Z</time></trkpt><trkpt lat="9.9046714" lon="-84.0991756"><ele>1127.0</ele><time>2026-04-08T22:14:03.584Z</time></trkpt><trkpt lat="9.9046232" lon="-84.0991127"><ele>1127.0</ele><time>2026-04-08T22:14:05.584Z</time></trkpt><trkpt lat="9.9045819" lon="-84.0990191"><ele>1127.0</ele><time>2026-04-08T22:14:07.584Z</time></trkpt><trkpt lat="9.9045385" lon="-84.0989125"><ele>1127.0</ele><time>2026-04-08T22:14:09.583Z</time></trkpt><trkpt lat="9.9045015" lon="-84.0988176"><ele>1127.0</ele><time>2026-04-08T22:14:11.584Z</time></trkpt><trkpt lat="9.9044554" lon="-84.0987367"><ele>1125.0</ele><time>2026-04-08T22:14:13.584Z</time></trkpt><trkpt lat="9.9044177" lon="-84.0986542"><ele>1123.0</ele><time>2026-04-08T22:14:15.584Z</time></trkpt><trkpt lat="9.9043844" lon="-84.0985893"><ele>1121.0</ele><time>2026-04-08T22:14:18.583Z</time></trkpt><trkpt lat="9.904358" lon="-84.0985301"><ele>1119.0</ele><time>2026-04-08T22:14:20.584Z</time></trkpt><trkpt lat="9.9043228" lon="-84.0984522"><ele>1117.0</ele><time>2026-04-08T22:14:22.583Z</time></trkpt><trkpt lat="9.904291" lon="-84.0983609"><ele>1115.0</ele><time>2026-04-08T22:14:24.584Z</time></trkpt><trkpt lat="9.9042609" lon="-84.0982932"><ele>1115.8</ele><time>2026-04-08T22:14:26.584Z</time></trkpt><trkpt lat="9.9042501" lon="-84.0982187"><ele>1116.6</ele><time>2026-04-08T22:14:29.583Z</time></trkpt><trkpt lat="9.9042121" lon="-84.0981164"><ele>1117.4</ele><time>2026-04-08T22:14:32.583Z</time></trkpt><trkpt lat="9.9041701" lon="-84.0980275"><ele>1118.2</ele><time>2026-04-08T22:14:34.584Z</time></trkpt><trkpt lat="9.9041016" lon="-84.097941"><ele>1119.0</ele><time>2026-04-08T22:14:36.583Z</time></trkpt><trkpt lat="9.9040355" lon="-84.0978674"><ele>1119.0</ele><time>2026-04-08T22:14:38.584Z</time></trkpt><trkpt lat="9.9039661" lon="-84.0977959"><ele>1119.0</ele><time>2026-04-08T22:14:40.584Z</time></trkpt><trkpt lat="9.9038975" lon="-84.0977224"><ele>1119.0</ele><time>2026-04-08T22:14:42.584Z</time></trkpt><trkpt lat="9.9038408" lon="-84.0976679"><ele>1119.0</ele><time>2026-04-08T22:14:44.584Z</time></trkpt><trkpt lat="9.9037845" lon="-84.0976315"><ele>1119.0</ele><time>2026-04-08T22:14:46.583Z</time></trkpt><trkpt lat="9.903724" lon="-84.0975818"><ele>1119.0</ele><time>2026-04-08T22:14:49.583Z</time></trkpt><trkpt lat="9.9036933" lon="-84.0974883"><ele>1116.0</ele><time>2026-04-08T22:14:50.584Z</time></trkpt><trkpt lat="9.9036683" lon="-84.0974089"><ele>1113.0</ele><time>2026-04-08T22:14:51.584Z</time></trkpt><trkpt lat="9.9036318" lon="-84.0973265"><ele>1110.0</ele><time>2026-04-08T22:14:52.584Z</time></trkpt><trkpt lat="9.9035888" lon="-84.0972383"><ele>1107.0</ele><time>2026-04-08T22:14:53.584Z</time></trkpt><trkpt lat="9.9035447" lon="-84.0971507"><ele>1104.0</ele><time>2026-04-08T22:14:54.583Z</time></trkpt><trkpt lat="9.9034996" lon="-84.097067"><ele>1104.0</ele><time>2026-04-08T22:14:55.584Z</time></trkpt><trkpt lat="9.9034566" lon="-84.09698"><ele>1104.0</ele><time>2026-04-08T22:14:56.584Z</time></trkpt><trkpt lat="9.9034156" lon="-84.0968915"><ele>1104.0</ele><time>2026-04-08T22:14:57.584Z</time></trkpt><trkpt lat="9.9033722" lon="-84.0968079"><ele>1104.0</ele><time>2026-04-08T22:14:58.584Z</time></trkpt><trkpt lat="9.903338" lon="-84.0967357"><ele>1104.0</ele><time>2026-04-08T22:14:59.583Z</time></trkpt><trkpt lat="9.9033045" lon="-84.0966759"><ele>1104.0</ele><time>2026-04-08T22:15:00.584Z</time></trkpt><trkpt lat="9.9032734" lon="-84.0966197"><ele>1104.0</ele><time>2026-04-08T22:15:01.584Z</time></trkpt><trkpt lat="9.9032146" lon="-84.0965151"><ele>1104.0</ele><time>2026-04-08T22:15:03.584Z</time></trkpt><trkpt lat="9.9031565" lon="-84.0964349"><ele>1104.0</ele><time>2026-04-08T22:15:05.584Z</time></trkpt><trkpt lat="9.9031045" lon="-84.0963788"><ele>1104.0</ele><time>2026-04-08T22:15:09.584Z</time></trkpt><trkpt lat="9.9030555" lon="-84.0963201"><ele>1104.0</ele><time>2026-04-08T22:15:12.583Z</time></trkpt><trkpt lat="9.9030093" lon="-84.0962488"><ele>1104.0</ele><time>2026-04-08T22:15:14.584Z</time></trkpt><trkpt lat="9.9029363" lon="-84.0961427"><ele>1104.0</ele><time>2026-04-08T22:15:16.583Z</time></trkpt><trkpt lat="9.9028945" lon="-84.0960795"><ele>1104.0</ele><time>2026-04-08T22:15:17.584Z</time></trkpt><trkpt lat="9.9028507" lon="-84.0960134"><ele>1104.0</ele><time>2026-04-08T22:15:18.584Z</time></trkpt><trkpt lat="9.9028027" lon="-84.095949"><ele>1104.0</ele><time>2026-04-08T22:15:19.583Z</time></trkpt><trkpt lat="9.9027613" lon="-84.0958875"><ele>1104.0</ele><time>2026-04-08T22:15:20.583Z</time></trkpt><trkpt lat="9.9027137" lon="-84.095821"><ele>1104.3333333333333</ele><time>2026-04-08T22:15:21.583Z</time></trkpt><trkpt lat="9.9026626" lon="-84.0957496"><ele>1104.6666666666667</ele><time>2026-04-08T22:15:22.583Z</time></trkpt><trkpt lat="9.9026083" lon="-84.0956784"><ele>1105.0</ele><time>2026-04-08T22:15:23.583Z</time></trkpt><trkpt lat="9.9025543" lon="-84.095611"><ele>1105.3333333333335</ele><time>2026-04-08T22:15:24.584Z</time></trkpt><trkpt lat="9.902488" lon="-84.0955439"><ele>1105.6666666666667</ele><time>2026-04-08T22:15:25.583Z</time></trkpt><trkpt lat="9.9024321" lon="-84.0954887"><ele>1106.0</ele><time>2026-04-08T22:15:26.585Z</time></trkpt><trkpt lat="9.9023844" lon="-84.0954373"><ele>1106.0</ele><time>2026-04-08T22:15:27.582Z</time></trkpt><trkpt lat="9.902329" lon="-84.0953919"><ele>1106.0</ele><time>2026-04-08T22:15:28.584Z</time></trkpt><trkpt lat="9.9022641" lon="-84.0953435"><ele>1106.0</ele><time>2026-04-08T22:15:29.584Z</time></trkpt><trkpt lat="9.9021932" lon="-84.0952988"><ele>1106.0</ele><time>2026-04-08T22:15:30.583Z</time></trkpt><trkpt lat="9.9021306" lon="-84.0952625"><ele>1106.0</ele><time>2026-04-08T22:15:31.583Z</time></trkpt><trkpt lat="9.902058" lon="-84.0952307"><ele>1106.0</ele><time>2026-04-08T22:15:32.583Z</time></trkpt><trkpt lat="9.9019869" lon="-84.0952"><ele>1106.0</ele><time>2026-04-08T22:15:33.582Z</time></trkpt><trkpt lat="9.9019221" lon="-84.0951856"><ele>1106.0</ele><time>2026-04-08T22:15:34.583Z</time></trkpt><trkpt lat="9.9018536" lon="-84.0951666"><ele>1106.0</ele><time>2026-04-08T22:15:35.583Z</time></trkpt><trkpt lat="9.9017375" lon="-84.0951432"><ele>1106.0</ele><time>2026-04-08T22:15:37.583Z</time></trkpt><trkpt lat="9.9016696" lon="-84.0951209"><ele>1106.0</ele><time>2026-04-08T22:15:38.583Z</time></trkpt><trkpt lat="9.9015907" lon="-84.0950917"><ele>1106.0</ele><time>2026-04-08T22:15:39.584Z</time></trkpt><trkpt lat="9.9015077" lon="-84.0950616"><ele>1107.1666666666667</ele><time>2026-04-08T22:15:40.582Z</time></trkpt><trkpt lat="9.9014323" lon="-84.0950217"><ele>1108.3333333333335</ele><time>2026-04-08T22:15:41.584Z</time></trkpt><trkpt lat="9.9013577" lon="-84.0949914"><ele>1109.5</ele><time>2026-04-08T22:15:42.581Z</time></trkpt><trkpt lat="9.9012887" lon="-84.0949648"><ele>1110.6666666666667</ele><time>2026-04-08T22:15:43.584Z</time></trkpt><trkpt lat="9.9012153" lon="-84.0949435"><ele>1111.8333333333333</ele><time>2026-04-08T22:15:44.582Z</time></trkpt><trkpt lat="9.9011412" lon="-84.0949352"><ele>1113.0</ele><time>2026-04-08T22:15:45.584Z</time></trkpt><trkpt lat="9.9010734" lon="-84.0949318"><ele>1113.0</ele><time>2026-04-08T22:15:46.583Z</time></trkpt><trkpt lat="9.900951" lon="-84.0949314"><ele>1113.0</ele><time>2026-04-08T22:15:48.583Z</time></trkpt><trkpt lat="9.9008325" lon="-84.0949278"><ele>1113.0</ele><time>2026-04-08T22:15:50.583Z</time></trkpt><trkpt lat="9.9007442" lon="-84.0949272"><ele>1113.0</ele><time>2026-04-08T22:15:52.584Z</time></trkpt><trkpt lat="9.9006729" lon="-84.0949306"><ele>1113.0</ele><time>2026-04-08T22:15:55.583Z</time></trkpt><trkpt lat="9.9006035" lon="-84.0949441"><ele>1113.0</ele><time>2026-04-08T22:16:24.583Z</time></trkpt><trkpt lat="9.9005356" lon="-84.0949263"><ele>1113.0</ele><time>2026-04-08T22:16:53.584Z</time></trkpt><trkpt lat="9.9004862" lon="-84.0948699"><ele>1113.0</ele><time>2026-04-08T22:16:54.583Z</time></trkpt><trkpt lat="9.9004397" lon="-84.0948109"><ele>1113.0</ele><time>2026-04-08T22:16:55.582Z</time></trkpt><trkpt lat="9.9003929" lon="-84.0947339"><ele>1113.0</ele><time>2026-04-08T22:16:56.582Z</time></trkpt><trkpt lat="9.9003531" lon="-84.0946586"><ele>1113.0</ele><time>2026-04-08T22:16:57.582Z</time></trkpt><trkpt lat="9.9003186" lon="-84.0945889"><ele>1113.0</ele><time>2026-04-08T22:16:58.583Z</time></trkpt><trkpt lat="9.9002798" lon="-84.0945193"><ele>1113.0</ele><time>2026-04-08T22:16:59.584Z</time></trkpt><trkpt lat="9.900242" lon="-84.0944497"><ele>1113.0</ele><time>2026-04-08T22:17:00.582Z</time></trkpt><trkpt lat="9.9001977" lon="-84.0943746"><ele>1113.0</ele><time>2026-04-08T22:17:01.583Z</time></trkpt><trkpt lat="9.9001565" lon="-84.094304"><ele>1113.0</ele><time>2026-04-08T22:17:02.583Z</time></trkpt><trkpt lat="9.900116" lon="-84.0942388"><ele>1113.0</ele><time>2026-04-08T22:17:03.583Z</time></trkpt><trkpt lat="9.9000698" lon="-84.0941706"><ele>1113.0</ele><time>2026-04-08T22:17:04.584Z</time></trkpt><trkpt lat="9.9000234" lon="-84.0941086"><ele>1113.0</ele><time>2026-04-08T22:17:05.581Z</time></trkpt><trkpt lat="9.8999786" lon="-84.0940616"><ele>1113.0</ele><time>2026-04-08T22:17:06.583Z</time></trkpt><trkpt lat="9.8999118" lon="-84.0940137"><ele>1113.0</ele><time>2026-04-08T22:17:07.583Z</time></trkpt><trkpt lat="9.8998486" lon="-84.0939716"><ele>1113.0</ele><time>2026-04-08T22:17:08.583Z</time></trkpt><trkpt lat="9.8997773" lon="-84.0939346"><ele>1113.0</ele><time>2026-04-08T22:17:09.583Z</time></trkpt><trkpt lat="9.8997122" lon="-84.0939088"><ele>1113.0</ele><time>2026-04-08T22:17:10.582Z</time></trkpt><trkpt lat="9.8996033" lon="-84.0938714"><ele>1113.0</ele><time>2026-04-08T22:17:12.582Z</time></trkpt><trkpt lat="9.8995157" lon="-84.0938341"><ele>1113.0</ele><time>2026-04-08T22:17:14.583Z</time></trkpt><trkpt lat="9.8994407" lon="-84.093814"><ele>1113.0</ele><time>2026-04-08T22:17:16.584Z</time></trkpt><trkpt lat="9.8993789" lon="-84.0937898"><ele>1113.0</ele><time>2026-04-08T22:17:18.582Z</time></trkpt><trkpt lat="9.8993155" lon="-84.093744"><ele>1113.0</ele><time>2026-04-08T22:17:30.582Z</time></trkpt><trkpt lat="9.8992568" lon="-84.0937202"><ele>1113.0</ele><time>2026-04-08T22:17:32.582Z</time></trkpt><trkpt lat="9.8991992" lon="-84.0936932"><ele>1113.0</ele><time>2026-04-08T22:17:34.582Z</time></trkpt><trkpt lat="9.8991202" lon="-84.0936468"><ele>1113.5</ele><time>2026-04-08T22:17:37.584Z</time></trkpt><trkpt lat="9.8990631" lon="-84.0936086"><ele>1114.0</ele><time>2026-04-08T22:17:40.582Z</time></trkpt><trkpt lat="9.899003" lon="-84.0935729"><ele>1114.5</ele><time>2026-04-08T22:17:43.583Z</time></trkpt><trkpt lat="9.8989383" lon="-84.0935294"><ele>1115.0</ele><time>2026-04-08T22:17:46.582Z</time></trkpt><trkpt lat="9.8988595" lon="-84.0934759"><ele>1115.5</ele><time>2026-04-08T22:17:48.582Z</time></trkpt><trkpt lat="9.8987799" lon="-84.0934105"><ele>1116.0</ele><time>2026-04-08T22:17:50.584Z</time></trkpt><trkpt lat="9.898699" lon="-84.0933452"><ele>1116.0</ele><time>2026-04-08T22:17:52.584Z</time></trkpt><trkpt lat="9.8986344" lon="-84.0932848"><ele>1116.0</ele><time>2026-04-08T22:17:54.582Z</time></trkpt><trkpt lat="9.8985828" lon="-84.0932303"><ele>1116.0</ele><time>2026-04-08T22:17:56.582Z</time></trkpt><trkpt lat="9.8985112" lon="-84.0931642"><ele>1116.0</ele><time>2026-04-08T22:17:59.583Z</time></trkpt><trkpt lat="9.8984632" lon="-84.0931218"><ele>1116.0</ele><time>2026-04-08T22:18:01.583Z</time></trkpt><trkpt lat="9.8984036" lon="-84.0930631"><ele>1116.0</ele><time>2026-04-08T22:18:04.582Z</time></trkpt><trkpt lat="9.8983615" lon="-84.0930128"><ele>1115.8</ele><time>2026-04-08T22:18:07.584Z</time></trkpt><trkpt lat="9.8982879" lon="-84.0929442"><ele>1115.6</ele><time>2026-04-08T22:18:10.582Z</time></trkpt><trkpt lat="9.8982087" lon="-84.0928693"><ele>1115.4</ele><time>2026-04-08T22:18:12.582Z</time></trkpt><trkpt lat="9.8981296" lon="-84.0927979"><ele>1115.2</ele><time>2026-04-08T22:18:14.584Z</time></trkpt><trkpt lat="9.8980557" lon="-84.0927317"><ele>1115.0</ele><time>2026-04-08T22:18:16.582Z</time></trkpt><trkpt lat="9.8980058" lon="-84.0926861"><ele>1115.0</ele><time>2026-04-08T22:18:19.583Z</time></trkpt><trkpt lat="9.8979501" lon="-84.0926306"><ele>1115.0</ele><time>2026-04-08T22:18:23.582Z</time></trkpt><trkpt lat="9.8979048" lon="-84.0925774"><ele>1115.0</ele><time>2026-04-08T22:18:27.583Z</time></trkpt><trkpt lat="9.8978681" lon="-84.0925217"><ele>1115.0</ele><time>2026-04-08T22:18:36.584Z</time></trkpt><trkpt lat="9.8978233" lon="-84.0924638"><ele>1115.0</ele><time>2026-04-08T22:18:38.583Z</time></trkpt><trkpt lat="9.8977854" lon="-84.0924115"><ele>1115.0</ele><time>2026-04-08T22:18:40.582Z</time></trkpt><trkpt lat="9.8977589" lon="-84.0923478"><ele>1115.0</ele><time>2026-04-08T22:18:47.582Z</time></trkpt><trkpt lat="9.8978087" lon="-84.092282"><ele>1115.0</ele><time>2026-04-08T22:18:49.582Z</time></trkpt><trkpt lat="9.8978879" lon="-84.0922303"><ele>1115.0</ele><time>2026-04-08T22:18:51.583Z</time></trkpt><trkpt lat="9.8979808" lon="-84.0922093"><ele>1115.0</ele><time>2026-04-08T22:18:53.582Z</time></trkpt><trkpt lat="9.8980826" lon="-84.0922013"><ele>1115.0</ele><time>2026-04-08T22:18:55.583Z</time></trkpt><trkpt lat="9.898182" lon="-84.0921903"><ele>1115.0</ele><time>2026-04-08T22:18:57.582Z</time></trkpt><trkpt lat="9.8982831" lon="-84.0921806"><ele>1115.0</ele><time>2026-04-08T22:18:59.582Z</time></trkpt><trkpt lat="9.898348" lon="-84.0921712"><ele>1115.0</ele><time>2026-04-08T22:19:00.582Z</time></trkpt><trkpt lat="9.8984713" lon="-84.0921675"><ele>1115.0</ele><time>2026-04-08T22:19:02.582Z</time></trkpt><trkpt lat="9.8985771" lon="-84.092165"><ele>1115.0</ele><time>2026-04-08T22:19:04.583Z</time></trkpt><trkpt lat="9.8986784" lon="-84.0921695"><ele>1115.0</ele><time>2026-04-08T22:19:06.583Z</time></trkpt><trkpt lat="9.8987766" lon="-84.0921725"><ele>1114.8333333333335</ele><time>2026-04-08T22:19:08.583Z</time></trkpt><trkpt lat="9.8988655" lon="-84.0921717"><ele>1114.6666666666667</ele><time>2026-04-08T22:19:10.583Z</time></trkpt><trkpt lat="9.8989487" lon="-84.0921736"><ele>1114.5</ele><time>2026-04-08T22:19:12.583Z</time></trkpt><trkpt lat="9.8990298" lon="-84.0921734"><ele>1114.3333333333333</ele><time>2026-04-08T22:19:14.582Z</time></trkpt><trkpt lat="9.8990935" lon="-84.092143"><ele>1114.1666666666665</ele><time>2026-04-08T22:19:17.583Z</time></trkpt><trkpt lat="9.8991138" lon="-84.0920736"><ele>1114.0</ele><time>2026-04-08T22:19:31.582Z</time></trkpt><trkpt lat="9.8991162" lon="-84.0919865"><ele>1114.0</ele><time>2026-04-08T22:19:34.582Z</time></trkpt><trkpt lat="9.8991447" lon="-84.0919289"><ele>1114.0</ele><time>2026-04-08T22:19:36.581Z</time></trkpt><trkpt lat="9.8991951" lon="-84.0918876"><ele>1114.0</ele><time>2026-04-08T22:19:38.582Z</time></trkpt><trkpt lat="9.8992727" lon="-84.0918549"><ele>1111.0</ele><time>2026-04-08T22:19:41.582Z</time></trkpt></trkseg></trk></gpx>